<?xml version='1.0' encoding='UTF-8'?>
<gpx version="1.1" creator="https://www.komoot.de" xmlns="http://www.topografix.com/GPX/1/1" xmlns:xsi="http://www.w3.org/2001/XMLSchema-instance" xsi:schemaLocation="http://www.topografix.com/GPX/1/1 http://www.topografix.com/GPX/1/1/gpx.xsd">
  <metadata>
    <name>55_660AlbtalRotzel</name>
    <author>
      <link href="https://www.komoot.de">
        <text>komoot</text>
        <type>text/html</type>
      </link>
    </author>
  </metadata>
  <trk>
    <name>55_660AlbtalRotzel</name>
    <trkseg>
      <trkpt lat="47.541389" lon="7.870808">
        <ele>341.096764</ele>
        <time>2021-11-14T13:40:57.286Z</time>
      </trkpt>
      <trkpt lat="47.541410" lon="7.870791">
        <ele>341.096764</ele>
        <time>2021-11-14T13:40:57.619Z</time>
      </trkpt>
      <trkpt lat="47.541576" lon="7.870664">
        <ele>341.096764</ele>
        <time>2021-11-14T13:41:01.762Z</time>
      </trkpt>
      <trkpt lat="47.541796" lon="7.871042">
        <ele>341.096764</ele>
        <time>2021-11-14T13:41:08.942Z</time>
      </trkpt>
      <trkpt lat="47.541953" lon="7.871286">
        <ele>341.096764</ele>
        <time>2021-11-14T13:41:13.690Z</time>
      </trkpt>
      <trkpt lat="47.542039" lon="7.871556">
        <ele>341.394277</ele>
        <time>2021-11-14T13:41:18.204Z</time>
      </trkpt>
      <trkpt lat="47.542067" lon="7.871664">
        <ele>341.694313</ele>
        <time>2021-11-14T13:41:19.794Z</time>
      </trkpt>
      <trkpt lat="47.542091" lon="7.871721">
        <ele>341.868536</ele>
        <time>2021-11-14T13:41:20.372Z</time>
      </trkpt>
      <trkpt lat="47.542218" lon="7.871866">
        <ele>342.484545</ele>
        <time>2021-11-14T13:41:25.596Z</time>
      </trkpt>
      <trkpt lat="47.542394" lon="7.872341">
        <ele>343.889782</ele>
        <time>2021-11-14T13:41:35.656Z</time>
      </trkpt>
      <trkpt lat="47.542436" lon="7.872494">
        <ele>344.318125</ele>
        <time>2021-11-14T13:41:38.987Z</time>
      </trkpt>
      <trkpt lat="47.542537" lon="7.872430">
        <ele>344.740157</ele>
        <time>2021-11-14T13:41:41.022Z</time>
      </trkpt>
      <trkpt lat="47.542714" lon="7.872334">
        <ele>345.464303</ele>
        <time>2021-11-14T13:41:48.135Z</time>
      </trkpt>
      <trkpt lat="47.542814" lon="7.872280">
        <ele>345.873214</ele>
        <time>2021-11-14T13:41:51.012Z</time>
      </trkpt>
      <trkpt lat="47.542919" lon="7.872226">
        <ele>346.300222</ele>
        <time>2021-11-14T13:41:54.853Z</time>
      </trkpt>
      <trkpt lat="47.543013" lon="7.872182">
        <ele>346.678952</ele>
        <time>2021-11-14T13:41:58.483Z</time>
      </trkpt>
      <trkpt lat="47.543233" lon="7.872082">
        <ele>347.563045</ele>
        <time>2021-11-14T13:42:05.581Z</time>
      </trkpt>
      <trkpt lat="47.543251" lon="7.872152">
        <ele>347.757305</ele>
        <time>2021-11-14T13:42:08.995Z</time>
      </trkpt>
      <trkpt lat="47.543332" lon="7.872237">
        <ele>348.226779</ele>
        <time>2021-11-14T13:42:12.405Z</time>
      </trkpt>
      <trkpt lat="47.544390" lon="7.872423">
        <ele>355.056091</ele>
        <time>2021-11-14T13:42:54.037Z</time>
      </trkpt>
      <trkpt lat="47.544883" lon="7.872555">
        <ele>358.267393</ele>
        <time>2021-11-14T13:43:16.379Z</time>
      </trkpt>
      <trkpt lat="47.545131" lon="7.872664">
        <ele>359.933902</ele>
        <time>2021-11-14T13:43:27.383Z</time>
      </trkpt>
      <trkpt lat="47.545375" lon="7.872836">
        <ele>361.703126</ele>
        <time>2021-11-14T13:43:38.324Z</time>
      </trkpt>
      <trkpt lat="47.545478" lon="7.872968">
        <ele>362.594834</ele>
        <time>2021-11-14T13:43:45.132Z</time>
      </trkpt>
      <trkpt lat="47.545515" lon="7.873015">
        <ele>362.913952</ele>
        <time>2021-11-14T13:43:47.088Z</time>
      </trkpt>
      <trkpt lat="47.545746" lon="7.873302">
        <ele>364.887896</ele>
        <time>2021-11-14T13:44:00.288Z</time>
      </trkpt>
      <trkpt lat="47.545934" lon="7.873549">
        <ele>366.533145</ele>
        <time>2021-11-14T13:44:10.388Z</time>
      </trkpt>
      <trkpt lat="47.546077" lon="7.873763">
        <ele>367.863989</ele>
        <time>2021-11-14T13:44:19.584Z</time>
      </trkpt>
      <trkpt lat="47.546135" lon="7.873859">
        <ele>368.433395</ele>
        <time>2021-11-14T13:44:22.824Z</time>
      </trkpt>
      <trkpt lat="47.546309" lon="7.874154">
        <ele>370.164786</ele>
        <time>2021-11-14T13:44:33.938Z</time>
      </trkpt>
      <trkpt lat="47.547126" lon="7.875801">
        <ele>375.853514</ele>
        <time>2021-11-14T13:45:19.699Z</time>
      </trkpt>
      <trkpt lat="47.547574" lon="7.876801">
        <ele>377.871470</ele>
        <time>2021-11-14T13:45:38.695Z</time>
      </trkpt>
      <trkpt lat="47.547992" lon="7.877974">
        <ele>376.946525</ele>
        <time>2021-11-14T13:45:51.496Z</time>
      </trkpt>
      <trkpt lat="47.548234" lon="7.878638">
        <ele>376.420325</ele>
        <time>2021-11-14T13:45:56.760Z</time>
      </trkpt>
      <trkpt lat="47.548422" lon="7.878959">
        <ele>375.734676</ele>
        <time>2021-11-14T13:45:59.530Z</time>
      </trkpt>
      <trkpt lat="47.548718" lon="7.879258">
        <ele>374.081178</ele>
        <time>2021-11-14T13:46:02.945Z</time>
      </trkpt>
      <trkpt lat="47.549140" lon="7.879391">
        <ele>372.089876</ele>
        <time>2021-11-14T13:46:07.014Z</time>
      </trkpt>
      <trkpt lat="47.549318" lon="7.879398">
        <ele>371.268037</ele>
        <time>2021-11-14T13:46:08.627Z</time>
      </trkpt>
      <trkpt lat="47.549426" lon="7.879394">
        <ele>370.769412</ele>
        <time>2021-11-14T13:46:09.671Z</time>
      </trkpt>
      <trkpt lat="47.549694" lon="7.879391">
        <ele>369.532436</ele>
        <time>2021-11-14T13:46:12.196Z</time>
      </trkpt>
      <trkpt lat="47.549920" lon="7.879395">
        <ele>368.489269</ele>
        <time>2021-11-14T13:46:14.390Z</time>
      </trkpt>
      <trkpt lat="47.549993" lon="7.879403">
        <ele>368.151421</ele>
        <time>2021-11-14T13:46:15.065Z</time>
      </trkpt>
      <trkpt lat="47.550458" lon="7.879428">
        <ele>366.718682</ele>
        <time>2021-11-14T13:46:19.565Z</time>
      </trkpt>
      <trkpt lat="47.550948" lon="7.879456">
        <ele>365.293345</ele>
        <time>2021-11-14T13:46:24.473Z</time>
      </trkpt>
      <trkpt lat="47.551453" lon="7.879539">
        <ele>363.816463</ele>
        <time>2021-11-14T13:46:30.095Z</time>
      </trkpt>
      <trkpt lat="47.551499" lon="7.879547">
        <ele>363.681838</ele>
        <time>2021-11-14T13:46:30.614Z</time>
      </trkpt>
      <trkpt lat="47.552616" lon="7.879896">
        <ele>360.747017</ele>
        <time>2021-11-14T13:46:43.633Z</time>
      </trkpt>
      <trkpt lat="47.553292" lon="7.880216">
        <ele>359.021765</ele>
        <time>2021-11-14T13:46:51.304Z</time>
      </trkpt>
      <trkpt lat="47.554555" lon="7.880902">
        <ele>352.892141</ele>
        <time>2021-11-14T13:47:04.233Z</time>
      </trkpt>
      <trkpt lat="47.554711" lon="7.880958">
        <ele>352.069852</ele>
        <time>2021-11-14T13:47:05.708Z</time>
      </trkpt>
      <trkpt lat="47.554840" lon="7.880981">
        <ele>351.404232</ele>
        <time>2021-11-14T13:47:06.857Z</time>
      </trkpt>
      <trkpt lat="47.554892" lon="7.880986">
        <ele>351.137282</ele>
        <time>2021-11-14T13:47:07.342Z</time>
      </trkpt>
      <trkpt lat="47.555165" lon="7.880954">
        <ele>349.734364</ele>
        <time>2021-11-14T13:47:09.829Z</time>
      </trkpt>
      <trkpt lat="47.555219" lon="7.881390">
        <ele>347.964710</ele>
        <time>2021-11-14T13:47:12.545Z</time>
      </trkpt>
      <trkpt lat="47.555161" lon="7.882307">
        <ele>343.957972</ele>
        <time>2021-11-14T13:47:18.175Z</time>
      </trkpt>
      <trkpt lat="47.555126" lon="7.882565">
        <ele>342.813133</ele>
        <time>2021-11-14T13:47:19.747Z</time>
      </trkpt>
      <trkpt lat="47.554972" lon="7.883695">
        <ele>337.798012</ele>
        <time>2021-11-14T13:47:26.798Z</time>
      </trkpt>
      <trkpt lat="47.554519" lon="7.886778">
        <ele>327.462604</ele>
        <time>2021-11-14T13:47:46.930Z</time>
      </trkpt>
      <trkpt lat="47.554151" lon="7.889353">
        <ele>321.361463</ele>
        <time>2021-11-14T13:48:04.905Z</time>
      </trkpt>
      <trkpt lat="47.553816" lon="7.891691">
        <ele>317.219089</ele>
        <time>2021-11-14T13:48:21.969Z</time>
      </trkpt>
      <trkpt lat="47.553711" lon="7.892472">
        <ele>316.284244</ele>
        <time>2021-11-14T13:48:27.740Z</time>
      </trkpt>
      <trkpt lat="47.553422" lon="7.894151">
        <ele>314.250134</ele>
        <time>2021-11-14T13:48:41.074Z</time>
      </trkpt>
      <trkpt lat="47.553308" lon="7.894573">
        <ele>314.108081</ele>
        <time>2021-11-14T13:48:44.918Z</time>
      </trkpt>
      <trkpt lat="47.553260" lon="7.894549">
        <ele>314.087051</ele>
        <time>2021-11-14T13:48:45.577Z</time>
      </trkpt>
      <trkpt lat="47.553130" lon="7.894640">
        <ele>314.027366</ele>
        <time>2021-11-14T13:48:47.550Z</time>
      </trkpt>
      <trkpt lat="47.553112" lon="7.894710">
        <ele>314.006379</ele>
        <time>2021-11-14T13:48:48.184Z</time>
      </trkpt>
      <trkpt lat="47.553110" lon="7.894769">
        <ele>313.989829</ele>
        <time>2021-11-14T13:48:48.716Z</time>
      </trkpt>
      <trkpt lat="47.553174" lon="7.894916">
        <ele>313.940818</ele>
        <time>2021-11-14T13:48:50.255Z</time>
      </trkpt>
      <trkpt lat="47.553211" lon="7.894938">
        <ele>313.924268</ele>
        <time>2021-11-14T13:48:50.810Z</time>
      </trkpt>
      <trkpt lat="47.553164" lon="7.895114">
        <ele>313.871239</ele>
        <time>2021-11-14T13:48:52.664Z</time>
      </trkpt>
      <trkpt lat="47.553057" lon="7.895430">
        <ele>313.772189</ele>
        <time>2021-11-14T13:48:55.902Z</time>
      </trkpt>
      <trkpt lat="47.552719" lon="7.896440">
        <ele>313.436368</ele>
        <time>2021-11-14T13:49:07.028Z</time>
      </trkpt>
      <trkpt lat="47.552358" lon="7.897179">
        <ele>312.997305</ele>
        <time>2021-11-14T13:49:16.641Z</time>
      </trkpt>
      <trkpt lat="47.551673" lon="7.898276">
        <ele>312.278015</ele>
        <time>2021-11-14T13:49:29.197Z</time>
      </trkpt>
      <trkpt lat="47.551366" lon="7.899159">
        <ele>310.506283</ele>
        <time>2021-11-14T13:49:36.482Z</time>
      </trkpt>
      <trkpt lat="47.551253" lon="7.899932">
        <ele>308.899288</ele>
        <time>2021-11-14T13:49:41.956Z</time>
      </trkpt>
      <trkpt lat="47.551142" lon="7.902561">
        <ele>302.612847</ele>
        <time>2021-11-14T13:49:59.323Z</time>
      </trkpt>
      <trkpt lat="47.550965" lon="7.903751">
        <ele>299.553907</ele>
        <time>2021-11-14T13:50:07.380Z</time>
      </trkpt>
      <trkpt lat="47.550802" lon="7.904472">
        <ele>298.235969</ele>
        <time>2021-11-14T13:50:12.559Z</time>
      </trkpt>
      <trkpt lat="47.550497" lon="7.905558">
        <ele>296.197161</ele>
        <time>2021-11-14T13:50:20.928Z</time>
      </trkpt>
      <trkpt lat="47.549539" lon="7.908625">
        <ele>292.756701</ele>
        <time>2021-11-14T13:50:47.869Z</time>
      </trkpt>
      <trkpt lat="47.549520" lon="7.908678">
        <ele>292.710240</ele>
        <time>2021-11-14T13:50:48.371Z</time>
      </trkpt>
      <trkpt lat="47.549378" lon="7.909148">
        <ele>292.311576</ele>
        <time>2021-11-14T13:50:52.579Z</time>
      </trkpt>
      <trkpt lat="47.549301" lon="7.909403">
        <ele>292.095300</ele>
        <time>2021-11-14T13:50:54.849Z</time>
      </trkpt>
      <trkpt lat="47.549195" lon="7.909756">
        <ele>291.796181</ele>
        <time>2021-11-14T13:50:58.016Z</time>
      </trkpt>
      <trkpt lat="47.549102" lon="7.910058">
        <ele>291.539187</ele>
        <time>2021-11-14T13:51:00.711Z</time>
      </trkpt>
      <trkpt lat="47.549012" lon="7.910340">
        <ele>291.297686</ele>
        <time>2021-11-14T13:51:03.235Z</time>
      </trkpt>
      <trkpt lat="47.548412" lon="7.912168">
        <ele>289.842103</ele>
        <time>2021-11-14T13:51:19.569Z</time>
      </trkpt>
      <trkpt lat="47.548027" lon="7.913334">
        <ele>288.959305</ele>
        <time>2021-11-14T13:51:30.330Z</time>
      </trkpt>
      <trkpt lat="47.547994" lon="7.913433">
        <ele>288.946753</ele>
        <time>2021-11-14T13:51:31.251Z</time>
      </trkpt>
      <trkpt lat="47.547423" lon="7.915080">
        <ele>288.736275</ele>
        <time>2021-11-14T13:51:48.739Z</time>
      </trkpt>
      <trkpt lat="47.547113" lon="7.915971">
        <ele>288.778806</ele>
        <time>2021-11-14T13:51:59.377Z</time>
      </trkpt>
      <trkpt lat="47.547091" lon="7.916039">
        <ele>288.807133</ele>
        <time>2021-11-14T13:52:00.427Z</time>
      </trkpt>
      <trkpt lat="47.547032" lon="7.916218">
        <ele>288.881965</ele>
        <time>2021-11-14T13:52:02.698Z</time>
      </trkpt>
      <trkpt lat="47.546821" lon="7.916867">
        <ele>289.152576</ele>
        <time>2021-11-14T13:52:11.113Z</time>
      </trkpt>
      <trkpt lat="47.546262" lon="7.919081">
        <ele>289.862617</ele>
        <time>2021-11-14T13:52:38.774Z</time>
      </trkpt>
      <trkpt lat="47.546128" lon="7.919617">
        <ele>289.977014</ele>
        <time>2021-11-14T13:52:44.202Z</time>
      </trkpt>
      <trkpt lat="47.545973" lon="7.920313">
        <ele>290.123698</ele>
        <time>2021-11-14T13:52:51.622Z</time>
      </trkpt>
      <trkpt lat="47.545913" lon="7.920765">
        <ele>290.305555</ele>
        <time>2021-11-14T13:52:56.379Z</time>
      </trkpt>
      <trkpt lat="47.545881" lon="7.921096">
        <ele>290.634700</ele>
        <time>2021-11-14T13:53:00.346Z</time>
      </trkpt>
      <trkpt lat="47.545810" lon="7.921755">
        <ele>291.291599</ele>
        <time>2021-11-14T13:53:08.956Z</time>
      </trkpt>
      <trkpt lat="47.545778" lon="7.921947">
        <ele>291.486270</ele>
        <time>2021-11-14T13:53:11.910Z</time>
      </trkpt>
      <trkpt lat="47.545714" lon="7.922249">
        <ele>291.797851</ele>
        <time>2021-11-14T13:53:15.763Z</time>
      </trkpt>
      <trkpt lat="47.545699" lon="7.922325">
        <ele>291.875795</ele>
        <time>2021-11-14T13:53:16.961Z</time>
      </trkpt>
      <trkpt lat="47.545690" lon="7.922369">
        <ele>291.921051</ele>
        <time>2021-11-14T13:53:18.032Z</time>
      </trkpt>
      <trkpt lat="47.545641" lon="7.922610">
        <ele>292.168809</ele>
        <time>2021-11-14T13:53:21.388Z</time>
      </trkpt>
      <trkpt lat="47.545587" lon="7.922895">
        <ele>292.460193</ele>
        <time>2021-11-14T13:53:26.220Z</time>
      </trkpt>
      <trkpt lat="47.545553" lon="7.923142">
        <ele>292.708333</ele>
        <time>2021-11-14T13:53:29.830Z</time>
      </trkpt>
      <trkpt lat="47.545536" lon="7.923407">
        <ele>293.214477</ele>
        <time>2021-11-14T13:53:34.706Z</time>
      </trkpt>
      <trkpt lat="47.545521" lon="7.923709">
        <ele>293.983854</ele>
        <time>2021-11-14T13:53:39.873Z</time>
      </trkpt>
      <trkpt lat="47.545481" lon="7.924396">
        <ele>295.735821</ele>
        <time>2021-11-14T13:53:54.476Z</time>
      </trkpt>
      <trkpt lat="47.545466" lon="7.924880">
        <ele>296.966833</ele>
        <time>2021-11-14T13:54:05.783Z</time>
      </trkpt>
      <trkpt lat="47.545446" lon="7.925350">
        <ele>298.163351</ele>
        <time>2021-11-14T13:54:16.158Z</time>
      </trkpt>
      <trkpt lat="47.545417" lon="7.925848">
        <ele>299.433339</ele>
        <time>2021-11-14T13:54:26.637Z</time>
      </trkpt>
      <trkpt lat="47.545409" lon="7.926773">
        <ele>300.646328</ele>
        <time>2021-11-14T13:54:43.838Z</time>
      </trkpt>
      <trkpt lat="47.545407" lon="7.927001">
        <ele>300.925825</ele>
        <time>2021-11-14T13:54:47.647Z</time>
      </trkpt>
      <trkpt lat="47.545406" lon="7.927306">
        <ele>301.299685</ele>
        <time>2021-11-14T13:54:52.251Z</time>
      </trkpt>
      <trkpt lat="47.545421" lon="7.927686">
        <ele>301.766269</ele>
        <time>2021-11-14T13:54:57.787Z</time>
      </trkpt>
      <trkpt lat="47.545475" lon="7.928419">
        <ele>302.670085</ele>
        <time>2021-11-14T13:55:07.104Z</time>
      </trkpt>
      <trkpt lat="47.545563" lon="7.929641">
        <ele>301.635552</ele>
        <time>2021-11-14T13:55:16.983Z</time>
      </trkpt>
      <trkpt lat="47.545661" lon="7.930955">
        <ele>300.146527</ele>
        <time>2021-11-14T13:55:26.379Z</time>
      </trkpt>
      <trkpt lat="47.545696" lon="7.931497">
        <ele>299.668220</ele>
        <time>2021-11-14T13:55:30.348Z</time>
      </trkpt>
      <trkpt lat="47.545721" lon="7.931992">
        <ele>299.346595</ele>
        <time>2021-11-14T13:55:34.141Z</time>
      </trkpt>
      <trkpt lat="47.545724" lon="7.932758">
        <ele>298.850268</ele>
        <time>2021-11-14T13:55:40.350Z</time>
      </trkpt>
      <trkpt lat="47.545702" lon="7.933290">
        <ele>298.504919</ele>
        <time>2021-11-14T13:55:44.993Z</time>
      </trkpt>
      <trkpt lat="47.545674" lon="7.933625">
        <ele>298.286203</ele>
        <time>2021-11-14T13:55:48.193Z</time>
      </trkpt>
      <trkpt lat="47.545457" lon="7.935110">
        <ele>299.085087</ele>
        <time>2021-11-14T13:56:06.328Z</time>
      </trkpt>
      <trkpt lat="47.545074" lon="7.936484">
        <ele>300.250003</ele>
        <time>2021-11-14T13:56:27.855Z</time>
      </trkpt>
      <trkpt lat="47.544903" lon="7.936917">
        <ele>300.850130</ele>
        <time>2021-11-14T13:56:35.172Z</time>
      </trkpt>
      <trkpt lat="47.544705" lon="7.937395">
        <ele>301.521035</ele>
        <time>2021-11-14T13:56:43.356Z</time>
      </trkpt>
      <trkpt lat="47.544472" lon="7.937932">
        <ele>302.284709</ele>
        <time>2021-11-14T13:56:52.763Z</time>
      </trkpt>
      <trkpt lat="47.543826" lon="7.939433">
        <ele>304.329860</ele>
        <time>2021-11-14T13:57:19.645Z</time>
      </trkpt>
      <trkpt lat="47.543435" lon="7.940670">
        <ele>305.836929</ele>
        <time>2021-11-14T13:57:39.605Z</time>
      </trkpt>
      <trkpt lat="47.543161" lon="7.942213">
        <ele>306.488143</ele>
        <time>2021-11-14T13:58:00.455Z</time>
      </trkpt>
      <trkpt lat="47.543007" lon="7.943867">
        <ele>306.469984</ele>
        <time>2021-11-14T13:58:15.999Z</time>
      </trkpt>
      <trkpt lat="47.542913" lon="7.945267">
        <ele>304.561334</ele>
        <time>2021-11-14T13:58:26.758Z</time>
      </trkpt>
      <trkpt lat="47.542872" lon="7.945781">
        <ele>303.859175</ele>
        <time>2021-11-14T13:58:30.355Z</time>
      </trkpt>
      <trkpt lat="47.542875" lon="7.946089">
        <ele>303.441290</ele>
        <time>2021-11-14T13:58:32.446Z</time>
      </trkpt>
      <trkpt lat="47.542902" lon="7.946514">
        <ele>302.842040</ele>
        <time>2021-11-14T13:58:35.325Z</time>
      </trkpt>
      <trkpt lat="47.542943" lon="7.946806">
        <ele>302.408129</ele>
        <time>2021-11-14T13:58:37.371Z</time>
      </trkpt>
      <trkpt lat="47.542974" lon="7.946965">
        <ele>302.167352</ele>
        <time>2021-11-14T13:58:38.582Z</time>
      </trkpt>
      <trkpt lat="47.542979" lon="7.946989">
        <ele>302.130811</ele>
        <time>2021-11-14T13:58:38.737Z</time>
      </trkpt>
      <trkpt lat="47.543007" lon="7.947104">
        <ele>301.952952</ele>
        <time>2021-11-14T13:58:39.586Z</time>
      </trkpt>
      <trkpt lat="47.543087" lon="7.947317">
        <ele>301.598331</ele>
        <time>2021-11-14T13:58:41.328Z</time>
      </trkpt>
      <trkpt lat="47.543191" lon="7.947615">
        <ele>301.110272</ele>
        <time>2021-11-14T13:58:43.770Z</time>
      </trkpt>
      <trkpt lat="47.543242" lon="7.947745">
        <ele>300.891521</ele>
        <time>2021-11-14T13:58:44.900Z</time>
      </trkpt>
      <trkpt lat="47.543273" lon="7.947816">
        <ele>300.768503</ele>
        <time>2021-11-14T13:58:45.527Z</time>
      </trkpt>
      <trkpt lat="47.543358" lon="7.947967">
        <ele>300.482461</ele>
        <time>2021-11-14T13:58:46.970Z</time>
      </trkpt>
      <trkpt lat="47.543455" lon="7.948127">
        <ele>300.169589</ele>
        <time>2021-11-14T13:58:48.637Z</time>
      </trkpt>
      <trkpt lat="47.543532" lon="7.948214">
        <ele>299.960878</ele>
        <time>2021-11-14T13:58:49.717Z</time>
      </trkpt>
      <trkpt lat="47.543579" lon="7.948287">
        <ele>299.814113</ele>
        <time>2021-11-14T13:58:50.481Z</time>
      </trkpt>
      <trkpt lat="47.543760" lon="7.948548">
        <ele>299.269728</ele>
        <time>2021-11-14T13:58:53.370Z</time>
      </trkpt>
      <trkpt lat="47.543864" lon="7.948694">
        <ele>299.283246</ele>
        <time>2021-11-14T13:58:55.041Z</time>
      </trkpt>
      <trkpt lat="47.544239" lon="7.949202">
        <ele>299.353650</ele>
        <time>2021-11-14T13:59:02.404Z</time>
      </trkpt>
      <trkpt lat="47.544521" lon="7.949558">
        <ele>299.404983</ele>
        <time>2021-11-14T13:59:08.577Z</time>
      </trkpt>
      <trkpt lat="47.544901" lon="7.950044">
        <ele>299.474537</ele>
        <time>2021-11-14T13:59:17.735Z</time>
      </trkpt>
      <trkpt lat="47.545166" lon="7.950366">
        <ele>299.517803</ele>
        <time>2021-11-14T13:59:24.065Z</time>
      </trkpt>
      <trkpt lat="47.545434" lon="7.950668">
        <ele>299.542686</ele>
        <time>2021-11-14T13:59:29.850Z</time>
      </trkpt>
      <trkpt lat="47.545542" lon="7.950842">
        <ele>299.554477</ele>
        <time>2021-11-14T13:59:32.333Z</time>
      </trkpt>
      <trkpt lat="47.545667" lon="7.950979">
        <ele>299.565968</ele>
        <time>2021-11-14T13:59:34.870Z</time>
      </trkpt>
      <trkpt lat="47.545737" lon="7.951055">
        <ele>299.572381</ele>
        <time>2021-11-14T13:59:36.142Z</time>
      </trkpt>
      <trkpt lat="47.545876" lon="7.951233">
        <ele>299.585959</ele>
        <time>2021-11-14T13:59:38.886Z</time>
      </trkpt>
      <trkpt lat="47.546112" lon="7.951485">
        <ele>299.607457</ele>
        <time>2021-11-14T13:59:43.018Z</time>
      </trkpt>
      <trkpt lat="47.546164" lon="7.951520">
        <ele>299.611678</ele>
        <time>2021-11-14T13:59:43.857Z</time>
      </trkpt>
      <trkpt lat="47.546212" lon="7.951535">
        <ele>299.615303</ele>
        <time>2021-11-14T13:59:44.572Z</time>
      </trkpt>
      <trkpt lat="47.546231" lon="7.951558">
        <ele>299.617116</ele>
        <time>2021-11-14T13:59:44.889Z</time>
      </trkpt>
      <trkpt lat="47.546421" lon="7.951793">
        <ele>299.635407</ele>
        <time>2021-11-14T13:59:48.193Z</time>
      </trkpt>
      <trkpt lat="47.546634" lon="7.952024">
        <ele>299.597029</ele>
        <time>2021-11-14T13:59:51.622Z</time>
      </trkpt>
      <trkpt lat="47.546695" lon="7.952091">
        <ele>299.566616</ele>
        <time>2021-11-14T13:59:52.586Z</time>
      </trkpt>
      <trkpt lat="47.546776" lon="7.952185">
        <ele>299.525407</ele>
        <time>2021-11-14T13:59:53.936Z</time>
      </trkpt>
      <trkpt lat="47.546935" lon="7.952372">
        <ele>299.444100</ele>
        <time>2021-11-14T13:59:56.584Z</time>
      </trkpt>
      <trkpt lat="47.547090" lon="7.952543">
        <ele>299.366700</ele>
        <time>2021-11-14T13:59:59.195Z</time>
      </trkpt>
      <trkpt lat="47.547400" lon="7.952910">
        <ele>299.207772</ele>
        <time>2021-11-14T14:00:04.621Z</time>
      </trkpt>
      <trkpt lat="47.547458" lon="7.952975">
        <ele>299.178645</ele>
        <time>2021-11-14T14:00:05.619Z</time>
      </trkpt>
      <trkpt lat="47.547550" lon="7.953078">
        <ele>299.132461</ele>
        <time>2021-11-14T14:00:07.238Z</time>
      </trkpt>
      <trkpt lat="47.547624" lon="7.953160">
        <ele>299.095450</ele>
        <time>2021-11-14T14:00:08.499Z</time>
      </trkpt>
      <trkpt lat="47.547797" lon="7.953355">
        <ele>299.008389</ele>
        <time>2021-11-14T14:00:11.488Z</time>
      </trkpt>
      <trkpt lat="47.547871" lon="7.953437">
        <ele>298.971379</ele>
        <time>2021-11-14T14:00:12.743Z</time>
      </trkpt>
      <trkpt lat="47.547994" lon="7.953584">
        <ele>298.917099</ele>
        <time>2021-11-14T14:00:14.870Z</time>
      </trkpt>
      <trkpt lat="47.548115" lon="7.953729">
        <ele>298.886976</ele>
        <time>2021-11-14T14:00:16.994Z</time>
      </trkpt>
      <trkpt lat="47.548251" lon="7.953895">
        <ele>298.852870</ele>
        <time>2021-11-14T14:00:19.374Z</time>
      </trkpt>
      <trkpt lat="47.548342" lon="7.954009">
        <ele>298.829804</ele>
        <time>2021-11-14T14:00:21.014Z</time>
      </trkpt>
      <trkpt lat="47.548542" lon="7.954269">
        <ele>298.778303</ele>
        <time>2021-11-14T14:00:24.744Z</time>
      </trkpt>
      <trkpt lat="47.548833" lon="7.954652">
        <ele>298.702963</ele>
        <time>2021-11-14T14:00:30.286Z</time>
      </trkpt>
      <trkpt lat="47.549042" lon="7.954942">
        <ele>298.647539</ele>
        <time>2021-11-14T14:00:34.428Z</time>
      </trkpt>
      <trkpt lat="47.549157" lon="7.955099">
        <ele>298.617271</ele>
        <time>2021-11-14T14:00:36.714Z</time>
      </trkpt>
      <trkpt lat="47.549444" lon="7.955496">
        <ele>298.551824</ele>
        <time>2021-11-14T14:00:42.560Z</time>
      </trkpt>
      <trkpt lat="47.550205" lon="7.956552">
        <ele>298.408966</ele>
        <time>2021-11-14T14:00:57.193Z</time>
      </trkpt>
      <trkpt lat="47.550380" lon="7.956806">
        <ele>298.375400</ele>
        <time>2021-11-14T14:01:00.754Z</time>
      </trkpt>
      <trkpt lat="47.550445" lon="7.956918">
        <ele>298.361741</ele>
        <time>2021-11-14T14:01:02.238Z</time>
      </trkpt>
      <trkpt lat="47.550549" lon="7.957126">
        <ele>298.337802</ele>
        <time>2021-11-14T14:01:04.759Z</time>
      </trkpt>
      <trkpt lat="47.550613" lon="7.957254">
        <ele>298.334029</ele>
        <time>2021-11-14T14:01:06.386Z</time>
      </trkpt>
      <trkpt lat="47.550735" lon="7.957541">
        <ele>298.346272</ele>
        <time>2021-11-14T14:01:09.842Z</time>
      </trkpt>
      <trkpt lat="47.550745" lon="7.957569">
        <ele>298.347415</ele>
        <time>2021-11-14T14:01:10.090Z</time>
      </trkpt>
      <trkpt lat="47.550869" lon="7.957700">
        <ele>298.355560</ele>
        <time>2021-11-14T14:01:12.364Z</time>
      </trkpt>
      <trkpt lat="47.551300" lon="7.958844">
        <ele>298.402853</ele>
        <time>2021-11-14T14:01:25.216Z</time>
      </trkpt>
      <trkpt lat="47.551677" lon="7.960100">
        <ele>298.643606</ele>
        <time>2021-11-14T14:01:39.955Z</time>
      </trkpt>
      <trkpt lat="47.551865" lon="7.960528">
        <ele>298.801162</ele>
        <time>2021-11-14T14:01:45.804Z</time>
      </trkpt>
      <trkpt lat="47.551882" lon="7.960631">
        <ele>298.833877</ele>
        <time>2021-11-14T14:01:47.021Z</time>
      </trkpt>
      <trkpt lat="47.551894" lon="7.960729">
        <ele>298.864607</ele>
        <time>2021-11-14T14:01:48.425Z</time>
      </trkpt>
      <trkpt lat="47.551859" lon="7.961133">
        <ele>298.990277</ele>
        <time>2021-11-14T14:01:52.900Z</time>
      </trkpt>
      <trkpt lat="47.551906" lon="7.962453">
        <ele>299.311890</ele>
        <time>2021-11-14T14:02:08.294Z</time>
      </trkpt>
      <trkpt lat="47.551918" lon="7.963725">
        <ele>299.476857</ele>
        <time>2021-11-14T14:02:21.955Z</time>
      </trkpt>
      <trkpt lat="47.551902" lon="7.964650">
        <ele>299.591279</ele>
        <time>2021-11-14T14:02:31.068Z</time>
      </trkpt>
      <trkpt lat="47.551767" lon="7.967910">
        <ele>298.925464</ele>
        <time>2021-11-14T14:03:00.730Z</time>
      </trkpt>
      <trkpt lat="47.551839" lon="7.968208">
        <ele>298.929293</ele>
        <time>2021-11-14T14:03:03.822Z</time>
      </trkpt>
      <trkpt lat="47.551847" lon="7.968315">
        <ele>298.930596</ele>
        <time>2021-11-14T14:03:04.798Z</time>
      </trkpt>
      <trkpt lat="47.551825" lon="7.968445">
        <ele>298.932217</ele>
        <time>2021-11-14T14:03:06.029Z</time>
      </trkpt>
      <trkpt lat="47.551750" lon="7.968659">
        <ele>298.935135</ele>
        <time>2021-11-14T14:03:08.632Z</time>
      </trkpt>
      <trkpt lat="47.551734" lon="7.970034">
        <ele>298.996025</ele>
        <time>2021-11-14T14:03:23.028Z</time>
      </trkpt>
      <trkpt lat="47.551725" lon="7.970823">
        <ele>299.284344</ele>
        <time>2021-11-14T14:03:32.147Z</time>
      </trkpt>
      <trkpt lat="47.551755" lon="7.972603">
        <ele>299.922824</ele>
        <time>2021-11-14T14:03:53.622Z</time>
      </trkpt>
      <trkpt lat="47.551793" lon="7.974325">
        <ele>299.857881</ele>
        <time>2021-11-14T14:04:10.794Z</time>
      </trkpt>
      <trkpt lat="47.551829" lon="7.976305">
        <ele>299.982069</ele>
        <time>2021-11-14T14:04:28.751Z</time>
      </trkpt>
      <trkpt lat="47.551901" lon="7.979190">
        <ele>300.372073</ele>
        <time>2021-11-14T14:05:02.866Z</time>
      </trkpt>
      <trkpt lat="47.551923" lon="7.979308">
        <ele>300.386599</ele>
        <time>2021-11-14T14:05:04.556Z</time>
      </trkpt>
      <trkpt lat="47.551933" lon="7.979363">
        <ele>300.393357</ele>
        <time>2021-11-14T14:05:05.770Z</time>
      </trkpt>
      <trkpt lat="47.551873" lon="7.980135">
        <ele>300.485565</ele>
        <time>2021-11-14T14:05:13.050Z</time>
      </trkpt>
      <trkpt lat="47.551865" lon="7.980584">
        <ele>300.482830</ele>
        <time>2021-11-14T14:05:17.298Z</time>
      </trkpt>
      <trkpt lat="47.551861" lon="7.981113">
        <ele>299.599853</ele>
        <time>2021-11-14T14:05:21.697Z</time>
      </trkpt>
      <trkpt lat="47.551892" lon="7.983447">
        <ele>295.825622</ele>
        <time>2021-11-14T14:05:37.704Z</time>
      </trkpt>
      <trkpt lat="47.551911" lon="7.983632">
        <ele>295.612661</ele>
        <time>2021-11-14T14:05:39.003Z</time>
      </trkpt>
      <trkpt lat="47.552005" lon="7.983849">
        <ele>295.319217</ele>
        <time>2021-11-14T14:05:40.861Z</time>
      </trkpt>
      <trkpt lat="47.552007" lon="7.983931">
        <ele>295.225837</ele>
        <time>2021-11-14T14:05:41.373Z</time>
      </trkpt>
      <trkpt lat="47.551993" lon="7.984014">
        <ele>295.128474</ele>
        <time>2021-11-14T14:05:41.963Z</time>
      </trkpt>
      <trkpt lat="47.551934" lon="7.984260">
        <ele>294.831365</ele>
        <time>2021-11-14T14:05:44.013Z</time>
      </trkpt>
      <trkpt lat="47.551939" lon="7.985151">
        <ele>293.817336</ele>
        <time>2021-11-14T14:05:50.648Z</time>
      </trkpt>
      <trkpt lat="47.551898" lon="7.985654">
        <ele>293.240741</ele>
        <time>2021-11-14T14:05:54.958Z</time>
      </trkpt>
      <trkpt lat="47.551915" lon="7.986209">
        <ele>293.712628</ele>
        <time>2021-11-14T14:06:00.574Z</time>
      </trkpt>
      <trkpt lat="47.551917" lon="7.986288">
        <ele>293.845443</ele>
        <time>2021-11-14T14:06:01.895Z</time>
      </trkpt>
      <trkpt lat="47.551971" lon="7.986555">
        <ele>294.313714</ele>
        <time>2021-11-14T14:06:06.156Z</time>
      </trkpt>
      <trkpt lat="47.552152" lon="7.986883">
        <ele>295.025502</ele>
        <time>2021-11-14T14:06:13.377Z</time>
      </trkpt>
      <trkpt lat="47.552224" lon="7.986975">
        <ele>295.262166</ele>
        <time>2021-11-14T14:06:15.952Z</time>
      </trkpt>
      <trkpt lat="47.552436" lon="7.987273">
        <ele>295.989573</ele>
        <time>2021-11-14T14:06:23.841Z</time>
      </trkpt>
      <trkpt lat="47.552504" lon="7.987369">
        <ele>296.223373</ele>
        <time>2021-11-14T14:06:26.488Z</time>
      </trkpt>
      <trkpt lat="47.552713" lon="7.987638">
        <ele>296.912491</ele>
        <time>2021-11-14T14:06:34.945Z</time>
      </trkpt>
      <trkpt lat="47.552867" lon="7.987810">
        <ele>297.392538</ele>
        <time>2021-11-14T14:06:41.438Z</time>
      </trkpt>
      <trkpt lat="47.553232" lon="7.988247">
        <ele>298.972191</ele>
        <time>2021-11-14T14:06:56.062Z</time>
      </trkpt>
      <trkpt lat="47.553343" lon="7.988401">
        <ele>299.502089</ele>
        <time>2021-11-14T14:07:00.907Z</time>
      </trkpt>
      <trkpt lat="47.553410" lon="7.988607">
        <ele>300.039890</ele>
        <time>2021-11-14T14:07:05.498Z</time>
      </trkpt>
      <trkpt lat="47.553424" lon="7.988762">
        <ele>300.407674</ele>
        <time>2021-11-14T14:07:08.681Z</time>
      </trkpt>
      <trkpt lat="47.553352" lon="7.989142">
        <ele>301.335923</ele>
        <time>2021-11-14T14:07:16.537Z</time>
      </trkpt>
      <trkpt lat="47.553253" lon="7.989578">
        <ele>302.417802</ele>
        <time>2021-11-14T14:07:25.490Z</time>
      </trkpt>
      <trkpt lat="47.553214" lon="7.989758">
        <ele>302.862414</ele>
        <time>2021-11-14T14:07:29.073Z</time>
      </trkpt>
      <trkpt lat="47.553163" lon="7.990004">
        <ele>303.467648</ele>
        <time>2021-11-14T14:07:33.772Z</time>
      </trkpt>
      <trkpt lat="47.553146" lon="7.990113">
        <ele>303.730755</ele>
        <time>2021-11-14T14:07:35.700Z</time>
      </trkpt>
      <trkpt lat="47.553126" lon="7.990240">
        <ele>303.878846</ele>
        <time>2021-11-14T14:07:37.857Z</time>
      </trkpt>
      <trkpt lat="47.553050" lon="7.990744">
        <ele>304.284500</ele>
        <time>2021-11-14T14:07:45.508Z</time>
      </trkpt>
      <trkpt lat="47.553091" lon="7.991915">
        <ele>305.205561</ele>
        <time>2021-11-14T14:08:00.360Z</time>
      </trkpt>
      <trkpt lat="47.553107" lon="7.992226">
        <ele>305.450560</ele>
        <time>2021-11-14T14:08:03.447Z</time>
      </trkpt>
      <trkpt lat="47.553130" lon="7.993014">
        <ele>306.049032</ele>
        <time>2021-11-14T14:08:12.138Z</time>
      </trkpt>
      <trkpt lat="47.553137" lon="7.993190">
        <ele>306.171065</ele>
        <time>2021-11-14T14:08:14.100Z</time>
      </trkpt>
      <trkpt lat="47.553156" lon="7.993696">
        <ele>306.521843</ele>
        <time>2021-11-14T14:08:19.986Z</time>
      </trkpt>
      <trkpt lat="47.553164" lon="7.993925">
        <ele>306.680561</ele>
        <time>2021-11-14T14:08:22.692Z</time>
      </trkpt>
      <trkpt lat="47.553246" lon="7.995617">
        <ele>307.913302</ele>
        <time>2021-11-14T14:08:46.039Z</time>
      </trkpt>
      <trkpt lat="47.553268" lon="7.996252">
        <ele>308.573019</ele>
        <time>2021-11-14T14:08:55.291Z</time>
      </trkpt>
      <trkpt lat="47.553279" lon="7.996528">
        <ele>308.859884</ele>
        <time>2021-11-14T14:08:59.444Z</time>
      </trkpt>
      <trkpt lat="47.553287" lon="7.997190">
        <ele>309.546858</ele>
        <time>2021-11-14T14:09:09.194Z</time>
      </trkpt>
      <trkpt lat="47.553287" lon="7.998380">
        <ele>310.539267</ele>
        <time>2021-11-14T14:09:25.777Z</time>
      </trkpt>
      <trkpt lat="47.553278" lon="7.999508">
        <ele>310.693636</ele>
        <time>2021-11-14T14:09:39.127Z</time>
      </trkpt>
      <trkpt lat="47.553275" lon="7.999860">
        <ele>310.741809</ele>
        <time>2021-11-14T14:09:42.626Z</time>
      </trkpt>
      <trkpt lat="47.553273" lon="8.001687">
        <ele>310.352784</ele>
        <time>2021-11-14T14:09:58.170Z</time>
      </trkpt>
      <trkpt lat="47.553271" lon="8.002109">
        <ele>310.114528</ele>
        <time>2021-11-14T14:10:01.537Z</time>
      </trkpt>
      <trkpt lat="47.553270" lon="8.002465">
        <ele>309.913538</ele>
        <time>2021-11-14T14:10:04.314Z</time>
      </trkpt>
      <trkpt lat="47.553266" lon="8.003502">
        <ele>309.380995</ele>
        <time>2021-11-14T14:10:13.089Z</time>
      </trkpt>
      <trkpt lat="47.553256" lon="8.004837">
        <ele>309.784453</ele>
        <time>2021-11-14T14:10:27.319Z</time>
      </trkpt>
      <trkpt lat="47.553251" lon="8.005657">
        <ele>310.032265</ele>
        <time>2021-11-14T14:10:37.409Z</time>
      </trkpt>
      <trkpt lat="47.553220" lon="8.006182">
        <ele>310.184844</ele>
        <time>2021-11-14T14:10:44.356Z</time>
      </trkpt>
      <trkpt lat="47.553211" lon="8.006270">
        <ele>310.204133</ele>
        <time>2021-11-14T14:10:46.158Z</time>
      </trkpt>
      <trkpt lat="47.553173" lon="8.006642">
        <ele>310.285669</ele>
        <time>2021-11-14T14:10:50.708Z</time>
      </trkpt>
      <trkpt lat="47.552935" lon="8.007851">
        <ele>310.558596</ele>
        <time>2021-11-14T14:11:05.815Z</time>
      </trkpt>
      <trkpt lat="47.552640" lon="8.008615">
        <ele>310.732707</ele>
        <time>2021-11-14T14:11:13.959Z</time>
      </trkpt>
      <trkpt lat="47.552604" lon="8.008677">
        <ele>310.674600</ele>
        <time>2021-11-14T14:11:14.509Z</time>
      </trkpt>
      <trkpt lat="47.551902" lon="8.009884">
        <ele>309.542584</ele>
        <time>2021-11-14T14:11:26.869Z</time>
      </trkpt>
      <trkpt lat="47.551275" lon="8.010934">
        <ele>309.002600</ele>
        <time>2021-11-14T14:11:38.824Z</time>
      </trkpt>
      <trkpt lat="47.551187" lon="8.011080">
        <ele>309.071113</ele>
        <time>2021-11-14T14:11:40.958Z</time>
      </trkpt>
      <trkpt lat="47.550764" lon="8.011985">
        <ele>309.456415</ele>
        <time>2021-11-14T14:11:53.047Z</time>
      </trkpt>
      <trkpt lat="47.550565" lon="8.012461">
        <ele>309.652394</ele>
        <time>2021-11-14T14:12:00.466Z</time>
      </trkpt>
      <trkpt lat="47.550001" lon="8.014034">
        <ele>311.159162</ele>
        <time>2021-11-14T14:12:26.306Z</time>
      </trkpt>
      <trkpt lat="47.549871" lon="8.014427">
        <ele>311.587938</ele>
        <time>2021-11-14T14:12:32.492Z</time>
      </trkpt>
      <trkpt lat="47.549795" lon="8.014667">
        <ele>311.847658</ele>
        <time>2021-11-14T14:12:35.993Z</time>
      </trkpt>
      <trkpt lat="47.549589" lon="8.015316">
        <ele>312.529625</ele>
        <time>2021-11-14T14:12:45.371Z</time>
      </trkpt>
      <trkpt lat="47.549431" lon="8.015998">
        <ele>313.141694</ele>
        <time>2021-11-14T14:12:55.285Z</time>
      </trkpt>
      <trkpt lat="47.549281" lon="8.017304">
        <ele>314.266232</ele>
        <time>2021-11-14T14:13:12.508Z</time>
      </trkpt>
      <trkpt lat="47.549274" lon="8.017401">
        <ele>314.349040</ele>
        <time>2021-11-14T14:13:13.801Z</time>
      </trkpt>
      <trkpt lat="47.549236" lon="8.017402">
        <ele>314.396838</ele>
        <time>2021-11-14T14:13:14.624Z</time>
      </trkpt>
      <trkpt lat="47.549145" lon="8.017497">
        <ele>314.536841</ele>
        <time>2021-11-14T14:13:16.882Z</time>
      </trkpt>
      <trkpt lat="47.549133" lon="8.017550">
        <ele>314.584295</ele>
        <time>2021-11-14T14:13:17.871Z</time>
      </trkpt>
      <trkpt lat="47.549131" lon="8.017604">
        <ele>314.630202</ele>
        <time>2021-11-14T14:13:18.387Z</time>
      </trkpt>
      <trkpt lat="47.549220" lon="8.017761">
        <ele>314.827529</ele>
        <time>2021-11-14T14:13:20.965Z</time>
      </trkpt>
      <trkpt lat="47.549256" lon="8.017769">
        <ele>314.880584</ele>
        <time>2021-11-14T14:13:21.769Z</time>
      </trkpt>
      <trkpt lat="47.549261" lon="8.017878">
        <ele>314.988056</ele>
        <time>2021-11-14T14:13:23.409Z</time>
      </trkpt>
      <trkpt lat="47.549208" lon="8.019997">
        <ele>317.073971</ele>
        <time>2021-11-14T14:13:53.963Z</time>
      </trkpt>
      <trkpt lat="47.549186" lon="8.021006">
        <ele>317.740015</ele>
        <time>2021-11-14T14:14:07.026Z</time>
      </trkpt>
      <trkpt lat="47.549191" lon="8.021436">
        <ele>317.987492</ele>
        <time>2021-11-14T14:14:12.408Z</time>
      </trkpt>
      <trkpt lat="47.549201" lon="8.022146">
        <ele>318.396143</ele>
        <time>2021-11-14T14:14:21.209Z</time>
      </trkpt>
      <trkpt lat="47.549268" lon="8.023385">
        <ele>318.799374</ele>
        <time>2021-11-14T14:14:35.161Z</time>
      </trkpt>
      <trkpt lat="47.549322" lon="8.024323">
        <ele>318.775549</ele>
        <time>2021-11-14T14:14:44.545Z</time>
      </trkpt>
      <trkpt lat="47.549436" lon="8.026046">
        <ele>318.534348</ele>
        <time>2021-11-14T14:15:00.766Z</time>
      </trkpt>
      <trkpt lat="47.549454" lon="8.027138">
        <ele>318.097748</ele>
        <time>2021-11-14T14:15:10.052Z</time>
      </trkpt>
      <trkpt lat="47.549445" lon="8.027599">
        <ele>317.913411</ele>
        <time>2021-11-14T14:15:14.012Z</time>
      </trkpt>
      <trkpt lat="47.549431" lon="8.028306">
        <ele>317.641892</ele>
        <time>2021-11-14T14:15:20.244Z</time>
      </trkpt>
      <trkpt lat="47.549418" lon="8.028906">
        <ele>317.456462</ele>
        <time>2021-11-14T14:15:25.661Z</time>
      </trkpt>
      <trkpt lat="47.549380" lon="8.030702">
        <ele>316.901422</ele>
        <time>2021-11-14T14:15:41.548Z</time>
      </trkpt>
      <trkpt lat="47.549378" lon="8.030790">
        <ele>316.874224</ele>
        <time>2021-11-14T14:15:42.476Z</time>
      </trkpt>
      <trkpt lat="47.549372" lon="8.031883">
        <ele>316.842676</ele>
        <time>2021-11-14T14:15:53.056Z</time>
      </trkpt>
      <trkpt lat="47.549368" lon="8.032544">
        <ele>316.833665</ele>
        <time>2021-11-14T14:15:59.945Z</time>
      </trkpt>
      <trkpt lat="47.549363" lon="8.032869">
        <ele>316.829234</ele>
        <time>2021-11-14T14:16:03.538Z</time>
      </trkpt>
      <trkpt lat="47.549374" lon="8.033423">
        <ele>316.821679</ele>
        <time>2021-11-14T14:16:09.421Z</time>
      </trkpt>
      <trkpt lat="47.549386" lon="8.033799">
        <ele>316.747083</ele>
        <time>2021-11-14T14:16:13.316Z</time>
      </trkpt>
      <trkpt lat="47.549394" lon="8.034003">
        <ele>316.695110</ele>
        <time>2021-11-14T14:16:15.259Z</time>
      </trkpt>
      <trkpt lat="47.549395" lon="8.034029">
        <ele>316.688486</ele>
        <time>2021-11-14T14:16:15.484Z</time>
      </trkpt>
      <trkpt lat="47.549442" lon="8.034584">
        <ele>316.546220</ele>
        <time>2021-11-14T14:16:20.688Z</time>
      </trkpt>
      <trkpt lat="47.549494" lon="8.034935">
        <ele>316.454821</ele>
        <time>2021-11-14T14:16:24.054Z</time>
      </trkpt>
      <trkpt lat="47.549554" lon="8.035288">
        <ele>316.362236</ele>
        <time>2021-11-14T14:16:27.407Z</time>
      </trkpt>
      <trkpt lat="47.549632" lon="8.035633">
        <ele>316.269697</ele>
        <time>2021-11-14T14:16:30.560Z</time>
      </trkpt>
      <trkpt lat="47.549699" lon="8.035900">
        <ele>316.197246</ele>
        <time>2021-11-14T14:16:32.969Z</time>
      </trkpt>
      <trkpt lat="47.549753" lon="8.036077">
        <ele>316.147843</ele>
        <time>2021-11-14T14:16:34.589Z</time>
      </trkpt>
      <trkpt lat="47.549832" lon="8.036349">
        <ele>316.002644</ele>
        <time>2021-11-14T14:16:37.164Z</time>
      </trkpt>
      <trkpt lat="47.550111" lon="8.037123">
        <ele>315.557216</ele>
        <time>2021-11-14T14:16:44.354Z</time>
      </trkpt>
      <trkpt lat="47.550424" lon="8.037956">
        <ele>315.073252</ele>
        <time>2021-11-14T14:16:52.123Z</time>
      </trkpt>
      <trkpt lat="47.550515" lon="8.038174">
        <ele>314.943135</ele>
        <time>2021-11-14T14:16:54.371Z</time>
      </trkpt>
      <trkpt lat="47.551001" lon="8.039426">
        <ele>315.504986</ele>
        <time>2021-11-14T14:17:09.670Z</time>
      </trkpt>
      <trkpt lat="47.551167" lon="8.039905">
        <ele>315.841979</ele>
        <time>2021-11-14T14:17:16.715Z</time>
      </trkpt>
      <trkpt lat="47.551627" lon="8.041127">
        <ele>317.067104</ele>
        <time>2021-11-14T14:17:37.261Z</time>
      </trkpt>
      <trkpt lat="47.552844" lon="8.044355">
        <ele>321.914691</ele>
        <time>2021-11-14T14:18:37.213Z</time>
      </trkpt>
      <trkpt lat="47.553619" lon="8.046372">
        <ele>322.894851</ele>
        <time>2021-11-14T14:19:05.050Z</time>
      </trkpt>
      <trkpt lat="47.553996" lon="8.047557">
        <ele>322.514914</ele>
        <time>2021-11-14T14:19:15.959Z</time>
      </trkpt>
      <trkpt lat="47.554309" lon="8.048719">
        <ele>321.173302</ele>
        <time>2021-11-14T14:19:25.251Z</time>
      </trkpt>
      <trkpt lat="47.554412" lon="8.049127">
        <ele>320.620562</ele>
        <time>2021-11-14T14:19:28.449Z</time>
      </trkpt>
      <trkpt lat="47.554715" lon="8.050527">
        <ele>318.890011</ele>
        <time>2021-11-14T14:19:39.352Z</time>
      </trkpt>
      <trkpt lat="47.554985" lon="8.051466">
        <ele>318.167512</ele>
        <time>2021-11-14T14:19:47.267Z</time>
      </trkpt>
      <trkpt lat="47.554988" lon="8.051475">
        <ele>318.160406</ele>
        <time>2021-11-14T14:19:47.327Z</time>
      </trkpt>
      <trkpt lat="47.555169" lon="8.051916">
        <ele>317.795045</ele>
        <time>2021-11-14T14:19:51.894Z</time>
      </trkpt>
      <trkpt lat="47.555259" lon="8.052135">
        <ele>317.613544</ele>
        <time>2021-11-14T14:19:54.151Z</time>
      </trkpt>
      <trkpt lat="47.555603" lon="8.052757">
        <ele>317.163543</ele>
        <time>2021-11-14T14:20:01.776Z</time>
      </trkpt>
      <trkpt lat="47.555773" lon="8.053070">
        <ele>317.141005</ele>
        <time>2021-11-14T14:20:05.490Z</time>
      </trkpt>
      <trkpt lat="47.555890" lon="8.053286">
        <ele>317.125468</ele>
        <time>2021-11-14T14:20:07.938Z</time>
      </trkpt>
      <trkpt lat="47.556032" lon="8.053510">
        <ele>317.108228</ele>
        <time>2021-11-14T14:20:10.608Z</time>
      </trkpt>
      <trkpt lat="47.556239" lon="8.053780">
        <ele>317.085305</ele>
        <time>2021-11-14T14:20:14.513Z</time>
      </trkpt>
      <trkpt lat="47.556494" lon="8.054073">
        <ele>317.058483</ele>
        <time>2021-11-14T14:20:19.756Z</time>
      </trkpt>
      <trkpt lat="47.557019" lon="8.054678">
        <ele>317.017745</ele>
        <time>2021-11-14T14:20:30.877Z</time>
      </trkpt>
      <trkpt lat="47.557097" lon="8.054768">
        <ele>317.015193</ele>
        <time>2021-11-14T14:20:32.114Z</time>
      </trkpt>
      <trkpt lat="47.557273" lon="8.054941">
        <ele>317.009739</ele>
        <time>2021-11-14T14:20:35.438Z</time>
      </trkpt>
      <trkpt lat="47.557500" lon="8.055133">
        <ele>317.002989</ele>
        <time>2021-11-14T14:20:39.004Z</time>
      </trkpt>
      <trkpt lat="47.557710" lon="8.055283">
        <ele>316.996969</ele>
        <time>2021-11-14T14:20:42.157Z</time>
      </trkpt>
      <trkpt lat="47.557918" lon="8.055409">
        <ele>316.991167</ele>
        <time>2021-11-14T14:20:45.436Z</time>
      </trkpt>
      <trkpt lat="47.558012" lon="8.055477">
        <ele>316.988466</ele>
        <time>2021-11-14T14:20:46.811Z</time>
      </trkpt>
      <trkpt lat="47.558239" lon="8.055639">
        <ele>316.981960</ele>
        <time>2021-11-14T14:20:50.642Z</time>
      </trkpt>
      <trkpt lat="47.558447" lon="8.055831">
        <ele>316.993243</ele>
        <time>2021-11-14T14:20:54.226Z</time>
      </trkpt>
      <trkpt lat="47.558662" lon="8.056061">
        <ele>317.040653</ele>
        <time>2021-11-14T14:20:58.653Z</time>
      </trkpt>
      <trkpt lat="47.559116" lon="8.056760">
        <ele>317.157706</ele>
        <time>2021-11-14T14:21:08.761Z</time>
      </trkpt>
      <trkpt lat="47.559294" lon="8.057130">
        <ele>317.212529</ele>
        <time>2021-11-14T14:21:13.430Z</time>
      </trkpt>
      <trkpt lat="47.559447" lon="8.057490">
        <ele>317.263860</ele>
        <time>2021-11-14T14:21:17.795Z</time>
      </trkpt>
      <trkpt lat="47.559548" lon="8.057827">
        <ele>317.314151</ele>
        <time>2021-11-14T14:21:21.785Z</time>
      </trkpt>
      <trkpt lat="47.559579" lon="8.057955">
        <ele>317.341234</ele>
        <time>2021-11-14T14:21:23.229Z</time>
      </trkpt>
      <trkpt lat="47.559654" lon="8.058257">
        <ele>317.405321</ele>
        <time>2021-11-14T14:21:26.833Z</time>
      </trkpt>
      <trkpt lat="47.559725" lon="8.058554">
        <ele>317.468071</ele>
        <time>2021-11-14T14:21:30.227Z</time>
      </trkpt>
      <trkpt lat="47.559859" lon="8.059093">
        <ele>317.582466</ele>
        <time>2021-11-14T14:21:36.346Z</time>
      </trkpt>
      <trkpt lat="47.559979" lon="8.059591">
        <ele>317.687775</ele>
        <time>2021-11-14T14:21:41.934Z</time>
      </trkpt>
      <trkpt lat="47.560019" lon="8.059741">
        <ele>317.719896</ele>
        <time>2021-11-14T14:21:43.742Z</time>
      </trkpt>
      <trkpt lat="47.560040" lon="8.059827">
        <ele>317.738109</ele>
        <time>2021-11-14T14:21:44.685Z</time>
      </trkpt>
      <trkpt lat="47.560069" lon="8.059943">
        <ele>317.762745</ele>
        <time>2021-11-14T14:21:45.930Z</time>
      </trkpt>
      <trkpt lat="47.560130" lon="8.060196">
        <ele>317.816249</ele>
        <time>2021-11-14T14:21:48.975Z</time>
      </trkpt>
      <trkpt lat="47.560262" lon="8.060729">
        <ele>318.079191</ele>
        <time>2021-11-14T14:21:55.232Z</time>
      </trkpt>
      <trkpt lat="47.560293" lon="8.060828">
        <ele>318.133804</ele>
        <time>2021-11-14T14:21:56.513Z</time>
      </trkpt>
      <trkpt lat="47.560335" lon="8.060984">
        <ele>318.217851</ele>
        <time>2021-11-14T14:21:58.546Z</time>
      </trkpt>
      <trkpt lat="47.560570" lon="8.061926">
        <ele>318.720409</ele>
        <time>2021-11-14T14:22:11.217Z</time>
      </trkpt>
      <trkpt lat="47.560765" lon="8.062729">
        <ele>319.147456</ele>
        <time>2021-11-14T14:22:21.388Z</time>
      </trkpt>
      <trkpt lat="47.560673" lon="8.062786">
        <ele>319.216326</ele>
        <time>2021-11-14T14:22:23.759Z</time>
      </trkpt>
      <trkpt lat="47.560580" lon="8.062890">
        <ele>319.295083</ele>
        <time>2021-11-14T14:22:26.497Z</time>
      </trkpt>
      <trkpt lat="47.560545" lon="8.062928">
        <ele>319.324412</ele>
        <time>2021-11-14T14:22:27.286Z</time>
      </trkpt>
      <trkpt lat="47.560443" lon="8.063042">
        <ele>319.410772</ele>
        <time>2021-11-14T14:22:29.709Z</time>
      </trkpt>
      <trkpt lat="47.560335" lon="8.063169">
        <ele>319.503970</ele>
        <time>2021-11-14T14:22:32.305Z</time>
      </trkpt>
      <trkpt lat="47.560392" lon="8.063300">
        <ele>319.575071</ele>
        <time>2021-11-14T14:22:34.152Z</time>
      </trkpt>
      <trkpt lat="47.560719" lon="8.063873">
        <ele>319.917383</ele>
        <time>2021-11-14T14:22:43.465Z</time>
      </trkpt>
      <trkpt lat="47.560806" lon="8.064037">
        <ele>320.012540</ele>
        <time>2021-11-14T14:22:45.967Z</time>
      </trkpt>
      <trkpt lat="47.560887" lon="8.064271">
        <ele>320.132504</ele>
        <time>2021-11-14T14:22:49.097Z</time>
      </trkpt>
      <trkpt lat="47.561017" lon="8.064820">
        <ele>320.381639</ele>
        <time>2021-11-14T14:22:55.711Z</time>
      </trkpt>
      <trkpt lat="47.561108" lon="8.065242">
        <ele>320.401722</ele>
        <time>2021-11-14T14:22:59.954Z</time>
      </trkpt>
      <trkpt lat="47.561253" lon="8.066385">
        <ele>320.454442</ele>
        <time>2021-11-14T14:23:10.937Z</time>
      </trkpt>
      <trkpt lat="47.561276" lon="8.067022">
        <ele>320.483359</ele>
        <time>2021-11-14T14:23:17.169Z</time>
      </trkpt>
      <trkpt lat="47.561265" lon="8.067435">
        <ele>320.531725</ele>
        <time>2021-11-14T14:23:21.585Z</time>
      </trkpt>
      <trkpt lat="47.561261" lon="8.067483">
        <ele>320.579522</ele>
        <time>2021-11-14T14:23:22.079Z</time>
      </trkpt>
      <trkpt lat="47.561229" lon="8.067903">
        <ele>320.997225</ele>
        <time>2021-11-14T14:23:27.329Z</time>
      </trkpt>
      <trkpt lat="47.561187" lon="8.068256">
        <ele>321.351459</ele>
        <time>2021-11-14T14:23:31.719Z</time>
      </trkpt>
      <trkpt lat="47.561130" lon="8.068650">
        <ele>321.749678</ele>
        <time>2021-11-14T14:23:36.950Z</time>
      </trkpt>
      <trkpt lat="47.560998" lon="8.069237">
        <ele>322.361147</ele>
        <time>2021-11-14T14:23:46.105Z</time>
      </trkpt>
      <trkpt lat="47.560904" lon="8.069780">
        <ele>322.915147</ele>
        <time>2021-11-14T14:23:55.067Z</time>
      </trkpt>
      <trkpt lat="47.560864" lon="8.070015">
        <ele>323.165298</ele>
        <time>2021-11-14T14:23:59.118Z</time>
      </trkpt>
      <trkpt lat="47.560739" lon="8.070551">
        <ele>324.025813</ele>
        <time>2021-11-14T14:24:08.732Z</time>
      </trkpt>
      <trkpt lat="47.560584" lon="8.070919">
        <ele>324.684055</ele>
        <time>2021-11-14T14:24:16.045Z</time>
      </trkpt>
      <trkpt lat="47.560553" lon="8.071099">
        <ele>324.965939</ele>
        <time>2021-11-14T14:24:19.236Z</time>
      </trkpt>
      <trkpt lat="47.560524" lon="8.071179">
        <ele>325.103736</ele>
        <time>2021-11-14T14:24:20.996Z</time>
      </trkpt>
      <trkpt lat="47.560318" lon="8.072316">
        <ele>326.890109</ele>
        <time>2021-11-14T14:24:39.898Z</time>
      </trkpt>
      <trkpt lat="47.559811" lon="8.074398">
        <ele>329.224020</ele>
        <time>2021-11-14T14:25:10.738Z</time>
      </trkpt>
      <trkpt lat="47.559426" lon="8.075372">
        <ele>330.403877</ele>
        <time>2021-11-14T14:25:26.125Z</time>
      </trkpt>
      <trkpt lat="47.559046" lon="8.076086">
        <ele>331.395685</ele>
        <time>2021-11-14T14:25:38.735Z</time>
      </trkpt>
      <trkpt lat="47.558613" lon="8.076826">
        <ele>332.463967</ele>
        <time>2021-11-14T14:25:53.185Z</time>
      </trkpt>
      <trkpt lat="47.557940" lon="8.078035">
        <ele>333.333192</ele>
        <time>2021-11-14T14:26:16.873Z</time>
      </trkpt>
      <trkpt lat="47.557793" lon="8.078299">
        <ele>333.481312</ele>
        <time>2021-11-14T14:26:21.068Z</time>
      </trkpt>
      <trkpt lat="47.557728" lon="8.078435">
        <ele>333.553434</ele>
        <time>2021-11-14T14:26:23.009Z</time>
      </trkpt>
      <trkpt lat="47.557256" lon="8.079416">
        <ele>333.263645</ele>
        <time>2021-11-14T14:26:33.199Z</time>
      </trkpt>
      <trkpt lat="47.557099" lon="8.079786">
        <ele>332.363285</ele>
        <time>2021-11-14T14:26:36.492Z</time>
      </trkpt>
      <trkpt lat="47.556853" lon="8.080477">
        <ele>330.753874</ele>
        <time>2021-11-14T14:26:41.920Z</time>
      </trkpt>
      <trkpt lat="47.556470" lon="8.081563">
        <ele>328.083652</ele>
        <time>2021-11-14T14:26:49.918Z</time>
      </trkpt>
      <trkpt lat="47.556083" lon="8.083354">
        <ele>321.566955</ele>
        <time>2021-11-14T14:27:01.722Z</time>
      </trkpt>
      <trkpt lat="47.555956" lon="8.084115">
        <ele>318.907124</ele>
        <time>2021-11-14T14:27:06.725Z</time>
      </trkpt>
      <trkpt lat="47.555899" lon="8.084472">
        <ele>317.837489</ele>
        <time>2021-11-14T14:27:09.045Z</time>
      </trkpt>
      <trkpt lat="47.555764" lon="8.085769">
        <ele>314.011118</ele>
        <time>2021-11-14T14:27:17.509Z</time>
      </trkpt>
      <trkpt lat="47.555733" lon="8.086819">
        <ele>311.410682</ele>
        <time>2021-11-14T14:27:24.437Z</time>
      </trkpt>
      <trkpt lat="47.555737" lon="8.087083">
        <ele>311.369203</ele>
        <time>2021-11-14T14:27:26.236Z</time>
      </trkpt>
      <trkpt lat="47.555780" lon="8.087557">
        <ele>311.294080</ele>
        <time>2021-11-14T14:27:29.726Z</time>
      </trkpt>
      <trkpt lat="47.555809" lon="8.087783">
        <ele>311.257945</ele>
        <time>2021-11-14T14:27:32.161Z</time>
      </trkpt>
      <trkpt lat="47.555829" lon="8.087941">
        <ele>311.232694</ele>
        <time>2021-11-14T14:27:33.758Z</time>
      </trkpt>
      <trkpt lat="47.555887" lon="8.088299">
        <ele>311.174864</ele>
        <time>2021-11-14T14:27:37.322Z</time>
      </trkpt>
      <trkpt lat="47.555939" lon="8.088552">
        <ele>311.133321</ele>
        <time>2021-11-14T14:27:40.118Z</time>
      </trkpt>
      <trkpt lat="47.555991" lon="8.088778">
        <ele>311.095816</ele>
        <time>2021-11-14T14:27:43.552Z</time>
      </trkpt>
      <trkpt lat="47.555997" lon="8.088801">
        <ele>311.091943</ele>
        <time>2021-11-14T14:27:44.146Z</time>
      </trkpt>
      <trkpt lat="47.556065" lon="8.089084">
        <ele>311.044757</ele>
        <time>2021-11-14T14:27:48.438Z</time>
      </trkpt>
      <trkpt lat="47.556111" lon="8.089266">
        <ele>311.100860</ele>
        <time>2021-11-14T14:27:52.246Z</time>
      </trkpt>
      <trkpt lat="47.556151" lon="8.089459">
        <ele>311.717312</ele>
        <time>2021-11-14T14:27:56.889Z</time>
      </trkpt>
      <trkpt lat="47.556137" lon="8.089730">
        <ele>312.547180</ele>
        <time>2021-11-14T14:28:02.107Z</time>
      </trkpt>
      <trkpt lat="47.556110" lon="8.089809">
        <ele>312.817560</ele>
        <time>2021-11-14T14:28:04.378Z</time>
      </trkpt>
      <trkpt lat="47.556193" lon="8.089926">
        <ele>313.335858</ele>
        <time>2021-11-14T14:28:08.356Z</time>
      </trkpt>
      <trkpt lat="47.556259" lon="8.090058">
        <ele>313.837458</ele>
        <time>2021-11-14T14:28:11.399Z</time>
      </trkpt>
      <trkpt lat="47.556527" lon="8.090721">
        <ele>316.197147</ele>
        <time>2021-11-14T14:28:29.654Z</time>
      </trkpt>
      <trkpt lat="47.556692" lon="8.091113">
        <ele>317.607757</ele>
        <time>2021-11-14T14:28:41.437Z</time>
      </trkpt>
      <trkpt lat="47.556850" lon="8.091457">
        <ele>318.878263</ele>
        <time>2021-11-14T14:28:51.946Z</time>
      </trkpt>
      <trkpt lat="47.557677" lon="8.092776">
        <ele>324.010992</ele>
        <time>2021-11-14T14:29:31.999Z</time>
      </trkpt>
      <trkpt lat="47.558531" lon="8.094661">
        <ele>330.501464</ele>
        <time>2021-11-14T14:30:15.183Z</time>
      </trkpt>
      <trkpt lat="47.558776" lon="8.095210">
        <ele>332.391983</ele>
        <time>2021-11-14T14:30:29.521Z</time>
      </trkpt>
      <trkpt lat="47.558857" lon="8.095293">
        <ele>332.811145</ele>
        <time>2021-11-14T14:30:34.343Z</time>
      </trkpt>
      <trkpt lat="47.558983" lon="8.095482">
        <ele>333.574244</ele>
        <time>2021-11-14T14:30:41.079Z</time>
      </trkpt>
      <trkpt lat="47.559606" lon="8.096837">
        <ele>339.242513</ele>
        <time>2021-11-14T14:31:30.023Z</time>
      </trkpt>
      <trkpt lat="47.560171" lon="8.097877">
        <ele>343.939339</ele>
        <time>2021-11-14T14:32:07.819Z</time>
      </trkpt>
      <trkpt lat="47.560787" lon="8.098864">
        <ele>344.955701</ele>
        <time>2021-11-14T14:32:36.065Z</time>
      </trkpt>
      <trkpt lat="47.561466" lon="8.099697">
        <ele>345.904022</ele>
        <time>2021-11-14T14:32:52.355Z</time>
      </trkpt>
      <trkpt lat="47.562207" lon="8.100413">
        <ele>343.151836</ele>
        <time>2021-11-14T14:33:04.948Z</time>
      </trkpt>
      <trkpt lat="47.563031" lon="8.100935">
        <ele>340.363782</ele>
        <time>2021-11-14T14:33:17.850Z</time>
      </trkpt>
      <trkpt lat="47.563202" lon="8.101042">
        <ele>339.912134</ele>
        <time>2021-11-14T14:33:20.437Z</time>
      </trkpt>
      <trkpt lat="47.564165" lon="8.101615">
        <ele>337.421537</ele>
        <time>2021-11-14T14:33:31.400Z</time>
      </trkpt>
      <trkpt lat="47.565727" lon="8.102512">
        <ele>333.857370</ele>
        <time>2021-11-14T14:33:50.587Z</time>
      </trkpt>
      <trkpt lat="47.566684" lon="8.102974">
        <ele>331.693177</ele>
        <time>2021-11-14T14:34:01.188Z</time>
      </trkpt>
      <trkpt lat="47.567683" lon="8.103272">
        <ele>329.096153</ele>
        <time>2021-11-14T14:34:11.809Z</time>
      </trkpt>
      <trkpt lat="47.569557" lon="8.103677">
        <ele>324.176803</ele>
        <time>2021-11-14T14:34:32.040Z</time>
      </trkpt>
      <trkpt lat="47.570159" lon="8.103813">
        <ele>322.253707</ele>
        <time>2021-11-14T14:34:38.345Z</time>
      </trkpt>
      <trkpt lat="47.570286" lon="8.103898">
        <ele>321.683029</ele>
        <time>2021-11-14T14:34:39.724Z</time>
      </trkpt>
      <trkpt lat="47.570517" lon="8.104111">
        <ele>320.568876</ele>
        <time>2021-11-14T14:34:42.289Z</time>
      </trkpt>
      <trkpt lat="47.570786" lon="8.104202">
        <ele>319.438898</ele>
        <time>2021-11-14T14:34:44.880Z</time>
      </trkpt>
      <trkpt lat="47.570863" lon="8.104203">
        <ele>319.123544</ele>
        <time>2021-11-14T14:34:45.635Z</time>
      </trkpt>
      <trkpt lat="47.571140" lon="8.104418">
        <ele>317.843002</ele>
        <time>2021-11-14T14:34:48.595Z</time>
      </trkpt>
      <trkpt lat="47.571149" lon="8.104460">
        <ele>317.721242</ele>
        <time>2021-11-14T14:34:48.909Z</time>
      </trkpt>
      <trkpt lat="47.571165" lon="8.104498">
        <ele>317.597478</ele>
        <time>2021-11-14T14:34:49.247Z</time>
      </trkpt>
      <trkpt lat="47.571190" lon="8.104530">
        <ele>317.462200</ele>
        <time>2021-11-14T14:34:49.563Z</time>
      </trkpt>
      <trkpt lat="47.571252" lon="8.104556">
        <ele>317.198322</ele>
        <time>2021-11-14T14:34:50.204Z</time>
      </trkpt>
      <trkpt lat="47.571285" lon="8.104547">
        <ele>317.060906</ele>
        <time>2021-11-14T14:34:50.521Z</time>
      </trkpt>
      <trkpt lat="47.571319" lon="8.104520">
        <ele>316.902939</ele>
        <time>2021-11-14T14:34:50.886Z</time>
      </trkpt>
      <trkpt lat="47.571345" lon="8.104476">
        <ele>316.741329</ele>
        <time>2021-11-14T14:34:51.249Z</time>
      </trkpt>
      <trkpt lat="47.571404" lon="8.104462">
        <ele>316.496627</ele>
        <time>2021-11-14T14:34:51.791Z</time>
      </trkpt>
      <trkpt lat="47.571506" lon="8.104457">
        <ele>316.078673</ele>
        <time>2021-11-14T14:34:52.837Z</time>
      </trkpt>
      <trkpt lat="47.571606" lon="8.104456">
        <ele>315.760335</ele>
        <time>2021-11-14T14:34:53.814Z</time>
      </trkpt>
      <trkpt lat="47.571788" lon="8.104486">
        <ele>315.520390</ele>
        <time>2021-11-14T14:34:55.518Z</time>
      </trkpt>
      <trkpt lat="47.572479" lon="8.104559">
        <ele>314.612674</ele>
        <time>2021-11-14T14:35:02.902Z</time>
      </trkpt>
      <trkpt lat="47.573291" lon="8.104448">
        <ele>313.544193</ele>
        <time>2021-11-14T14:35:14.419Z</time>
      </trkpt>
      <trkpt lat="47.573366" lon="8.104434">
        <ele>313.448314</ele>
        <time>2021-11-14T14:35:16.823Z</time>
      </trkpt>
      <trkpt lat="47.573446" lon="8.104418">
        <ele>313.593817</ele>
        <time>2021-11-14T14:35:18.979Z</time>
      </trkpt>
      <trkpt lat="47.573480" lon="8.104411">
        <ele>313.655688</ele>
        <time>2021-11-14T14:35:19.815Z</time>
      </trkpt>
      <trkpt lat="47.573668" lon="8.104380">
        <ele>313.996639</ele>
        <time>2021-11-14T14:35:23.814Z</time>
      </trkpt>
      <trkpt lat="47.573831" lon="8.104354">
        <ele>314.292134</ele>
        <time>2021-11-14T14:35:28.463Z</time>
      </trkpt>
      <trkpt lat="47.574232" lon="8.104312">
        <ele>315.016717</ele>
        <time>2021-11-14T14:35:38.177Z</time>
      </trkpt>
      <trkpt lat="47.574708" lon="8.104323">
        <ele>315.874785</ele>
        <time>2021-11-14T14:35:49.288Z</time>
      </trkpt>
      <trkpt lat="47.574899" lon="8.104362">
        <ele>316.222303</ele>
        <time>2021-11-14T14:35:54.683Z</time>
      </trkpt>
      <trkpt lat="47.575253" lon="8.104463">
        <ele>316.702505</ele>
        <time>2021-11-14T14:36:01.847Z</time>
      </trkpt>
      <trkpt lat="47.576181" lon="8.104949">
        <ele>316.838414</ele>
        <time>2021-11-14T14:36:16.409Z</time>
      </trkpt>
      <trkpt lat="47.576601" lon="8.105189">
        <ele>316.900571</ele>
        <time>2021-11-14T14:36:22.280Z</time>
      </trkpt>
      <trkpt lat="47.576841" lon="8.105315">
        <ele>316.935729</ele>
        <time>2021-11-14T14:36:25.656Z</time>
      </trkpt>
      <trkpt lat="47.577500" lon="8.105730">
        <ele>317.313086</ele>
        <time>2021-11-14T14:36:36.135Z</time>
      </trkpt>
      <trkpt lat="47.578068" lon="8.106263">
        <ele>317.670262</ele>
        <time>2021-11-14T14:36:47.648Z</time>
      </trkpt>
      <trkpt lat="47.578187" lon="8.106429">
        <ele>317.757082</ele>
        <time>2021-11-14T14:36:50.852Z</time>
      </trkpt>
      <trkpt lat="47.578335" lon="8.106654">
        <ele>317.869719</ele>
        <time>2021-11-14T14:36:55.010Z</time>
      </trkpt>
      <trkpt lat="47.579759" lon="8.109482">
        <ele>322.188259</ele>
        <time>2021-11-14T14:37:48.467Z</time>
      </trkpt>
      <trkpt lat="47.579823" lon="8.109617">
        <ele>322.399727</ele>
        <time>2021-11-14T14:37:51.281Z</time>
      </trkpt>
      <trkpt lat="47.579991" lon="8.109948">
        <ele>322.930598</ele>
        <time>2021-11-14T14:37:57.256Z</time>
      </trkpt>
      <trkpt lat="47.580212" lon="8.110399">
        <ele>323.644999</ele>
        <time>2021-11-14T14:38:05.437Z</time>
      </trkpt>
      <trkpt lat="47.580364" lon="8.110708">
        <ele>324.135118</ele>
        <time>2021-11-14T14:38:11.249Z</time>
      </trkpt>
      <trkpt lat="47.580670" lon="8.111332">
        <ele>325.341232</ele>
        <time>2021-11-14T14:38:23.136Z</time>
      </trkpt>
      <trkpt lat="47.581045" lon="8.112180">
        <ele>327.161461</ele>
        <time>2021-11-14T14:38:39.435Z</time>
      </trkpt>
      <trkpt lat="47.581182" lon="8.112552">
        <ele>327.922291</ele>
        <time>2021-11-14T14:38:46.877Z</time>
      </trkpt>
      <trkpt lat="47.581277" lon="8.112870">
        <ele>328.546617</ele>
        <time>2021-11-14T14:38:53.308Z</time>
      </trkpt>
      <trkpt lat="47.581391" lon="8.113276">
        <ele>329.336055</ele>
        <time>2021-11-14T14:39:02.240Z</time>
      </trkpt>
      <trkpt lat="47.581427" lon="8.113428">
        <ele>329.674486</ele>
        <time>2021-11-14T14:39:05.352Z</time>
      </trkpt>
      <trkpt lat="47.581503" lon="8.113781">
        <ele>330.466908</ele>
        <time>2021-11-14T14:39:12.807Z</time>
      </trkpt>
      <trkpt lat="47.581610" lon="8.114392">
        <ele>331.816867</ele>
        <time>2021-11-14T14:39:25.129Z</time>
      </trkpt>
      <trkpt lat="47.581698" lon="8.115075">
        <ele>333.303886</ele>
        <time>2021-11-14T14:39:38.169Z</time>
      </trkpt>
      <trkpt lat="47.581747" lon="8.115421">
        <ele>334.059946</ele>
        <time>2021-11-14T14:39:44.641Z</time>
      </trkpt>
      <trkpt lat="47.581851" lon="8.116146">
        <ele>335.494768</ele>
        <time>2021-11-14T14:39:57.302Z</time>
      </trkpt>
      <trkpt lat="47.582058" lon="8.118074">
        <ele>338.578353</ele>
        <time>2021-11-14T14:40:26.294Z</time>
      </trkpt>
      <trkpt lat="47.581997" lon="8.119489">
        <ele>341.854652</ele>
        <time>2021-11-14T14:40:53.509Z</time>
      </trkpt>
      <trkpt lat="47.581925" lon="8.120891">
        <ele>345.574510</ele>
        <time>2021-11-14T14:41:25.860Z</time>
      </trkpt>
      <trkpt lat="47.581872" lon="8.121939">
        <ele>346.635805</ele>
        <time>2021-11-14T14:41:46.468Z</time>
      </trkpt>
      <trkpt lat="47.581853" lon="8.122293">
        <ele>346.775192</ele>
        <time>2021-11-14T14:41:52.211Z</time>
      </trkpt>
      <trkpt lat="47.581616" lon="8.126107">
        <ele>344.259139</ele>
        <time>2021-11-14T14:42:21.820Z</time>
      </trkpt>
      <trkpt lat="47.581682" lon="8.126961">
        <ele>343.153290</ele>
        <time>2021-11-14T14:42:27.415Z</time>
      </trkpt>
      <trkpt lat="47.581995" lon="8.128036">
        <ele>341.725281</ele>
        <time>2021-11-14T14:42:35.753Z</time>
      </trkpt>
      <trkpt lat="47.582054" lon="8.128175">
        <ele>341.524985</ele>
        <time>2021-11-14T14:42:36.941Z</time>
      </trkpt>
      <trkpt lat="47.582271" lon="8.128732">
        <ele>340.740501</ele>
        <time>2021-11-14T14:42:42.947Z</time>
      </trkpt>
      <trkpt lat="47.582333" lon="8.128926">
        <ele>340.481926</ele>
        <time>2021-11-14T14:42:45.593Z</time>
      </trkpt>
      <trkpt lat="47.582383" lon="8.129121">
        <ele>340.715968</ele>
        <time>2021-11-14T14:42:47.546Z</time>
      </trkpt>
      <trkpt lat="47.582452" lon="8.129518">
        <ele>341.175907</ele>
        <time>2021-11-14T14:42:53.083Z</time>
      </trkpt>
      <trkpt lat="47.582476" lon="8.129918">
        <ele>341.626435</ele>
        <time>2021-11-14T14:42:58.587Z</time>
      </trkpt>
      <trkpt lat="47.582502" lon="8.130347">
        <ele>342.109666</ele>
        <time>2021-11-14T14:43:05.055Z</time>
      </trkpt>
      <trkpt lat="47.582401" lon="8.132729">
        <ele>342.935976</ele>
        <time>2021-11-14T14:43:44.573Z</time>
      </trkpt>
      <trkpt lat="47.582405" lon="8.133220">
        <ele>342.711517</ele>
        <time>2021-11-14T14:43:48.459Z</time>
      </trkpt>
      <trkpt lat="47.582445" lon="8.133813">
        <ele>342.439097</ele>
        <time>2021-11-14T14:43:52.688Z</time>
      </trkpt>
      <trkpt lat="47.582702" lon="8.135441">
        <ele>337.259659</ele>
        <time>2021-11-14T14:44:03.327Z</time>
      </trkpt>
      <trkpt lat="47.583161" lon="8.137044">
        <ele>330.245941</ele>
        <time>2021-11-14T14:44:13.879Z</time>
      </trkpt>
      <trkpt lat="47.583437" lon="8.137880">
        <ele>326.190364</ele>
        <time>2021-11-14T14:44:19.595Z</time>
      </trkpt>
      <trkpt lat="47.583514" lon="8.138100">
        <ele>325.110407</ele>
        <time>2021-11-14T14:44:21.161Z</time>
      </trkpt>
      <trkpt lat="47.583879" lon="8.139148">
        <ele>319.999064</ele>
        <time>2021-11-14T14:44:28.317Z</time>
      </trkpt>
      <trkpt lat="47.584040" lon="8.139585">
        <ele>318.271316</ele>
        <time>2021-11-14T14:44:31.442Z</time>
      </trkpt>
      <trkpt lat="47.584156" lon="8.139467">
        <ele>317.547631</ele>
        <time>2021-11-14T14:44:32.701Z</time>
      </trkpt>
      <trkpt lat="47.584278" lon="8.139277">
        <ele>316.637415</ele>
        <time>2021-11-14T14:44:34.452Z</time>
      </trkpt>
      <trkpt lat="47.584308" lon="8.139232">
        <ele>316.417879</ele>
        <time>2021-11-14T14:44:34.831Z</time>
      </trkpt>
      <trkpt lat="47.584365" lon="8.139157">
        <ele>316.025835</ele>
        <time>2021-11-14T14:44:35.506Z</time>
      </trkpt>
      <trkpt lat="47.584557" lon="8.139005">
        <ele>314.906158</ele>
        <time>2021-11-14T14:44:37.688Z</time>
      </trkpt>
      <trkpt lat="47.584806" lon="8.138964">
        <ele>313.617380</ele>
        <time>2021-11-14T14:44:40.020Z</time>
      </trkpt>
      <trkpt lat="47.585340" lon="8.139503">
        <ele>310.603913</ele>
        <time>2021-11-14T14:44:46.142Z</time>
      </trkpt>
      <trkpt lat="47.585467" lon="8.139649">
        <ele>310.233549</ele>
        <time>2021-11-14T14:44:47.746Z</time>
      </trkpt>
      <trkpt lat="47.585520" lon="8.139610">
        <ele>310.097188</ele>
        <time>2021-11-14T14:44:48.337Z</time>
      </trkpt>
      <trkpt lat="47.586064" lon="8.139426">
        <ele>308.811272</ele>
        <time>2021-11-14T14:44:54.106Z</time>
      </trkpt>
      <trkpt lat="47.586400" lon="8.139320">
        <ele>308.019589</ele>
        <time>2021-11-14T14:44:57.937Z</time>
      </trkpt>
      <trkpt lat="47.586494" lon="8.139309">
        <ele>307.802282</ele>
        <time>2021-11-14T14:44:58.907Z</time>
      </trkpt>
      <trkpt lat="47.588355" lon="8.138811">
        <ele>306.608274</ele>
        <time>2021-11-14T14:45:24.772Z</time>
      </trkpt>
      <trkpt lat="47.588762" lon="8.138925">
        <ele>306.617077</ele>
        <time>2021-11-14T14:45:32.251Z</time>
      </trkpt>
      <trkpt lat="47.588849" lon="8.139014">
        <ele>306.734076</ele>
        <time>2021-11-14T14:45:34.410Z</time>
      </trkpt>
      <trkpt lat="47.588921" lon="8.138996">
        <ele>306.814899</ele>
        <time>2021-11-14T14:45:42.670Z</time>
      </trkpt>
      <trkpt lat="47.588961" lon="8.138999">
        <ele>306.859232</ele>
        <time>2021-11-14T14:45:47.197Z</time>
      </trkpt>
      <trkpt lat="47.588988" lon="8.138979">
        <ele>306.892641</ele>
        <time>2021-11-14T14:45:50.627Z</time>
      </trkpt>
      <trkpt lat="47.589010" lon="8.138950">
        <ele>306.925226</ele>
        <time>2021-11-14T14:45:54.112Z</time>
      </trkpt>
      <trkpt lat="47.589034" lon="8.138899">
        <ele>306.971652</ele>
        <time>2021-11-14T14:45:58.832Z</time>
      </trkpt>
      <trkpt lat="47.589035" lon="8.138792">
        <ele>307.051541</ele>
        <time>2021-11-14T14:46:07.257Z</time>
      </trkpt>
      <trkpt lat="47.589075" lon="8.137452">
        <ele>308.052904</ele>
        <time>2021-11-14T14:46:29.575Z</time>
      </trkpt>
      <trkpt lat="47.589087" lon="8.137119">
        <ele>308.301861</ele>
        <time>2021-11-14T14:46:33.764Z</time>
      </trkpt>
      <trkpt lat="47.589100" lon="8.136764">
        <ele>308.567278</ele>
        <time>2021-11-14T14:46:38.362Z</time>
      </trkpt>
      <trkpt lat="47.589120" lon="8.136200">
        <ele>309.173063</ele>
        <time>2021-11-14T14:46:46.884Z</time>
      </trkpt>
      <trkpt lat="47.589138" lon="8.135853">
        <ele>309.547590</ele>
        <time>2021-11-14T14:46:52.740Z</time>
      </trkpt>
      <trkpt lat="47.589491" lon="8.135869">
        <ele>310.111105</ele>
        <time>2021-11-14T14:47:00.756Z</time>
      </trkpt>
      <trkpt lat="47.589730" lon="8.135855">
        <ele>310.492754</ele>
        <time>2021-11-14T14:47:05.940Z</time>
      </trkpt>
      <trkpt lat="47.589749" lon="8.135792">
        <ele>310.567021</ele>
        <time>2021-11-14T14:47:06.687Z</time>
      </trkpt>
      <trkpt lat="47.589862" lon="8.134673">
        <ele>311.672034</ele>
        <time>2021-11-14T14:47:21.930Z</time>
      </trkpt>
      <trkpt lat="47.589882" lon="8.134609">
        <ele>311.723013</ele>
        <time>2021-11-14T14:47:23.001Z</time>
      </trkpt>
      <trkpt lat="47.589915" lon="8.134585">
        <ele>311.762400</ele>
        <time>2021-11-14T14:47:23.417Z</time>
      </trkpt>
      <trkpt lat="47.590548" lon="8.134710">
        <ele>312.446716</ele>
        <time>2021-11-14T14:47:36.105Z</time>
      </trkpt>
      <trkpt lat="47.590681" lon="8.134711">
        <ele>312.589242</ele>
        <time>2021-11-14T14:47:38.563Z</time>
      </trkpt>
      <trkpt lat="47.590729" lon="8.134772">
        <ele>312.656986</ele>
        <time>2021-11-14T14:47:40.001Z</time>
      </trkpt>
      <trkpt lat="47.591316" lon="8.134958">
        <ele>313.300222</ele>
        <time>2021-11-14T14:47:51.742Z</time>
      </trkpt>
      <trkpt lat="47.591403" lon="8.134907">
        <ele>313.403176</ele>
        <time>2021-11-14T14:47:52.994Z</time>
      </trkpt>
      <trkpt lat="47.591423" lon="8.134826">
        <ele>313.470901</ele>
        <time>2021-11-14T14:47:53.897Z</time>
      </trkpt>
      <trkpt lat="47.591492" lon="8.134487">
        <ele>313.748924</ele>
        <time>2021-11-14T14:47:57.830Z</time>
      </trkpt>
      <trkpt lat="47.591534" lon="8.134213">
        <ele>313.969541</ele>
        <time>2021-11-14T14:48:01.098Z</time>
      </trkpt>
      <trkpt lat="47.591641" lon="8.133972">
        <ele>314.196083</ele>
        <time>2021-11-14T14:48:04.326Z</time>
      </trkpt>
      <trkpt lat="47.592031" lon="8.133513">
        <ele>314.775757</ele>
        <time>2021-11-14T14:48:14.379Z</time>
      </trkpt>
      <trkpt lat="47.592062" lon="8.133399">
        <ele>314.872265</ele>
        <time>2021-11-14T14:48:16.405Z</time>
      </trkpt>
      <trkpt lat="47.592009" lon="8.133338">
        <ele>314.950373</ele>
        <time>2021-11-14T14:48:17.551Z</time>
      </trkpt>
      <trkpt lat="47.591957" lon="8.133278">
        <ele>315.027081</ele>
        <time>2021-11-14T14:48:18.749Z</time>
      </trkpt>
      <trkpt lat="47.591905" lon="8.133207">
        <ele>315.109375</ele>
        <time>2021-11-14T14:48:20.396Z</time>
      </trkpt>
      <trkpt lat="47.591548" lon="8.132722">
        <ele>315.655987</ele>
        <time>2021-11-14T14:48:31.309Z</time>
      </trkpt>
      <trkpt lat="47.591517" lon="8.132683">
        <ele>315.699467</ele>
        <time>2021-11-14T14:48:32.271Z</time>
      </trkpt>
      <trkpt lat="47.591422" lon="8.132562">
        <ele>315.833407</ele>
        <time>2021-11-14T14:48:34.623Z</time>
      </trkpt>
      <trkpt lat="47.591370" lon="8.132496">
        <ele>315.906613</ele>
        <time>2021-11-14T14:48:36.171Z</time>
      </trkpt>
      <trkpt lat="47.591175" lon="8.132110">
        <ele>316.254476</ele>
        <time>2021-11-14T14:48:42.681Z</time>
      </trkpt>
      <trkpt lat="47.591151" lon="8.131993">
        <ele>316.342684</ele>
        <time>2021-11-14T14:48:44.405Z</time>
      </trkpt>
      <trkpt lat="47.591136" lon="8.131905">
        <ele>316.408153</ele>
        <time>2021-11-14T14:48:45.578Z</time>
      </trkpt>
      <trkpt lat="47.591143" lon="8.131579">
        <ele>316.643411</ele>
        <time>2021-11-14T14:48:49.309Z</time>
      </trkpt>
      <trkpt lat="47.591199" lon="8.131358">
        <ele>316.813695</ele>
        <time>2021-11-14T14:48:51.867Z</time>
      </trkpt>
      <trkpt lat="47.591247" lon="8.131227">
        <ele>316.921228</ele>
        <time>2021-11-14T14:48:53.337Z</time>
      </trkpt>
      <trkpt lat="47.591347" lon="8.130977">
        <ele>317.130880</ele>
        <time>2021-11-14T14:48:56.955Z</time>
      </trkpt>
      <trkpt lat="47.591364" lon="8.130933">
        <ele>317.167456</ele>
        <time>2021-11-14T14:48:57.473Z</time>
      </trkpt>
      <trkpt lat="47.591433" lon="8.130739">
        <ele>317.325651</ele>
        <time>2021-11-14T14:48:59.853Z</time>
      </trkpt>
      <trkpt lat="47.591479" lon="8.130581">
        <ele>317.467336</ele>
        <time>2021-11-14T14:49:02.284Z</time>
      </trkpt>
      <trkpt lat="47.591505" lon="8.130439">
        <ele>317.603050</ele>
        <time>2021-11-14T14:49:04.101Z</time>
      </trkpt>
      <trkpt lat="47.591505" lon="8.130232">
        <ele>317.793977</ele>
        <time>2021-11-14T14:49:06.412Z</time>
      </trkpt>
      <trkpt lat="47.591483" lon="8.130025">
        <ele>317.987259</ele>
        <time>2021-11-14T14:49:09.289Z</time>
      </trkpt>
      <trkpt lat="47.591460" lon="8.129923">
        <ele>318.086458</ele>
        <time>2021-11-14T14:49:11.083Z</time>
      </trkpt>
      <trkpt lat="47.591347" lon="8.129594">
        <ele>318.426998</ele>
        <time>2021-11-14T14:49:17.184Z</time>
      </trkpt>
      <trkpt lat="47.591213" lon="8.129277">
        <ele>318.772070</ele>
        <time>2021-11-14T14:49:23.506Z</time>
      </trkpt>
      <trkpt lat="47.590649" lon="8.127923">
        <ele>320.574608</ele>
        <time>2021-11-14T14:49:52.663Z</time>
      </trkpt>
      <trkpt lat="47.590625" lon="8.127864">
        <ele>320.692242</ele>
        <time>2021-11-14T14:49:54.082Z</time>
      </trkpt>
      <trkpt lat="47.590409" lon="8.127398">
        <ele>321.657627</ele>
        <time>2021-11-14T14:50:05.917Z</time>
      </trkpt>
      <trkpt lat="47.589672" lon="8.126374">
        <ele>324.214448</ele>
        <time>2021-11-14T14:50:38.312Z</time>
      </trkpt>
      <trkpt lat="47.589591" lon="8.126262">
        <ele>324.451482</ele>
        <time>2021-11-14T14:50:41.564Z</time>
      </trkpt>
      <trkpt lat="47.589278" lon="8.125788">
        <ele>325.066857</ele>
        <time>2021-11-14T14:50:54.716Z</time>
      </trkpt>
      <trkpt lat="47.589070" lon="8.125392">
        <ele>325.532472</ele>
        <time>2021-11-14T14:51:03.692Z</time>
      </trkpt>
      <trkpt lat="47.589078" lon="8.125315">
        <ele>325.604744</ele>
        <time>2021-11-14T14:51:05.306Z</time>
      </trkpt>
      <trkpt lat="47.589001" lon="8.125276">
        <ele>325.716663</ele>
        <time>2021-11-14T14:51:07.316Z</time>
      </trkpt>
      <trkpt lat="47.588922" lon="8.125160">
        <ele>325.869590</ele>
        <time>2021-11-14T14:51:09.919Z</time>
      </trkpt>
      <trkpt lat="47.588669" lon="8.124663">
        <ele>326.447225</ele>
        <time>2021-11-14T14:51:19.712Z</time>
      </trkpt>
      <trkpt lat="47.588469" lon="8.124106">
        <ele>326.880902</ele>
        <time>2021-11-14T14:51:29.046Z</time>
      </trkpt>
      <trkpt lat="47.588307" lon="8.123639">
        <ele>326.902536</ele>
        <time>2021-11-14T14:51:36.409Z</time>
      </trkpt>
      <trkpt lat="47.588080" lon="8.122981">
        <ele>326.932983</ele>
        <time>2021-11-14T14:51:46.662Z</time>
      </trkpt>
      <trkpt lat="47.587930" lon="8.122557">
        <ele>326.952707</ele>
        <time>2021-11-14T14:51:52.999Z</time>
      </trkpt>
      <trkpt lat="47.587823" lon="8.122266">
        <ele>326.966361</ele>
        <time>2021-11-14T14:51:57.385Z</time>
      </trkpt>
      <trkpt lat="47.587722" lon="8.121983">
        <ele>326.979552</ele>
        <time>2021-11-14T14:52:01.510Z</time>
      </trkpt>
      <trkpt lat="47.587613" lon="8.121661">
        <ele>327.002523</ele>
        <time>2021-11-14T14:52:06.329Z</time>
      </trkpt>
      <trkpt lat="47.587553" lon="8.121454">
        <ele>327.018870</ele>
        <time>2021-11-14T14:52:09.347Z</time>
      </trkpt>
      <trkpt lat="47.587457" lon="8.121156">
        <ele>327.042832</ele>
        <time>2021-11-14T14:52:13.828Z</time>
      </trkpt>
      <trkpt lat="47.587370" lon="8.120885">
        <ele>327.064608</ele>
        <time>2021-11-14T14:52:17.967Z</time>
      </trkpt>
      <trkpt lat="47.587280" lon="8.120590">
        <ele>327.088100</ele>
        <time>2021-11-14T14:52:22.502Z</time>
      </trkpt>
      <trkpt lat="47.587132" lon="8.120084">
        <ele>327.128117</ele>
        <time>2021-11-14T14:52:30.372Z</time>
      </trkpt>
      <trkpt lat="47.587014" lon="8.119573">
        <ele>327.167307</ele>
        <time>2021-11-14T14:52:38.204Z</time>
      </trkpt>
      <trkpt lat="47.586806" lon="8.118601">
        <ele>327.266506</ele>
        <time>2021-11-14T14:52:52.788Z</time>
      </trkpt>
      <trkpt lat="47.586785" lon="8.118468">
        <ele>327.280315</ele>
        <time>2021-11-14T14:52:54.741Z</time>
      </trkpt>
      <trkpt lat="47.586773" lon="8.118379">
        <ele>327.289491</ele>
        <time>2021-11-14T14:52:56.035Z</time>
      </trkpt>
      <trkpt lat="47.586696" lon="8.117684">
        <ele>327.360694</ele>
        <time>2021-11-14T14:53:06.356Z</time>
      </trkpt>
      <trkpt lat="47.586657" lon="8.116185">
        <ele>327.009620</ele>
        <time>2021-11-14T14:53:26.523Z</time>
      </trkpt>
      <trkpt lat="47.586564" lon="8.115669">
        <ele>326.649486</ele>
        <time>2021-11-14T14:53:33.082Z</time>
      </trkpt>
      <trkpt lat="47.586495" lon="8.115468">
        <ele>326.497413</ele>
        <time>2021-11-14T14:53:35.883Z</time>
      </trkpt>
      <trkpt lat="47.586309" lon="8.115027">
        <ele>326.146705</ele>
        <time>2021-11-14T14:53:41.852Z</time>
      </trkpt>
      <trkpt lat="47.586124" lon="8.114616">
        <ele>325.813531</ele>
        <time>2021-11-14T14:53:47.255Z</time>
      </trkpt>
      <trkpt lat="47.586040" lon="8.114419">
        <ele>325.656380</ele>
        <time>2021-11-14T14:53:49.741Z</time>
      </trkpt>
      <trkpt lat="47.585978" lon="8.114276">
        <ele>325.273341</ele>
        <time>2021-11-14T14:53:51.525Z</time>
      </trkpt>
      <trkpt lat="47.585864" lon="8.114008">
        <ele>324.523463</ele>
        <time>2021-11-14T14:53:54.819Z</time>
      </trkpt>
      <trkpt lat="47.585808" lon="8.113882">
        <ele>324.166339</ele>
        <time>2021-11-14T14:53:56.324Z</time>
      </trkpt>
      <trkpt lat="47.585692" lon="8.113619">
        <ele>323.422623</ele>
        <time>2021-11-14T14:53:59.474Z</time>
      </trkpt>
      <trkpt lat="47.585557" lon="8.113319">
        <ele>322.569093</ele>
        <time>2021-11-14T14:54:02.929Z</time>
      </trkpt>
      <trkpt lat="47.585485" lon="8.113157">
        <ele>322.109931</ele>
        <time>2021-11-14T14:54:04.748Z</time>
      </trkpt>
      <trkpt lat="47.585352" lon="8.112867">
        <ele>321.279949</ele>
        <time>2021-11-14T14:54:08.025Z</time>
      </trkpt>
      <trkpt lat="47.585221" lon="8.112571">
        <ele>320.442056</ele>
        <time>2021-11-14T14:54:10.339Z</time>
      </trkpt>
      <trkpt lat="47.585157" lon="8.112429">
        <ele>320.037854</ele>
        <time>2021-11-14T14:54:11.475Z</time>
      </trkpt>
      <trkpt lat="47.585029" lon="8.112132">
        <ele>319.197299</ele>
        <time>2021-11-14T14:54:13.731Z</time>
      </trkpt>
      <trkpt lat="47.584878" lon="8.111799">
        <ele>318.202221</ele>
        <time>2021-11-14T14:54:16.339Z</time>
      </trkpt>
      <trkpt lat="47.584806" lon="8.111649">
        <ele>317.745657</ele>
        <time>2021-11-14T14:54:17.508Z</time>
      </trkpt>
      <trkpt lat="47.584716" lon="8.111496">
        <ele>317.242209</ele>
        <time>2021-11-14T14:54:18.849Z</time>
      </trkpt>
      <trkpt lat="47.584579" lon="8.111319">
        <ele>316.574084</ele>
        <time>2021-11-14T14:54:20.563Z</time>
      </trkpt>
      <trkpt lat="47.584099" lon="8.110752">
        <ele>314.317602</ele>
        <time>2021-11-14T14:54:26.460Z</time>
      </trkpt>
      <trkpt lat="47.584050" lon="8.110692">
        <ele>314.083942</ele>
        <time>2021-11-14T14:54:27.067Z</time>
      </trkpt>
      <trkpt lat="47.583872" lon="8.110453">
        <ele>313.200990</ele>
        <time>2021-11-14T14:54:29.475Z</time>
      </trkpt>
      <trkpt lat="47.583574" lon="8.109890">
        <ele>313.886618</ele>
        <time>2021-11-14T14:54:35.218Z</time>
      </trkpt>
      <trkpt lat="47.583498" lon="8.109663">
        <ele>314.449274</ele>
        <time>2021-11-14T14:54:39.356Z</time>
      </trkpt>
      <trkpt lat="47.583478" lon="8.109592">
        <ele>314.620103</ele>
        <time>2021-11-14T14:54:41.555Z</time>
      </trkpt>
      <trkpt lat="47.583452" lon="8.109511">
        <ele>314.819264</ele>
        <time>2021-11-14T14:54:43.190Z</time>
      </trkpt>
      <trkpt lat="47.583405" lon="8.109406">
        <ele>315.099048</ele>
        <time>2021-11-14T14:54:45.099Z</time>
      </trkpt>
      <trkpt lat="47.583388" lon="8.109374">
        <ele>315.189485</ele>
        <time>2021-11-14T14:54:45.739Z</time>
      </trkpt>
      <trkpt lat="47.583348" lon="8.109308">
        <ele>315.386480</ele>
        <time>2021-11-14T14:54:47.118Z</time>
      </trkpt>
      <trkpt lat="47.583309" lon="8.109254">
        <ele>315.562130</ele>
        <time>2021-11-14T14:54:48.580Z</time>
      </trkpt>
      <trkpt lat="47.583159" lon="8.109095">
        <ele>316.169084</ele>
        <time>2021-11-14T14:54:54.464Z</time>
      </trkpt>
      <trkpt lat="47.583170" lon="8.109033">
        <ele>316.311419</ele>
        <time>2021-11-14T14:54:55.904Z</time>
      </trkpt>
      <trkpt lat="47.583198" lon="8.108941">
        <ele>316.535510</ele>
        <time>2021-11-14T14:54:57.507Z</time>
      </trkpt>
      <trkpt lat="47.583381" lon="8.108515">
        <ele>317.656844</ele>
        <time>2021-11-14T14:55:11.175Z</time>
      </trkpt>
      <trkpt lat="47.583467" lon="8.108290">
        <ele>318.231020</ele>
        <time>2021-11-14T14:55:20.868Z</time>
      </trkpt>
      <trkpt lat="47.583556" lon="8.108122">
        <ele>318.753992</ele>
        <time>2021-11-14T14:55:25.561Z</time>
      </trkpt>
      <trkpt lat="47.583630" lon="8.107975">
        <ele>319.488635</ele>
        <time>2021-11-14T14:55:30.242Z</time>
      </trkpt>
      <trkpt lat="47.583681" lon="8.107874">
        <ele>319.993946</ele>
        <time>2021-11-14T14:55:35.912Z</time>
      </trkpt>
      <trkpt lat="47.583730" lon="8.107651">
        <ele>320.933283</ele>
        <time>2021-11-14T14:55:40.960Z</time>
      </trkpt>
      <trkpt lat="47.583716" lon="8.107419">
        <ele>321.866182</ele>
        <time>2021-11-14T14:55:48.662Z</time>
      </trkpt>
      <trkpt lat="47.583602" lon="8.107067">
        <ele>323.430072</ele>
        <time>2021-11-14T14:55:58.292Z</time>
      </trkpt>
      <trkpt lat="47.583538" lon="8.106963">
        <ele>323.993911</ele>
        <time>2021-11-14T14:56:04.074Z</time>
      </trkpt>
      <trkpt lat="47.583524" lon="8.106942">
        <ele>324.112167</ele>
        <time>2021-11-14T14:56:05.757Z</time>
      </trkpt>
      <trkpt lat="47.583342" lon="8.106660">
        <ele>325.675345</ele>
        <time>2021-11-14T14:56:14.166Z</time>
      </trkpt>
      <trkpt lat="47.583190" lon="8.106425">
        <ele>326.979364</ele>
        <time>2021-11-14T14:56:24.343Z</time>
      </trkpt>
      <trkpt lat="47.582759" lon="8.105824">
        <ele>329.925992</ele>
        <time>2021-11-14T14:56:41.751Z</time>
      </trkpt>
      <trkpt lat="47.582400" lon="8.105317">
        <ele>331.441562</ele>
        <time>2021-11-14T14:56:54.682Z</time>
      </trkpt>
      <trkpt lat="47.581932" lon="8.104673">
        <ele>333.393377</ele>
        <time>2021-11-14T14:57:08.258Z</time>
      </trkpt>
      <trkpt lat="47.581693" lon="8.104351">
        <ele>334.380544</ele>
        <time>2021-11-14T14:57:16.814Z</time>
      </trkpt>
      <trkpt lat="47.581644" lon="8.104206">
        <ele>334.714935</ele>
        <time>2021-11-14T14:57:21.562Z</time>
      </trkpt>
      <trkpt lat="47.581609" lon="8.103948">
        <ele>335.662725</ele>
        <time>2021-11-14T14:57:27.094Z</time>
      </trkpt>
      <trkpt lat="47.581621" lon="8.103861">
        <ele>336.016402</ele>
        <time>2021-11-14T14:57:29.489Z</time>
      </trkpt>
      <trkpt lat="47.581680" lon="8.103741">
        <ele>336.607829</ele>
        <time>2021-11-14T14:57:33.430Z</time>
      </trkpt>
      <trkpt lat="47.581700" lon="8.103708">
        <ele>336.784522</ele>
        <time>2021-11-14T14:57:35.576Z</time>
      </trkpt>
      <trkpt lat="47.581790" lon="8.103613">
        <ele>337.436869</ele>
        <time>2021-11-14T14:57:38.688Z</time>
      </trkpt>
      <trkpt lat="47.582067" lon="8.103520">
        <ele>339.113843</ele>
        <time>2021-11-14T14:57:49.839Z</time>
      </trkpt>
      <trkpt lat="47.582742" lon="8.103783">
        <ele>343.234750</ele>
        <time>2021-11-14T14:58:18.484Z</time>
      </trkpt>
      <trkpt lat="47.582925" lon="8.103781">
        <ele>344.315309</ele>
        <time>2021-11-14T14:58:26.354Z</time>
      </trkpt>
      <trkpt lat="47.583203" lon="8.103671">
        <ele>346.083397</ele>
        <time>2021-11-14T14:58:39.736Z</time>
      </trkpt>
      <trkpt lat="47.583374" lon="8.103500">
        <ele>347.448714</ele>
        <time>2021-11-14T14:58:48.232Z</time>
      </trkpt>
      <trkpt lat="47.583567" lon="8.103131">
        <ele>349.533503</ele>
        <time>2021-11-14T14:59:01.105Z</time>
      </trkpt>
      <trkpt lat="47.583646" lon="8.102779">
        <ele>351.189820</ele>
        <time>2021-11-14T14:59:11.328Z</time>
      </trkpt>
      <trkpt lat="47.583644" lon="8.102396">
        <ele>352.899883</ele>
        <time>2021-11-14T14:59:22.056Z</time>
      </trkpt>
      <trkpt lat="47.583595" lon="8.102123">
        <ele>354.161184</ele>
        <time>2021-11-14T14:59:30.101Z</time>
      </trkpt>
      <trkpt lat="47.583531" lon="8.101951">
        <ele>355.038226</ele>
        <time>2021-11-14T14:59:35.525Z</time>
      </trkpt>
      <trkpt lat="47.583260" lon="8.101238">
        <ele>358.763298</ele>
        <time>2021-11-14T14:59:57.043Z</time>
      </trkpt>
      <trkpt lat="47.583184" lon="8.101026">
        <ele>359.891899</ele>
        <time>2021-11-14T15:00:03.724Z</time>
      </trkpt>
      <trkpt lat="47.583009" lon="8.100415">
        <ele>363.012371</ele>
        <time>2021-11-14T15:00:21.934Z</time>
      </trkpt>
      <trkpt lat="47.582956" lon="8.099712">
        <ele>366.337699</ele>
        <time>2021-11-14T15:00:43.826Z</time>
      </trkpt>
      <trkpt lat="47.582991" lon="8.099169">
        <ele>368.901930</ele>
        <time>2021-11-14T15:01:00.099Z</time>
      </trkpt>
      <trkpt lat="47.583155" lon="8.098591">
        <ele>371.756759</ele>
        <time>2021-11-14T15:01:18.700Z</time>
      </trkpt>
      <trkpt lat="47.583254" lon="8.098366">
        <ele>372.959924</ele>
        <time>2021-11-14T15:01:26.355Z</time>
      </trkpt>
      <trkpt lat="47.583314" lon="8.098261">
        <ele>373.576260</ele>
        <time>2021-11-14T15:01:31.225Z</time>
      </trkpt>
      <trkpt lat="47.583497" lon="8.097983">
        <ele>375.316006</ele>
        <time>2021-11-14T15:01:41.666Z</time>
      </trkpt>
      <trkpt lat="47.585194" lon="8.096078">
        <ele>388.544980</ele>
        <time>2021-11-14T15:03:06.194Z</time>
      </trkpt>
      <trkpt lat="47.585712" lon="8.095427">
        <ele>392.517724</ele>
        <time>2021-11-14T15:03:30.345Z</time>
      </trkpt>
      <trkpt lat="47.585861" lon="8.095144">
        <ele>393.925351</ele>
        <time>2021-11-14T15:03:38.966Z</time>
      </trkpt>
      <trkpt lat="47.585991" lon="8.094838">
        <ele>395.343283</ele>
        <time>2021-11-14T15:03:47.979Z</time>
      </trkpt>
      <trkpt lat="47.586207" lon="8.094026">
        <ele>398.765638</ele>
        <time>2021-11-14T15:04:08.602Z</time>
      </trkpt>
      <trkpt lat="47.586271" lon="8.093380">
        <ele>401.325652</ele>
        <time>2021-11-14T15:04:26.514Z</time>
      </trkpt>
      <trkpt lat="47.586159" lon="8.091548">
        <ele>410.127037</ele>
        <time>2021-11-14T15:05:19.948Z</time>
      </trkpt>
      <trkpt lat="47.586169" lon="8.091329">
        <ele>411.226316</ele>
        <time>2021-11-14T15:05:26.836Z</time>
      </trkpt>
      <trkpt lat="47.586207" lon="8.091057">
        <ele>412.617427</ele>
        <time>2021-11-14T15:05:35.144Z</time>
      </trkpt>
      <trkpt lat="47.586374" lon="8.090476">
        <ele>415.780311</ele>
        <time>2021-11-14T15:05:54.779Z</time>
      </trkpt>
      <trkpt lat="47.586940" lon="8.089282">
        <ele>423.962170</ele>
        <time>2021-11-14T15:06:43.794Z</time>
      </trkpt>
      <trkpt lat="47.587101" lon="8.088498">
        <ele>428.583793</ele>
        <time>2021-11-14T15:07:09.591Z</time>
      </trkpt>
      <trkpt lat="47.587338" lon="8.086784">
        <ele>437.485031</ele>
        <time>2021-11-14T15:08:07.223Z</time>
      </trkpt>
      <trkpt lat="47.587490" lon="8.085581">
        <ele>443.467755</ele>
        <time>2021-11-14T15:08:42.995Z</time>
      </trkpt>
      <trkpt lat="47.587553" lon="8.085157">
        <ele>444.358909</ele>
        <time>2021-11-14T15:08:53.156Z</time>
      </trkpt>
      <trkpt lat="47.587632" lon="8.084818">
        <ele>444.516748</ele>
        <time>2021-11-14T15:08:59.925Z</time>
      </trkpt>
      <trkpt lat="47.587753" lon="8.084390">
        <ele>444.720976</ele>
        <time>2021-11-14T15:09:07.083Z</time>
      </trkpt>
      <trkpt lat="47.587882" lon="8.084051">
        <ele>444.892266</ele>
        <time>2021-11-14T15:09:11.388Z</time>
      </trkpt>
      <trkpt lat="47.587959" lon="8.083838">
        <ele>444.998617</ele>
        <time>2021-11-14T15:09:13.509Z</time>
      </trkpt>
      <trkpt lat="47.588010" lon="8.083700">
        <ele>445.067866</ele>
        <time>2021-11-14T15:09:14.696Z</time>
      </trkpt>
      <trkpt lat="47.588165" lon="8.083275">
        <ele>445.280488</ele>
        <time>2021-11-14T15:09:18.220Z</time>
      </trkpt>
      <trkpt lat="47.588252" lon="8.083013">
        <ele>445.409002</ele>
        <time>2021-11-14T15:09:20.237Z</time>
      </trkpt>
      <trkpt lat="47.588252" lon="8.083013">
        <ele>445.409002</ele>
        <time>2021-11-14T15:09:20.239Z</time>
      </trkpt>
      <trkpt lat="47.588252" lon="8.083013">
        <ele>445.409002</ele>
        <time>2021-11-14T15:09:20.263Z</time>
      </trkpt>
      <trkpt lat="47.588280" lon="8.082843">
        <ele>445.159304</ele>
        <time>2021-11-14T15:09:21.383Z</time>
      </trkpt>
      <trkpt lat="47.588296" lon="8.082646">
        <ele>444.867896</ele>
        <time>2021-11-14T15:09:22.681Z</time>
      </trkpt>
      <trkpt lat="47.588330" lon="8.081966">
        <ele>443.866497</ele>
        <time>2021-11-14T15:09:27.253Z</time>
      </trkpt>
      <trkpt lat="47.588361" lon="8.081689">
        <ele>443.454128</ele>
        <time>2021-11-14T15:09:29.165Z</time>
      </trkpt>
      <trkpt lat="47.588407" lon="8.081450">
        <ele>443.089117</ele>
        <time>2021-11-14T15:09:30.835Z</time>
      </trkpt>
      <trkpt lat="47.588550" lon="8.080930">
        <ele>442.264398</ele>
        <time>2021-11-14T15:09:34.916Z</time>
      </trkpt>
      <trkpt lat="47.588590" lon="8.080813">
        <ele>442.071756</ele>
        <time>2021-11-14T15:09:35.966Z</time>
      </trkpt>
      <trkpt lat="47.588682" lon="8.080451">
        <ele>441.503629</ele>
        <time>2021-11-14T15:09:39.448Z</time>
      </trkpt>
      <trkpt lat="47.588771" lon="8.080499">
        <ele>441.787476</ele>
        <time>2021-11-14T15:09:41.816Z</time>
      </trkpt>
      <trkpt lat="47.588969" lon="8.080607">
        <ele>442.472365</ele>
        <time>2021-11-14T15:09:45.890Z</time>
      </trkpt>
      <trkpt lat="47.589504" lon="8.080831">
        <ele>444.277071</ele>
        <time>2021-11-14T15:10:00.233Z</time>
      </trkpt>
      <trkpt lat="47.589915" lon="8.080843">
        <ele>445.611573</ele>
        <time>2021-11-14T15:10:13.636Z</time>
      </trkpt>
      <trkpt lat="47.590256" lon="8.080753">
        <ele>446.735973</ele>
        <time>2021-11-14T15:10:26.497Z</time>
      </trkpt>
      <trkpt lat="47.590506" lon="8.080602">
        <ele>447.694494</ele>
        <time>2021-11-14T15:10:36.023Z</time>
      </trkpt>
      <trkpt lat="47.590780" lon="8.080371">
        <ele>449.018959</ele>
        <time>2021-11-14T15:10:46.506Z</time>
      </trkpt>
      <trkpt lat="47.590932" lon="8.080184">
        <ele>449.848901</ele>
        <time>2021-11-14T15:10:53.169Z</time>
      </trkpt>
      <trkpt lat="47.590988" lon="8.080113">
        <ele>450.158512</ele>
        <time>2021-11-14T15:10:55.431Z</time>
      </trkpt>
      <trkpt lat="47.591134" lon="8.079877">
        <ele>451.066088</ele>
        <time>2021-11-14T15:11:02.750Z</time>
      </trkpt>
      <trkpt lat="47.591318" lon="8.079572">
        <ele>452.225790</ele>
        <time>2021-11-14T15:11:11.632Z</time>
      </trkpt>
      <trkpt lat="47.591571" lon="8.078854">
        <ele>454.521542</ele>
        <time>2021-11-14T15:11:27.486Z</time>
      </trkpt>
      <trkpt lat="47.591713" lon="8.078018">
        <ele>456.066842</ele>
        <time>2021-11-14T15:11:43.584Z</time>
      </trkpt>
      <trkpt lat="47.591728" lon="8.077457">
        <ele>456.968975</ele>
        <time>2021-11-14T15:11:52.690Z</time>
      </trkpt>
      <trkpt lat="47.591664" lon="8.076156">
        <ele>459.064998</ele>
        <time>2021-11-14T15:12:12.607Z</time>
      </trkpt>
      <trkpt lat="47.591658" lon="8.075670">
        <ele>459.711491</ele>
        <time>2021-11-14T15:12:19.716Z</time>
      </trkpt>
      <trkpt lat="47.591617" lon="8.074301">
        <ele>461.470876</ele>
        <time>2021-11-14T15:12:38.553Z</time>
      </trkpt>
      <trkpt lat="47.591580" lon="8.073104">
        <ele>463.447974</ele>
        <time>2021-11-14T15:12:58.011Z</time>
      </trkpt>
      <trkpt lat="47.591539" lon="8.072391">
        <ele>465.352934</ele>
        <time>2021-11-14T15:13:12.196Z</time>
      </trkpt>
      <trkpt lat="47.591545" lon="8.071733">
        <ele>467.104752</ele>
        <time>2021-11-14T15:13:25.589Z</time>
      </trkpt>
      <trkpt lat="47.591555" lon="8.071621">
        <ele>467.405508</ele>
        <time>2021-11-14T15:13:27.844Z</time>
      </trkpt>
      <trkpt lat="47.591601" lon="8.071421">
        <ele>467.968037</ele>
        <time>2021-11-14T15:13:33.705Z</time>
      </trkpt>
      <trkpt lat="47.591789" lon="8.070945">
        <ele>469.436497</ele>
        <time>2021-11-14T15:13:46.473Z</time>
      </trkpt>
      <trkpt lat="47.593098" lon="8.068990">
        <ele>478.064215</ele>
        <time>2021-11-14T15:14:50.124Z</time>
      </trkpt>
      <trkpt lat="47.593244" lon="8.068658">
        <ele>479.038961</ele>
        <time>2021-11-14T15:14:57.685Z</time>
      </trkpt>
      <trkpt lat="47.593269" lon="8.068518">
        <ele>479.392203</ele>
        <time>2021-11-14T15:15:00.635Z</time>
      </trkpt>
      <trkpt lat="47.593273" lon="8.068378">
        <ele>479.733983</ele>
        <time>2021-11-14T15:15:03.182Z</time>
      </trkpt>
      <trkpt lat="47.593098" lon="8.067801">
        <ele>481.277119</ele>
        <time>2021-11-14T15:15:14.968Z</time>
      </trkpt>
      <trkpt lat="47.593029" lon="8.067589">
        <ele>481.851279</ele>
        <time>2021-11-14T15:15:19.602Z</time>
      </trkpt>
      <trkpt lat="47.592976" lon="8.067422">
        <ele>482.301461</ele>
        <time>2021-11-14T15:15:23.221Z</time>
      </trkpt>
      <trkpt lat="47.592903" lon="8.067103">
        <ele>483.123112</ele>
        <time>2021-11-14T15:15:29.927Z</time>
      </trkpt>
      <trkpt lat="47.592851" lon="8.066920">
        <ele>483.607474</ele>
        <time>2021-11-14T15:15:33.624Z</time>
      </trkpt>
      <trkpt lat="47.592805" lon="8.066533">
        <ele>484.565962</ele>
        <time>2021-11-14T15:15:41.042Z</time>
      </trkpt>
      <trkpt lat="47.592772" lon="8.066253">
        <ele>485.331962</ele>
        <time>2021-11-14T15:15:47.022Z</time>
      </trkpt>
      <trkpt lat="47.592753" lon="8.065994">
        <ele>486.038023</ele>
        <time>2021-11-14T15:15:51.937Z</time>
      </trkpt>
      <trkpt lat="47.592753" lon="8.065789">
        <ele>486.593598</ele>
        <time>2021-11-14T15:15:56.340Z</time>
      </trkpt>
      <trkpt lat="47.592771" lon="8.065527">
        <ele>487.307325</ele>
        <time>2021-11-14T15:16:01.327Z</time>
      </trkpt>
      <trkpt lat="47.592796" lon="8.065356">
        <ele>487.781520</ele>
        <time>2021-11-14T15:16:04.968Z</time>
      </trkpt>
      <trkpt lat="47.592854" lon="8.065134">
        <ele>488.426736</ele>
        <time>2021-11-14T15:16:09.736Z</time>
      </trkpt>
      <trkpt lat="47.593063" lon="8.064433">
        <ele>490.503898</ele>
        <time>2021-11-14T15:16:26.403Z</time>
      </trkpt>
      <trkpt lat="47.593084" lon="8.064344">
        <ele>490.759435</ele>
        <time>2021-11-14T15:16:28.759Z</time>
      </trkpt>
      <trkpt lat="47.593128" lon="8.064152">
        <ele>491.308996</ele>
        <time>2021-11-14T15:16:32.698Z</time>
      </trkpt>
      <trkpt lat="47.593141" lon="8.064007">
        <ele>491.705419</ele>
        <time>2021-11-14T15:16:36.099Z</time>
      </trkpt>
      <trkpt lat="47.593148" lon="8.063922">
        <ele>491.916729</ele>
        <time>2021-11-14T15:16:38.395Z</time>
      </trkpt>
      <trkpt lat="47.593190" lon="8.063094">
        <ele>493.719996</ele>
        <time>2021-11-14T15:16:56.378Z</time>
      </trkpt>
      <trkpt lat="47.593228" lon="8.062977">
        <ele>494.002019</ele>
        <time>2021-11-14T15:16:59.349Z</time>
      </trkpt>
      <trkpt lat="47.593301" lon="8.062878">
        <ele>494.320591</ele>
        <time>2021-11-14T15:17:03.556Z</time>
      </trkpt>
      <trkpt lat="47.593389" lon="8.062789">
        <ele>494.663614</ele>
        <time>2021-11-14T15:17:05.536Z</time>
      </trkpt>
      <trkpt lat="47.593471" lon="8.062715">
        <ele>494.972735</ele>
        <time>2021-11-14T15:17:07.888Z</time>
      </trkpt>
      <trkpt lat="47.593573" lon="8.062602">
        <ele>495.382752</ele>
        <time>2021-11-14T15:17:12.863Z</time>
      </trkpt>
      <trkpt lat="47.593733" lon="8.062402">
        <ele>496.056643</ele>
        <time>2021-11-14T15:17:16.858Z</time>
      </trkpt>
      <trkpt lat="47.593975" lon="8.061935">
        <ele>497.335659</ele>
        <time>2021-11-14T15:17:25.864Z</time>
      </trkpt>
      <trkpt lat="47.594271" lon="8.061585">
        <ele>497.761311</ele>
        <time>2021-11-14T15:17:33.283Z</time>
      </trkpt>
      <trkpt lat="47.594403" lon="8.061507">
        <ele>497.828343</ele>
        <time>2021-11-14T15:17:37.490Z</time>
      </trkpt>
      <trkpt lat="47.594338" lon="8.061466">
        <ele>497.861665</ele>
        <time>2021-11-14T15:17:38.230Z</time>
      </trkpt>
      <trkpt lat="47.594006" lon="8.061362">
        <ele>498.021740</ele>
        <time>2021-11-14T15:17:44.600Z</time>
      </trkpt>
      <trkpt lat="47.593887" lon="8.061332">
        <ele>498.078683</ele>
        <time>2021-11-14T15:17:45.964Z</time>
      </trkpt>
      <trkpt lat="47.593936" lon="8.061196">
        <ele>498.127737</ele>
        <time>2021-11-14T15:17:48.244Z</time>
      </trkpt>
      <trkpt lat="47.594120" lon="8.060864">
        <ele>498.264448</ele>
        <time>2021-11-14T15:17:53.567Z</time>
      </trkpt>
      <trkpt lat="47.594253" lon="8.060578">
        <ele>498.374970</ele>
        <time>2021-11-14T15:17:58.266Z</time>
      </trkpt>
      <trkpt lat="47.594308" lon="8.060414">
        <ele>498.433239</ele>
        <time>2021-11-14T15:18:00.357Z</time>
      </trkpt>
      <trkpt lat="47.594320" lon="8.060215">
        <ele>498.528634</ele>
        <time>2021-11-14T15:18:03.959Z</time>
      </trkpt>
      <trkpt lat="47.594306" lon="8.059876">
        <ele>498.785051</ele>
        <time>2021-11-14T15:18:07.961Z</time>
      </trkpt>
      <trkpt lat="47.594073" lon="8.058877">
        <ele>499.583106</ele>
        <time>2021-11-14T15:18:24.356Z</time>
      </trkpt>
      <trkpt lat="47.593956" lon="8.058627">
        <ele>499.812848</ele>
        <time>2021-11-14T15:18:29.753Z</time>
      </trkpt>
      <trkpt lat="47.593826" lon="8.058485">
        <ele>499.993610</ele>
        <time>2021-11-14T15:18:34.015Z</time>
      </trkpt>
      <trkpt lat="47.593653" lon="8.058290">
        <ele>500.236889</ele>
        <time>2021-11-14T15:18:40.313Z</time>
      </trkpt>
      <trkpt lat="47.593357" lon="8.057851">
        <ele>500.774406</ele>
        <time>2021-11-14T15:18:53.581Z</time>
      </trkpt>
      <trkpt lat="47.593187" lon="8.057553">
        <ele>501.161996</ele>
        <time>2021-11-14T15:19:01.391Z</time>
      </trkpt>
      <trkpt lat="47.593094" lon="8.057193">
        <ele>501.544811</ele>
        <time>2021-11-14T15:19:08.741Z</time>
      </trkpt>
      <trkpt lat="47.593117" lon="8.056460">
        <ele>502.273478</ele>
        <time>2021-11-14T15:19:22.317Z</time>
      </trkpt>
      <trkpt lat="47.593221" lon="8.055917">
        <ele>502.834007</ele>
        <time>2021-11-14T15:19:31.291Z</time>
      </trkpt>
      <trkpt lat="47.593249" lon="8.055352">
        <ele>502.905505</ele>
        <time>2021-11-14T15:19:38.953Z</time>
      </trkpt>
      <trkpt lat="47.593216" lon="8.054503">
        <ele>502.160597</ele>
        <time>2021-11-14T15:19:49.204Z</time>
      </trkpt>
      <trkpt lat="47.593117" lon="8.053648">
        <ele>501.400709</ele>
        <time>2021-11-14T15:19:58.714Z</time>
      </trkpt>
      <trkpt lat="47.593128" lon="8.053189">
        <ele>500.998398</ele>
        <time>2021-11-14T15:20:03.450Z</time>
      </trkpt>
      <trkpt lat="47.593172" lon="8.053040">
        <ele>500.855918</ele>
        <time>2021-11-14T15:20:05.141Z</time>
      </trkpt>
      <trkpt lat="47.593780" lon="8.052150">
        <ele>499.446946</ele>
        <time>2021-11-14T15:20:18.068Z</time>
      </trkpt>
      <trkpt lat="47.594230" lon="8.051608">
        <ele>498.479961</ele>
        <time>2021-11-14T15:20:27.610Z</time>
      </trkpt>
      <trkpt lat="47.594330" lon="8.051467">
        <ele>498.249798</ele>
        <time>2021-11-14T15:20:29.888Z</time>
      </trkpt>
      <trkpt lat="47.594665" lon="8.050992">
        <ele>497.932197</ele>
        <time>2021-11-14T15:20:38.484Z</time>
      </trkpt>
      <trkpt lat="47.594830" lon="8.050657">
        <ele>498.124206</ele>
        <time>2021-11-14T15:20:44.332Z</time>
      </trkpt>
      <trkpt lat="47.595014" lon="8.050118">
        <ele>498.403827</ele>
        <time>2021-11-14T15:20:53.598Z</time>
      </trkpt>
      <trkpt lat="47.595281" lon="8.049984">
        <ele>498.597294</ele>
        <time>2021-11-14T15:21:00.452Z</time>
      </trkpt>
      <trkpt lat="47.595951" lon="8.050141">
        <ele>499.100424</ele>
        <time>2021-11-14T15:21:18.998Z</time>
      </trkpt>
      <trkpt lat="47.596257" lon="8.050069">
        <ele>499.589038</ele>
        <time>2021-11-14T15:21:26.471Z</time>
      </trkpt>
      <trkpt lat="47.597042" lon="8.049582">
        <ele>500.930989</ele>
        <time>2021-11-14T15:21:45.406Z</time>
      </trkpt>
      <trkpt lat="47.597293" lon="8.049268">
        <ele>501.448866</ele>
        <time>2021-11-14T15:21:53.502Z</time>
      </trkpt>
      <trkpt lat="47.597329" lon="8.049040">
        <ele>501.697893</ele>
        <time>2021-11-14T15:22:00.067Z</time>
      </trkpt>
      <trkpt lat="47.597280" lon="8.048861">
        <ele>502.018104</ele>
        <time>2021-11-14T15:22:02.405Z</time>
      </trkpt>
      <trkpt lat="47.597071" lon="8.048678">
        <ele>503.736539</ele>
        <time>2021-11-14T15:22:13.223Z</time>
      </trkpt>
      <trkpt lat="47.596556" lon="8.048354">
        <ele>507.697364</ele>
        <time>2021-11-14T15:22:34.990Z</time>
      </trkpt>
      <trkpt lat="47.596408" lon="8.048128">
        <ele>509.201459</ele>
        <time>2021-11-14T15:22:43.818Z</time>
      </trkpt>
      <trkpt lat="47.596341" lon="8.047998">
        <ele>509.982657</ele>
        <time>2021-11-14T15:22:51.254Z</time>
      </trkpt>
      <trkpt lat="47.596296" lon="8.047912">
        <ele>510.502373</ele>
        <time>2021-11-14T15:22:58.537Z</time>
      </trkpt>
      <trkpt lat="47.596177" lon="8.046442">
        <ele>518.708430</ele>
        <time>2021-11-14T15:23:56.900Z</time>
      </trkpt>
      <trkpt lat="47.596101" lon="8.046030">
        <ele>521.529636</ele>
        <time>2021-11-14T15:24:13.925Z</time>
      </trkpt>
      <trkpt lat="47.596052" lon="8.045947">
        <ele>522.258242</ele>
        <time>2021-11-14T15:24:21.178Z</time>
      </trkpt>
      <trkpt lat="47.595998" lon="8.045932">
        <ele>522.796344</ele>
        <time>2021-11-14T15:24:27.052Z</time>
      </trkpt>
      <trkpt lat="47.595755" lon="8.046073">
        <ele>525.352122</ele>
        <time>2021-11-14T15:24:42.047Z</time>
      </trkpt>
      <trkpt lat="47.595577" lon="8.046292">
        <ele>527.617480</ele>
        <time>2021-11-14T15:24:54.908Z</time>
      </trkpt>
      <trkpt lat="47.595182" lon="8.046596">
        <ele>531.976328</ele>
        <time>2021-11-14T15:25:18.364Z</time>
      </trkpt>
      <trkpt lat="47.595078" lon="8.046597">
        <ele>532.715106</ele>
        <time>2021-11-14T15:25:26.715Z</time>
      </trkpt>
      <trkpt lat="47.594877" lon="8.046451">
        <ele>534.113753</ele>
        <time>2021-11-14T15:25:35.359Z</time>
      </trkpt>
      <trkpt lat="47.594833" lon="8.046393">
        <ele>534.481642</ele>
        <time>2021-11-14T15:25:38.895Z</time>
      </trkpt>
      <trkpt lat="47.594659" lon="8.045915">
        <ele>536.770734</ele>
        <time>2021-11-14T15:25:56.218Z</time>
      </trkpt>
      <trkpt lat="47.594632" lon="8.045696">
        <ele>537.708931</ele>
        <time>2021-11-14T15:26:01.630Z</time>
      </trkpt>
      <trkpt lat="47.594714" lon="8.045470">
        <ele>538.790428</ele>
        <time>2021-11-14T15:26:08.724Z</time>
      </trkpt>
      <trkpt lat="47.595125" lon="8.044729">
        <ele>542.833630</ele>
        <time>2021-11-14T15:26:36.053Z</time>
      </trkpt>
      <trkpt lat="47.595145" lon="8.044264">
        <ele>544.583570</ele>
        <time>2021-11-14T15:26:50.342Z</time>
      </trkpt>
      <trkpt lat="47.595119" lon="8.043810">
        <ele>546.196581</ele>
        <time>2021-11-14T15:27:03.375Z</time>
      </trkpt>
      <trkpt lat="47.595066" lon="8.043389">
        <ele>547.712730</ele>
        <time>2021-11-14T15:27:15.320Z</time>
      </trkpt>
      <trkpt lat="47.595042" lon="8.042838">
        <ele>549.667417</ele>
        <time>2021-11-14T15:27:30.383Z</time>
      </trkpt>
      <trkpt lat="47.595061" lon="8.042566">
        <ele>550.635490</ele>
        <time>2021-11-14T15:27:38.235Z</time>
      </trkpt>
      <trkpt lat="47.594768" lon="8.041942">
        <ele>553.191857</ele>
        <time>2021-11-14T15:27:58.872Z</time>
      </trkpt>
      <trkpt lat="47.594253" lon="8.040904">
        <ele>556.295243</ele>
        <time>2021-11-14T15:28:30.827Z</time>
      </trkpt>
      <trkpt lat="47.593986" lon="8.040131">
        <ele>558.386793</ele>
        <time>2021-11-14T15:28:49.958Z</time>
      </trkpt>
      <trkpt lat="47.593758" lon="8.039114">
        <ele>559.525307</ele>
        <time>2021-11-14T15:29:10.849Z</time>
      </trkpt>
      <trkpt lat="47.593716" lon="8.038902">
        <ele>559.589679</ele>
        <time>2021-11-14T15:29:14.580Z</time>
      </trkpt>
      <trkpt lat="47.593653" lon="8.038574">
        <ele>559.689035</ele>
        <time>2021-11-14T15:29:20.219Z</time>
      </trkpt>
      <trkpt lat="47.593572" lon="8.038187">
        <ele>559.807085</ele>
        <time>2021-11-14T15:29:26.140Z</time>
      </trkpt>
      <trkpt lat="47.593440" lon="8.037805">
        <ele>559.932132</ele>
        <time>2021-11-14T15:29:31.601Z</time>
      </trkpt>
      <trkpt lat="47.593404" lon="8.037714">
        <ele>559.962868</ele>
        <time>2021-11-14T15:29:32.921Z</time>
      </trkpt>
      <trkpt lat="47.593282" lon="8.037406">
        <ele>560.066931</ele>
        <time>2021-11-14T15:29:36.960Z</time>
      </trkpt>
      <trkpt lat="47.593207" lon="8.037211">
        <ele>559.894085</ele>
        <time>2021-11-14T15:29:39.379Z</time>
      </trkpt>
      <trkpt lat="47.593192" lon="8.037147">
        <ele>559.748997</ele>
        <time>2021-11-14T15:29:40.121Z</time>
      </trkpt>
      <trkpt lat="47.593137" lon="8.036921">
        <ele>559.234501</ele>
        <time>2021-11-14T15:29:42.681Z</time>
      </trkpt>
      <trkpt lat="47.593134" lon="8.036910">
        <ele>559.209093</ele>
        <time>2021-11-14T15:29:42.785Z</time>
      </trkpt>
      <trkpt lat="47.593028" lon="8.036477">
        <ele>558.222679</ele>
        <time>2021-11-14T15:29:47.611Z</time>
      </trkpt>
      <trkpt lat="47.592676" lon="8.036726">
        <ele>556.984315</ele>
        <time>2021-11-14T15:29:51.522Z</time>
      </trkpt>
      <trkpt lat="47.592446" lon="8.036889">
        <ele>556.174877</ele>
        <time>2021-11-14T15:29:53.974Z</time>
      </trkpt>
      <trkpt lat="47.592197" lon="8.037045">
        <ele>555.316560</ele>
        <time>2021-11-14T15:29:56.619Z</time>
      </trkpt>
      <trkpt lat="47.591840" lon="8.037249">
        <ele>554.021483</ele>
        <time>2021-11-14T15:30:00.312Z</time>
      </trkpt>
      <trkpt lat="47.591489" lon="8.037361">
        <ele>552.566974</ele>
        <time>2021-11-14T15:30:03.853Z</time>
      </trkpt>
      <trkpt lat="47.591397" lon="8.037383">
        <ele>552.189451</ele>
        <time>2021-11-14T15:30:04.722Z</time>
      </trkpt>
      <trkpt lat="47.591150" lon="8.037443">
        <ele>551.175476</ele>
        <time>2021-11-14T15:30:07.160Z</time>
      </trkpt>
      <trkpt lat="47.591044" lon="8.037455">
        <ele>550.744804</ele>
        <time>2021-11-14T15:30:08.168Z</time>
      </trkpt>
      <trkpt lat="47.590476" lon="8.037474">
        <ele>548.443160</ele>
        <time>2021-11-14T15:30:13.786Z</time>
      </trkpt>
      <trkpt lat="47.590067" lon="8.037365">
        <ele>546.704472</ele>
        <time>2021-11-14T15:30:17.857Z</time>
      </trkpt>
      <trkpt lat="47.589869" lon="8.037227">
        <ele>545.676851</ele>
        <time>2021-11-14T15:30:20.002Z</time>
      </trkpt>
      <trkpt lat="47.589825" lon="8.037196">
        <ele>545.448040</ele>
        <time>2021-11-14T15:30:20.457Z</time>
      </trkpt>
      <trkpt lat="47.589772" lon="8.037159">
        <ele>545.172888</ele>
        <time>2021-11-14T15:30:20.997Z</time>
      </trkpt>
      <trkpt lat="47.589499" lon="8.036832">
        <ele>543.524479</ele>
        <time>2021-11-14T15:30:24.418Z</time>
      </trkpt>
      <trkpt lat="47.589239" lon="8.036386">
        <ele>541.656994</ele>
        <time>2021-11-14T15:30:28.249Z</time>
      </trkpt>
      <trkpt lat="47.588947" lon="8.035308">
        <ele>537.712819</ele>
        <time>2021-11-14T15:30:35.550Z</time>
      </trkpt>
      <trkpt lat="47.588642" lon="8.034658">
        <ele>534.231410</ele>
        <time>2021-11-14T15:30:40.456Z</time>
      </trkpt>
      <trkpt lat="47.588478" lon="8.034510">
        <ele>532.979861</ele>
        <time>2021-11-14T15:30:42.200Z</time>
      </trkpt>
      <trkpt lat="47.587928" lon="8.034180">
        <ele>529.112041</ele>
        <time>2021-11-14T15:30:47.536Z</time>
      </trkpt>
      <trkpt lat="47.586980" lon="8.033883">
        <ele>522.336005</ele>
        <time>2021-11-14T15:30:56.170Z</time>
      </trkpt>
      <trkpt lat="47.585583" lon="8.032905">
        <ele>511.609080</ele>
        <time>2021-11-14T15:31:10.011Z</time>
      </trkpt>
      <trkpt lat="47.585091" lon="8.032467">
        <ele>508.150173</ele>
        <time>2021-11-14T15:31:15.230Z</time>
      </trkpt>
      <trkpt lat="47.584568" lon="8.032176">
        <ele>504.783266</ele>
        <time>2021-11-14T15:31:20.365Z</time>
      </trkpt>
      <trkpt lat="47.584000" lon="8.032100">
        <ele>502.290375</ele>
        <time>2021-11-14T15:31:25.793Z</time>
      </trkpt>
      <trkpt lat="47.583770" lon="8.032077">
        <ele>501.664753</ele>
        <time>2021-11-14T15:31:28.017Z</time>
      </trkpt>
      <trkpt lat="47.583557" lon="8.032062">
        <ele>501.086034</ele>
        <time>2021-11-14T15:31:30.183Z</time>
      </trkpt>
      <trkpt lat="47.583316" lon="8.032065">
        <ele>500.431953</ele>
        <time>2021-11-14T15:31:32.720Z</time>
      </trkpt>
      <trkpt lat="47.583028" lon="8.032087">
        <ele>499.649304</ele>
        <time>2021-11-14T15:31:35.859Z</time>
      </trkpt>
      <trkpt lat="47.582877" lon="8.032131">
        <ele>499.231660</ele>
        <time>2021-11-14T15:31:37.656Z</time>
      </trkpt>
      <trkpt lat="47.582534" lon="8.032340">
        <ele>498.225223</ele>
        <time>2021-11-14T15:31:42.073Z</time>
      </trkpt>
      <trkpt lat="47.582379" lon="8.032452">
        <ele>498.166431</ele>
        <time>2021-11-14T15:31:44.178Z</time>
      </trkpt>
      <trkpt lat="47.582305" lon="8.032518">
        <ele>498.157517</ele>
        <time>2021-11-14T15:31:45.328Z</time>
      </trkpt>
      <trkpt lat="47.582257" lon="8.032344">
        <ele>498.144428</ele>
        <time>2021-11-14T15:31:48.093Z</time>
      </trkpt>
      <trkpt lat="47.582218" lon="8.032127">
        <ele>498.128792</ele>
        <time>2021-11-14T15:31:51.336Z</time>
      </trkpt>
      <trkpt lat="47.582194" lon="8.031979">
        <ele>498.118194</ele>
        <time>2021-11-14T15:31:53.504Z</time>
      </trkpt>
      <trkpt lat="47.582207" lon="8.031849">
        <ele>498.109043</ele>
        <time>2021-11-14T15:31:55.636Z</time>
      </trkpt>
      <trkpt lat="47.581991" lon="8.031722">
        <ele>498.085058</ele>
        <time>2021-11-14T15:32:00.529Z</time>
      </trkpt>
      <trkpt lat="47.581914" lon="8.031633">
        <ele>498.074980</ele>
        <time>2021-11-14T15:32:02.903Z</time>
      </trkpt>
      <trkpt lat="47.581703" lon="8.031357">
        <ele>498.045934</ele>
        <time>2021-11-14T15:32:08.900Z</time>
      </trkpt>
      <trkpt lat="47.581603" lon="8.031197">
        <ele>498.030746</ele>
        <time>2021-11-14T15:32:12.278Z</time>
      </trkpt>
      <trkpt lat="47.581523" lon="8.031026">
        <ele>498.016257</ele>
        <time>2021-11-14T15:32:14.877Z</time>
      </trkpt>
      <trkpt lat="47.581423" lon="8.030639">
        <ele>497.911248</ele>
        <time>2021-11-14T15:32:20.344Z</time>
      </trkpt>
      <trkpt lat="47.581354" lon="8.030430">
        <ele>497.765826</ele>
        <time>2021-11-14T15:32:23.053Z</time>
      </trkpt>
      <trkpt lat="47.581171" lon="8.030156">
        <ele>497.524848</ele>
        <time>2021-11-14T15:32:27.751Z</time>
      </trkpt>
      <trkpt lat="47.580985" lon="8.029962">
        <ele>497.314141</ele>
        <time>2021-11-14T15:32:31.776Z</time>
      </trkpt>
      <trkpt lat="47.580745" lon="8.029776">
        <ele>497.063229</ele>
        <time>2021-11-14T15:32:36.339Z</time>
      </trkpt>
      <trkpt lat="47.580567" lon="8.029638">
        <ele>496.877121</ele>
        <time>2021-11-14T15:32:39.904Z</time>
      </trkpt>
      <trkpt lat="47.580537" lon="8.029599">
        <ele>496.840153</ele>
        <time>2021-11-14T15:32:40.517Z</time>
      </trkpt>
      <trkpt lat="47.580507" lon="8.029540">
        <ele>496.793977</ele>
        <time>2021-11-14T15:32:41.377Z</time>
      </trkpt>
      <trkpt lat="47.580457" lon="8.029426">
        <ele>496.708994</ele>
        <time>2021-11-14T15:32:42.949Z</time>
      </trkpt>
      <trkpt lat="47.580445" lon="8.029350">
        <ele>496.660212</ele>
        <time>2021-11-14T15:32:43.958Z</time>
      </trkpt>
      <trkpt lat="47.580435" lon="8.029225">
        <ele>496.581542</ele>
        <time>2021-11-14T15:32:45.474Z</time>
      </trkpt>
      <trkpt lat="47.580414" lon="8.028952">
        <ele>496.409818</ele>
        <time>2021-11-14T15:32:48.471Z</time>
      </trkpt>
      <trkpt lat="47.580414" lon="8.028741">
        <ele>496.272808</ele>
        <time>2021-11-14T15:32:51.009Z</time>
      </trkpt>
      <trkpt lat="47.580504" lon="8.027848">
        <ele>495.653321</ele>
        <time>2021-11-14T15:33:00.972Z</time>
      </trkpt>
      <trkpt lat="47.580430" lon="8.027348">
        <ele>495.302112</ele>
        <time>2021-11-14T15:33:06.811Z</time>
      </trkpt>
      <trkpt lat="47.580406" lon="8.027217">
        <ele>495.208977</ele>
        <time>2021-11-14T15:33:08.556Z</time>
      </trkpt>
      <trkpt lat="47.580391" lon="8.026955">
        <ele>495.028573</ele>
        <time>2021-11-14T15:33:11.660Z</time>
      </trkpt>
      <trkpt lat="47.580386" lon="8.026802">
        <ele>494.923476</ele>
        <time>2021-11-14T15:33:13.522Z</time>
      </trkpt>
      <trkpt lat="47.580341" lon="8.025695">
        <ele>494.448699</ele>
        <time>2021-11-14T15:33:27.383Z</time>
      </trkpt>
      <trkpt lat="47.580173" lon="8.024170">
        <ele>494.284642</ele>
        <time>2021-11-14T15:33:46.609Z</time>
      </trkpt>
      <trkpt lat="47.580262" lon="8.023307">
        <ele>494.641605</ele>
        <time>2021-11-14T15:33:59.720Z</time>
      </trkpt>
      <trkpt lat="47.580380" lon="8.022562">
        <ele>495.963817</ele>
        <time>2021-11-14T15:34:13.137Z</time>
      </trkpt>
      <trkpt lat="47.580425" lon="8.022255">
        <ele>496.506626</ele>
        <time>2021-11-14T15:34:19.480Z</time>
      </trkpt>
      <trkpt lat="47.580470" lon="8.021934">
        <ele>497.073095</ele>
        <time>2021-11-14T15:34:25.839Z</time>
      </trkpt>
      <trkpt lat="47.580271" lon="8.020243">
        <ele>500.072223</ele>
        <time>2021-11-14T15:35:09.912Z</time>
      </trkpt>
      <trkpt lat="47.580296" lon="8.020195">
        <ele>500.179876</ele>
        <time>2021-11-14T15:35:11.644Z</time>
      </trkpt>
      <trkpt lat="47.580484" lon="8.019833">
        <ele>500.990888</ele>
        <time>2021-11-14T15:35:21.257Z</time>
      </trkpt>
      <trkpt lat="47.580955" lon="8.019317">
        <ele>502.532131</ele>
        <time>2021-11-14T15:35:37.466Z</time>
      </trkpt>
      <trkpt lat="47.580948" lon="8.019213">
        <ele>502.717666</ele>
        <time>2021-11-14T15:35:38.931Z</time>
      </trkpt>
      <trkpt lat="47.580916" lon="8.019035">
        <ele>503.044677</ele>
        <time>2021-11-14T15:35:41.725Z</time>
      </trkpt>
      <trkpt lat="47.580830" lon="8.018918">
        <ele>503.351856</ele>
        <time>2021-11-14T15:35:45.665Z</time>
      </trkpt>
      <trkpt lat="47.580782" lon="8.018916">
        <ele>503.478226</ele>
        <time>2021-11-14T15:35:46.670Z</time>
      </trkpt>
      <trkpt lat="47.580667" lon="8.018933">
        <ele>503.599269</ele>
        <time>2021-11-14T15:35:48.955Z</time>
      </trkpt>
      <trkpt lat="47.580628" lon="8.018939">
        <ele>503.618103</ele>
        <time>2021-11-14T15:35:49.675Z</time>
      </trkpt>
      <trkpt lat="47.580282" lon="8.019086">
        <ele>503.790993</ele>
        <time>2021-11-14T15:35:57.553Z</time>
      </trkpt>
      <trkpt lat="47.580093" lon="8.019071">
        <ele>503.881908</ele>
        <time>2021-11-14T15:36:02.800Z</time>
      </trkpt>
      <trkpt lat="47.579943" lon="8.018927">
        <ele>503.967749</ele>
        <time>2021-11-14T15:36:05.088Z</time>
      </trkpt>
      <trkpt lat="47.579890" lon="8.018812">
        <ele>504.012878</ele>
        <time>2021-11-14T15:36:07.292Z</time>
      </trkpt>
      <trkpt lat="47.579827" lon="8.017916">
        <ele>504.304775</ele>
        <time>2021-11-14T15:36:14.809Z</time>
      </trkpt>
      <trkpt lat="47.579800" lon="8.017631">
        <ele>504.398028</ele>
        <time>2021-11-14T15:36:17.937Z</time>
      </trkpt>
      <trkpt lat="47.579770" lon="8.017313">
        <ele>504.460208</ele>
        <time>2021-11-14T15:36:20.385Z</time>
      </trkpt>
      <trkpt lat="47.579807" lon="8.016479">
        <ele>504.588803</ele>
        <time>2021-11-14T15:36:30.786Z</time>
      </trkpt>
      <trkpt lat="47.579782" lon="8.016013">
        <ele>504.660727</ele>
        <time>2021-11-14T15:36:36.857Z</time>
      </trkpt>
      <trkpt lat="47.579693" lon="8.015395">
        <ele>504.757954</ele>
        <time>2021-11-14T15:36:44.098Z</time>
      </trkpt>
      <trkpt lat="47.579677" lon="8.015285">
        <ele>504.775268</ele>
        <time>2021-11-14T15:36:44.952Z</time>
      </trkpt>
      <trkpt lat="47.579476" lon="8.014445">
        <ele>504.659717</ele>
        <time>2021-11-14T15:36:53.247Z</time>
      </trkpt>
      <trkpt lat="47.579390" lon="8.014221">
        <ele>504.573802</ele>
        <time>2021-11-14T15:36:55.276Z</time>
      </trkpt>
      <trkpt lat="47.579303" lon="8.013994">
        <ele>504.486773</ele>
        <time>2021-11-14T15:36:57.939Z</time>
      </trkpt>
      <trkpt lat="47.579083" lon="8.012800">
        <ele>504.074180</ele>
        <time>2021-11-14T15:37:08.601Z</time>
      </trkpt>
      <trkpt lat="47.578994" lon="8.011565">
        <ele>503.643383</ele>
        <time>2021-11-14T15:37:20.016Z</time>
      </trkpt>
      <trkpt lat="47.578877" lon="8.010552">
        <ele>503.280529</ele>
        <time>2021-11-14T15:37:29.490Z</time>
      </trkpt>
      <trkpt lat="47.578802" lon="8.010247">
        <ele>503.165915</ele>
        <time>2021-11-14T15:37:32.198Z</time>
      </trkpt>
      <trkpt lat="47.578506" lon="8.009815">
        <ele>502.767867</ele>
        <time>2021-11-14T15:37:37.491Z</time>
      </trkpt>
      <trkpt lat="47.578339" lon="8.009582">
        <ele>502.245565</ele>
        <time>2021-11-14T15:37:40.723Z</time>
      </trkpt>
      <trkpt lat="47.578275" lon="8.009410">
        <ele>501.943779</ele>
        <time>2021-11-14T15:37:42.195Z</time>
      </trkpt>
      <trkpt lat="47.578269" lon="8.009376">
        <ele>501.889785</ele>
        <time>2021-11-14T15:37:43.286Z</time>
      </trkpt>
      <trkpt lat="47.578332" lon="8.009223">
        <ele>501.614393</ele>
        <time>2021-11-14T15:37:44.692Z</time>
      </trkpt>
      <trkpt lat="47.578864" lon="8.008842">
        <ele>500.268787</ele>
        <time>2021-11-14T15:37:51.258Z</time>
      </trkpt>
      <trkpt lat="47.579619" lon="8.008172">
        <ele>496.933716</ele>
        <time>2021-11-14T15:37:59.882Z</time>
      </trkpt>
      <trkpt lat="47.579923" lon="8.008040">
        <ele>494.714902</ele>
        <time>2021-11-14T15:38:02.794Z</time>
      </trkpt>
      <trkpt lat="47.580912" lon="8.007336">
        <ele>487.030290</ele>
        <time>2021-11-14T15:38:12.500Z</time>
      </trkpt>
      <trkpt lat="47.581140" lon="8.006991">
        <ele>484.420654</ele>
        <time>2021-11-14T15:38:15.321Z</time>
      </trkpt>
      <trkpt lat="47.581321" lon="8.006142">
        <ele>479.329759</ele>
        <time>2021-11-14T15:38:20.518Z</time>
      </trkpt>
      <trkpt lat="47.581764" lon="8.005054">
        <ele>472.063631</ele>
        <time>2021-11-14T15:38:28.099Z</time>
      </trkpt>
      <trkpt lat="47.582188" lon="8.004718">
        <ele>469.045030</ele>
        <time>2021-11-14T15:38:32.369Z</time>
      </trkpt>
      <trkpt lat="47.582510" lon="8.004377">
        <ele>466.843931</ele>
        <time>2021-11-14T15:38:35.898Z</time>
      </trkpt>
      <trkpt lat="47.582604" lon="8.004164">
        <ele>465.888921</ele>
        <time>2021-11-14T15:38:37.438Z</time>
      </trkpt>
      <trkpt lat="47.582727" lon="8.003464">
        <ele>463.174917</ele>
        <time>2021-11-14T15:38:41.992Z</time>
      </trkpt>
      <trkpt lat="47.582781" lon="8.003305">
        <ele>462.507011</ele>
        <time>2021-11-14T15:38:43.036Z</time>
      </trkpt>
      <trkpt lat="47.582789" lon="8.003167">
        <ele>461.987336</ele>
        <time>2021-11-14T15:38:44.083Z</time>
      </trkpt>
      <trkpt lat="47.582779" lon="8.003036">
        <ele>461.492697</ele>
        <time>2021-11-14T15:38:46.388Z</time>
      </trkpt>
      <trkpt lat="47.582735" lon="8.002783">
        <ele>461.348049</ele>
        <time>2021-11-14T15:38:48.103Z</time>
      </trkpt>
      <trkpt lat="47.582722" lon="8.002476">
        <ele>461.964144</ele>
        <time>2021-11-14T15:38:53.326Z</time>
      </trkpt>
      <trkpt lat="47.582770" lon="8.002301">
        <ele>462.342519</ele>
        <time>2021-11-14T15:38:54.657Z</time>
      </trkpt>
      <trkpt lat="47.583138" lon="8.001749">
        <ele>463.896976</ele>
        <time>2021-11-14T15:39:06.944Z</time>
      </trkpt>
      <trkpt lat="47.583129" lon="8.001600">
        <ele>464.196597</ele>
        <time>2021-11-14T15:39:11.316Z</time>
      </trkpt>
      <trkpt lat="47.583038" lon="8.001422">
        <ele>464.643936</ele>
        <time>2021-11-14T15:39:12.975Z</time>
      </trkpt>
      <trkpt lat="47.582884" lon="8.001201">
        <ele>465.280353</ele>
        <time>2021-11-14T15:39:23.354Z</time>
      </trkpt>
      <trkpt lat="47.582718" lon="8.001131">
        <ele>465.792812</ele>
        <time>2021-11-14T15:39:28.429Z</time>
      </trkpt>
      <trkpt lat="47.582003" lon="8.001392">
        <ele>470.486652</ele>
        <time>2021-11-14T15:40:06.254Z</time>
      </trkpt>
      <trkpt lat="47.581843" lon="8.001622">
        <ele>472.197713</ele>
        <time>2021-11-14T15:40:18.653Z</time>
      </trkpt>
      <trkpt lat="47.581587" lon="8.002199">
        <ele>475.774312</ele>
        <time>2021-11-14T15:40:44.219Z</time>
      </trkpt>
      <trkpt lat="47.581538" lon="8.002492">
        <ele>477.337638</ele>
        <time>2021-11-14T15:40:52.382Z</time>
      </trkpt>
      <trkpt lat="47.581433" lon="8.002768">
        <ele>478.978644</ele>
        <time>2021-11-14T15:41:01.441Z</time>
      </trkpt>
      <trkpt lat="47.580693" lon="8.003731">
        <ele>481.258404</ele>
        <time>2021-11-14T15:41:28.603Z</time>
      </trkpt>
      <trkpt lat="47.580305" lon="8.004384">
        <ele>482.006738</ele>
        <time>2021-11-14T15:41:36.563Z</time>
      </trkpt>
      <trkpt lat="47.579909" lon="8.004868">
        <ele>482.545559</ele>
        <time>2021-11-14T15:41:42.255Z</time>
      </trkpt>
      <trkpt lat="47.579228" lon="8.005324">
        <ele>482.814727</ele>
        <time>2021-11-14T15:41:51.077Z</time>
      </trkpt>
      <trkpt lat="47.578736" lon="8.005500">
        <ele>482.997038</ele>
        <time>2021-11-14T15:41:59.741Z</time>
      </trkpt>
      <trkpt lat="47.578325" lon="8.005530">
        <ele>483.145265</ele>
        <time>2021-11-14T15:42:09.861Z</time>
      </trkpt>
      <trkpt lat="47.578086" lon="8.005441">
        <ele>484.308753</ele>
        <time>2021-11-14T15:42:17.027Z</time>
      </trkpt>
      <trkpt lat="47.577792" lon="8.005044">
        <ele>486.241064</ele>
        <time>2021-11-14T15:42:30.429Z</time>
      </trkpt>
      <trkpt lat="47.577375" lon="8.004938">
        <ele>488.296763</ele>
        <time>2021-11-14T15:42:46.530Z</time>
      </trkpt>
      <trkpt lat="47.576902" lon="8.005070">
        <ele>490.635355</ele>
        <time>2021-11-14T15:43:05.285Z</time>
      </trkpt>
      <trkpt lat="47.575892" lon="8.005591">
        <ele>494.366933</ele>
        <time>2021-11-14T15:43:42.690Z</time>
      </trkpt>
      <trkpt lat="47.575756" lon="8.005585">
        <ele>494.782560</ele>
        <time>2021-11-14T15:43:46.741Z</time>
      </trkpt>
      <trkpt lat="47.575531" lon="8.005431">
        <ele>495.539605</ele>
        <time>2021-11-14T15:43:53.345Z</time>
      </trkpt>
      <trkpt lat="47.575508" lon="8.005404">
        <ele>495.629227</ele>
        <time>2021-11-14T15:43:54.165Z</time>
      </trkpt>
      <trkpt lat="47.575411" lon="8.005256">
        <ele>496.054457</ele>
        <time>2021-11-14T15:43:57.214Z</time>
      </trkpt>
      <trkpt lat="47.575168" lon="8.004892">
        <ele>497.109774</ele>
        <time>2021-11-14T15:44:02.889Z</time>
      </trkpt>
      <trkpt lat="47.574764" lon="8.003762">
        <ele>496.267964</ele>
        <time>2021-11-14T15:44:13.639Z</time>
      </trkpt>
      <trkpt lat="47.574686" lon="8.003684">
        <ele>496.132545</ele>
        <time>2021-11-14T15:44:14.611Z</time>
      </trkpt>
      <trkpt lat="47.574392" lon="8.003728">
        <ele>495.707254</ele>
        <time>2021-11-14T15:44:18.017Z</time>
      </trkpt>
      <trkpt lat="47.574305" lon="8.003732">
        <ele>495.581979</ele>
        <time>2021-11-14T15:44:18.866Z</time>
      </trkpt>
      <trkpt lat="47.574217" lon="8.003704">
        <ele>495.452439</ele>
        <time>2021-11-14T15:44:19.813Z</time>
      </trkpt>
      <trkpt lat="47.573800" lon="8.003256">
        <ele>494.745873</ele>
        <time>2021-11-14T15:44:25.514Z</time>
      </trkpt>
      <trkpt lat="47.573718" lon="8.003157">
        <ele>494.658236</ele>
        <time>2021-11-14T15:44:26.549Z</time>
      </trkpt>
      <trkpt lat="47.573679" lon="8.003065">
        <ele>494.597494</ele>
        <time>2021-11-14T15:44:27.291Z</time>
      </trkpt>
      <trkpt lat="47.573643" lon="8.002920">
        <ele>494.511118</ele>
        <time>2021-11-14T15:44:28.482Z</time>
      </trkpt>
      <trkpt lat="47.573502" lon="8.002634">
        <ele>494.313091</ele>
        <time>2021-11-14T15:44:30.969Z</time>
      </trkpt>
      <trkpt lat="47.573400" lon="8.002344">
        <ele>494.130258</ele>
        <time>2021-11-14T15:44:33.539Z</time>
      </trkpt>
      <trkpt lat="47.573126" lon="8.002031">
        <ele>493.843605</ele>
        <time>2021-11-14T15:44:38.091Z</time>
      </trkpt>
      <trkpt lat="47.573026" lon="8.001932">
        <ele>493.743957</ele>
        <time>2021-11-14T15:44:39.537Z</time>
      </trkpt>
      <trkpt lat="47.572938" lon="8.001919">
        <ele>493.670675</ele>
        <time>2021-11-14T15:44:41.376Z</time>
      </trkpt>
      <trkpt lat="47.572940" lon="8.001742">
        <ele>493.571710</ele>
        <time>2021-11-14T15:44:43.801Z</time>
      </trkpt>
      <trkpt lat="47.572943" lon="8.001367">
        <ele>493.362052</ele>
        <time>2021-11-14T15:44:47.708Z</time>
      </trkpt>
      <trkpt lat="47.572935" lon="8.001208">
        <ele>493.368946</ele>
        <time>2021-11-14T15:44:50.044Z</time>
      </trkpt>
      <trkpt lat="47.572887" lon="8.000996">
        <ele>493.650105</ele>
        <time>2021-11-14T15:44:52.474Z</time>
      </trkpt>
      <trkpt lat="47.572824" lon="8.000753">
        <ele>493.977413</ele>
        <time>2021-11-14T15:44:56.614Z</time>
      </trkpt>
      <trkpt lat="47.572747" lon="8.000534">
        <ele>494.287912</ele>
        <time>2021-11-14T15:44:59.271Z</time>
      </trkpt>
      <trkpt lat="47.572662" lon="8.000300">
        <ele>494.622057</ele>
        <time>2021-11-14T15:45:03.762Z</time>
      </trkpt>
      <trkpt lat="47.572611" lon="8.000059">
        <ele>494.939626</ele>
        <time>2021-11-14T15:45:07.141Z</time>
      </trkpt>
      <trkpt lat="47.572543" lon="7.999708">
        <ele>495.398777</ele>
        <time>2021-11-14T15:45:13.456Z</time>
      </trkpt>
      <trkpt lat="47.572560" lon="7.999471">
        <ele>495.698440</ele>
        <time>2021-11-14T15:45:16.606Z</time>
      </trkpt>
      <trkpt lat="47.572588" lon="7.999397">
        <ele>495.805115</ele>
        <time>2021-11-14T15:45:18.057Z</time>
      </trkpt>
      <trkpt lat="47.572623" lon="7.999326">
        <ele>495.915675</ele>
        <time>2021-11-14T15:45:19.958Z</time>
      </trkpt>
      <trkpt lat="47.572684" lon="7.999259">
        <ele>496.057166</ele>
        <time>2021-11-14T15:45:22.086Z</time>
      </trkpt>
      <trkpt lat="47.572737" lon="7.999234">
        <ele>496.160820</ele>
        <time>2021-11-14T15:45:23.480Z</time>
      </trkpt>
      <trkpt lat="47.572701" lon="7.999118">
        <ele>496.321359</ele>
        <time>2021-11-14T15:45:25.005Z</time>
      </trkpt>
      <trkpt lat="47.572664" lon="7.998959">
        <ele>496.532829</ele>
        <time>2021-11-14T15:45:28.163Z</time>
      </trkpt>
      <trkpt lat="47.572708" lon="7.998779">
        <ele>496.781749</ele>
        <time>2021-11-14T15:45:32.023Z</time>
      </trkpt>
      <trkpt lat="47.572763" lon="7.998535">
        <ele>497.127500</ele>
        <time>2021-11-14T15:45:35.697Z</time>
      </trkpt>
      <trkpt lat="47.572796" lon="7.998352">
        <ele>497.382082</ele>
        <time>2021-11-14T15:45:39.539Z</time>
      </trkpt>
      <trkpt lat="47.572807" lon="7.998270">
        <ele>497.494446</ele>
        <time>2021-11-14T15:45:41.237Z</time>
      </trkpt>
      <trkpt lat="47.572559" lon="7.996184">
        <ele>500.269663</ele>
        <time>2021-11-14T15:46:12.907Z</time>
      </trkpt>
      <trkpt lat="47.572468" lon="7.995163">
        <ele>500.698328</ele>
        <time>2021-11-14T15:46:25.793Z</time>
      </trkpt>
      <trkpt lat="47.572460" lon="7.995058">
        <ele>500.742311</ele>
        <time>2021-11-14T15:46:27.044Z</time>
      </trkpt>
      <trkpt lat="47.572368" lon="7.994372">
        <ele>501.033433</ele>
        <time>2021-11-14T15:46:34.795Z</time>
      </trkpt>
      <trkpt lat="47.572249" lon="7.994022">
        <ele>501.196569</ele>
        <time>2021-11-14T15:46:38.949Z</time>
      </trkpt>
      <trkpt lat="47.572207" lon="7.993915">
        <ele>501.248096</ele>
        <time>2021-11-14T15:46:40.173Z</time>
      </trkpt>
      <trkpt lat="47.572062" lon="7.993506">
        <ele>501.290724</ele>
        <time>2021-11-14T15:46:44.727Z</time>
      </trkpt>
      <trkpt lat="47.571990" lon="7.993258">
        <ele>501.222531</ele>
        <time>2021-11-14T15:46:47.162Z</time>
      </trkpt>
      <trkpt lat="47.571883" lon="7.992565">
        <ele>501.042968</ele>
        <time>2021-11-14T15:46:53.516Z</time>
      </trkpt>
      <trkpt lat="47.571712" lon="7.990384">
        <ele>500.922092</ele>
        <time>2021-11-14T15:47:13.128Z</time>
      </trkpt>
      <trkpt lat="47.571710" lon="7.989958">
        <ele>501.066074</ele>
        <time>2021-11-14T15:47:17.837Z</time>
      </trkpt>
      <trkpt lat="47.571711" lon="7.989669">
        <ele>501.163750</ele>
        <time>2021-11-14T15:47:21.437Z</time>
      </trkpt>
      <trkpt lat="47.571580" lon="7.989167">
        <ele>501.345663</ele>
        <time>2021-11-14T15:47:28.230Z</time>
      </trkpt>
      <trkpt lat="47.571208" lon="7.988246">
        <ele>501.273957</ele>
        <time>2021-11-14T15:47:42.630Z</time>
      </trkpt>
      <trkpt lat="47.571180" lon="7.987989">
        <ele>501.075672</ele>
        <time>2021-11-14T15:47:46.329Z</time>
      </trkpt>
      <trkpt lat="47.571168" lon="7.987874">
        <ele>500.987039</ele>
        <time>2021-11-14T15:47:48.360Z</time>
      </trkpt>
      <trkpt lat="47.571268" lon="7.987105">
        <ele>500.390535</ele>
        <time>2021-11-14T15:47:55.507Z</time>
      </trkpt>
      <trkpt lat="47.571515" lon="7.986697">
        <ele>499.973009</ele>
        <time>2021-11-14T15:47:59.521Z</time>
      </trkpt>
      <trkpt lat="47.571904" lon="7.986414">
        <ele>499.094097</ele>
        <time>2021-11-14T15:48:03.859Z</time>
      </trkpt>
      <trkpt lat="47.572042" lon="7.986160">
        <ele>497.246889</ele>
        <time>2021-11-14T15:48:05.995Z</time>
      </trkpt>
      <trkpt lat="47.571967" lon="7.986077">
        <ele>496.461078</ele>
        <time>2021-11-14T15:48:06.836Z</time>
      </trkpt>
      <trkpt lat="47.571694" lon="7.985779">
        <ele>493.614625</ele>
        <time>2021-11-14T15:48:09.899Z</time>
      </trkpt>
      <trkpt lat="47.571104" lon="7.985841">
        <ele>488.648817</ele>
        <time>2021-11-14T15:48:15.128Z</time>
      </trkpt>
      <trkpt lat="47.570598" lon="7.985658">
        <ele>484.180214</ele>
        <time>2021-11-14T15:48:19.509Z</time>
      </trkpt>
      <trkpt lat="47.570188" lon="7.985852">
        <ele>478.502484</ele>
        <time>2021-11-14T15:48:23.095Z</time>
      </trkpt>
      <trkpt lat="47.569899" lon="7.986324">
        <ele>472.829332</ele>
        <time>2021-11-14T15:48:26.699Z</time>
      </trkpt>
      <trkpt lat="47.569720" lon="7.986239">
        <ele>470.349695</ele>
        <time>2021-11-14T15:48:28.275Z</time>
      </trkpt>
      <trkpt lat="47.569544" lon="7.985948">
        <ele>466.871263</ele>
        <time>2021-11-14T15:48:30.489Z</time>
      </trkpt>
      <trkpt lat="47.569441" lon="7.985823">
        <ele>465.115080</ele>
        <time>2021-11-14T15:48:31.593Z</time>
      </trkpt>
      <trkpt lat="47.569224" lon="7.985557">
        <ele>461.400165</ele>
        <time>2021-11-14T15:48:33.967Z</time>
      </trkpt>
      <trkpt lat="47.568880" lon="7.985270">
        <ele>457.115751</ele>
        <time>2021-11-14T15:48:37.279Z</time>
      </trkpt>
      <trkpt lat="47.567629" lon="7.984321">
        <ele>442.360489</ele>
        <time>2021-11-14T15:48:49.337Z</time>
      </trkpt>
      <trkpt lat="47.567590" lon="7.984165">
        <ele>441.419313</ele>
        <time>2021-11-14T15:48:50.348Z</time>
      </trkpt>
      <trkpt lat="47.567683" lon="7.983121">
        <ele>436.687487</ele>
        <time>2021-11-14T15:48:56.790Z</time>
      </trkpt>
      <trkpt lat="47.567696" lon="7.982527">
        <ele>434.017002</ele>
        <time>2021-11-14T15:49:00.442Z</time>
      </trkpt>
      <trkpt lat="47.567624" lon="7.981800">
        <ele>430.715293</ele>
        <time>2021-11-14T15:49:05.008Z</time>
      </trkpt>
      <trkpt lat="47.567665" lon="7.981438">
        <ele>429.173569</ele>
        <time>2021-11-14T15:49:07.293Z</time>
      </trkpt>
      <trkpt lat="47.567933" lon="7.980942">
        <ele>426.708963</ele>
        <time>2021-11-14T15:49:11.252Z</time>
      </trkpt>
      <trkpt lat="47.567985" lon="7.980685">
        <ele>425.668318</ele>
        <time>2021-11-14T15:49:12.922Z</time>
      </trkpt>
      <trkpt lat="47.568061" lon="7.979013">
        <ele>419.139433</ele>
        <time>2021-11-14T15:49:23.342Z</time>
      </trkpt>
      <trkpt lat="47.568118" lon="7.978684">
        <ele>417.710177</ele>
        <time>2021-11-14T15:49:25.485Z</time>
      </trkpt>
      <trkpt lat="47.568567" lon="7.977498">
        <ele>411.987917</ele>
        <time>2021-11-14T15:49:34.196Z</time>
      </trkpt>
      <trkpt lat="47.568631" lon="7.977178">
        <ele>410.583544</ele>
        <time>2021-11-14T15:49:36.198Z</time>
      </trkpt>
      <trkpt lat="47.568704" lon="7.977054">
        <ele>409.891098</ele>
        <time>2021-11-14T15:49:37.380Z</time>
      </trkpt>
      <trkpt lat="47.568987" lon="7.976683">
        <ele>406.851192</ele>
        <time>2021-11-14T15:49:40.687Z</time>
      </trkpt>
      <trkpt lat="47.569048" lon="7.976403">
        <ele>404.501487</ele>
        <time>2021-11-14T15:49:42.356Z</time>
      </trkpt>
      <trkpt lat="47.568939" lon="7.976270">
        <ele>402.830401</ele>
        <time>2021-11-14T15:49:43.565Z</time>
      </trkpt>
      <trkpt lat="47.568748" lon="7.976336">
        <ele>400.509081</ele>
        <time>2021-11-14T15:49:45.223Z</time>
      </trkpt>
      <trkpt lat="47.568519" lon="7.976515">
        <ele>397.444771</ele>
        <time>2021-11-14T15:49:47.423Z</time>
      </trkpt>
      <trkpt lat="47.568316" lon="7.976569">
        <ele>395.003655</ele>
        <time>2021-11-14T15:49:49.144Z</time>
      </trkpt>
      <trkpt lat="47.568107" lon="7.976469">
        <ele>392.404204</ele>
        <time>2021-11-14T15:49:51.029Z</time>
      </trkpt>
      <trkpt lat="47.567987" lon="7.976370">
        <ele>390.778658</ele>
        <time>2021-11-14T15:49:52.167Z</time>
      </trkpt>
      <trkpt lat="47.567801" lon="7.976285">
        <ele>388.474871</ele>
        <time>2021-11-14T15:49:53.831Z</time>
      </trkpt>
      <trkpt lat="47.567627" lon="7.976382">
        <ele>386.169305</ele>
        <time>2021-11-14T15:49:55.365Z</time>
      </trkpt>
      <trkpt lat="47.567340" lon="7.976629">
        <ele>381.677227</ele>
        <time>2021-11-14T15:49:58.122Z</time>
      </trkpt>
      <trkpt lat="47.567134" lon="7.976669">
        <ele>378.865125</ele>
        <time>2021-11-14T15:49:59.902Z</time>
      </trkpt>
      <trkpt lat="47.566939" lon="7.976573">
        <ele>376.083934</ele>
        <time>2021-11-14T15:50:01.595Z</time>
      </trkpt>
      <trkpt lat="47.566852" lon="7.976458">
        <ele>374.506051</ele>
        <time>2021-11-14T15:50:02.569Z</time>
      </trkpt>
      <trkpt lat="47.566673" lon="7.975768">
        <ele>367.754780</ele>
        <time>2021-11-14T15:50:06.715Z</time>
      </trkpt>
      <trkpt lat="47.566542" lon="7.975527">
        <ele>364.928420</ele>
        <time>2021-11-14T15:50:08.468Z</time>
      </trkpt>
      <trkpt lat="47.566200" lon="7.975405">
        <ele>360.784964</ele>
        <time>2021-11-14T15:50:11.486Z</time>
      </trkpt>
      <trkpt lat="47.565964" lon="7.975378">
        <ele>358.374443</ele>
        <time>2021-11-14T15:50:13.561Z</time>
      </trkpt>
      <trkpt lat="47.565867" lon="7.975381">
        <ele>357.386401</ele>
        <time>2021-11-14T15:50:14.368Z</time>
      </trkpt>
      <trkpt lat="47.565200" lon="7.975372">
        <ele>350.593541</ele>
        <time>2021-11-14T15:50:20.126Z</time>
      </trkpt>
      <trkpt lat="47.564852" lon="7.975095">
        <ele>346.570780</ele>
        <time>2021-11-14T15:50:23.519Z</time>
      </trkpt>
      <trkpt lat="47.563511" lon="7.973794">
        <ele>331.758408</ele>
        <time>2021-11-14T15:50:37.499Z</time>
      </trkpt>
      <trkpt lat="47.563140" lon="7.973536">
        <ele>328.032001</ele>
        <time>2021-11-14T15:50:41.047Z</time>
      </trkpt>
      <trkpt lat="47.563057" lon="7.973484">
        <ele>327.347036</ele>
        <time>2021-11-14T15:50:41.824Z</time>
      </trkpt>
      <trkpt lat="47.562835" lon="7.973351">
        <ele>325.545981</ele>
        <time>2021-11-14T15:50:43.891Z</time>
      </trkpt>
      <trkpt lat="47.562741" lon="7.973288">
        <ele>324.770018</ele>
        <time>2021-11-14T15:50:44.798Z</time>
      </trkpt>
      <trkpt lat="47.562624" lon="7.973211">
        <ele>323.807129</ele>
        <time>2021-11-14T15:50:45.929Z</time>
      </trkpt>
      <trkpt lat="47.562482" lon="7.973084">
        <ele>322.559645</ele>
        <time>2021-11-14T15:50:47.374Z</time>
      </trkpt>
      <trkpt lat="47.562391" lon="7.972987">
        <ele>321.716523</ele>
        <time>2021-11-14T15:50:48.371Z</time>
      </trkpt>
      <trkpt lat="47.562270" lon="7.972880">
        <ele>320.656707</ele>
        <time>2021-11-14T15:50:49.634Z</time>
      </trkpt>
      <trkpt lat="47.562247" lon="7.972843">
        <ele>320.401379</ele>
        <time>2021-11-14T15:50:49.916Z</time>
      </trkpt>
      <trkpt lat="47.562063" lon="7.972426">
        <ele>317.872600</ele>
        <time>2021-11-14T15:50:52.963Z</time>
      </trkpt>
      <trkpt lat="47.561984" lon="7.972078">
        <ele>316.009074</ele>
        <time>2021-11-14T15:50:55.223Z</time>
      </trkpt>
      <trkpt lat="47.561959" lon="7.971806">
        <ele>314.615803</ele>
        <time>2021-11-14T15:50:56.923Z</time>
      </trkpt>
      <trkpt lat="47.562067" lon="7.971347">
        <ele>313.443038</ele>
        <time>2021-11-14T15:50:59.965Z</time>
      </trkpt>
      <trkpt lat="47.562072" lon="7.971324">
        <ele>313.389021</ele>
        <time>2021-11-14T15:51:00.157Z</time>
      </trkpt>
      <trkpt lat="47.562138" lon="7.970750">
        <ele>312.087385</ele>
        <time>2021-11-14T15:51:04.032Z</time>
      </trkpt>
      <trkpt lat="47.562194" lon="7.969656">
        <ele>309.634794</ele>
        <time>2021-11-14T15:51:12.161Z</time>
      </trkpt>
      <trkpt lat="47.562217" lon="7.969134">
        <ele>308.473640</ele>
        <time>2021-11-14T15:51:15.937Z</time>
      </trkpt>
      <trkpt lat="47.562268" lon="7.967751">
        <ele>306.048102</ele>
        <time>2021-11-14T15:51:25.804Z</time>
      </trkpt>
      <trkpt lat="47.562217" lon="7.967329">
        <ele>305.297333</ele>
        <time>2021-11-14T15:51:28.782Z</time>
      </trkpt>
      <trkpt lat="47.562192" lon="7.967082">
        <ele>304.859945</ele>
        <time>2021-11-14T15:51:30.522Z</time>
      </trkpt>
      <trkpt lat="47.562182" lon="7.966990">
        <ele>304.696756</ele>
        <time>2021-11-14T15:51:31.174Z</time>
      </trkpt>
      <trkpt lat="47.562160" lon="7.966702">
        <ele>304.189185</ele>
        <time>2021-11-14T15:51:33.199Z</time>
      </trkpt>
      <trkpt lat="47.562161" lon="7.966416">
        <ele>303.712539</ele>
        <time>2021-11-14T15:51:35.253Z</time>
      </trkpt>
      <trkpt lat="47.562381" lon="7.965627">
        <ele>302.463329</ele>
        <time>2021-11-14T15:51:41.273Z</time>
      </trkpt>
      <trkpt lat="47.562413" lon="7.965497">
        <ele>302.260842</ele>
        <time>2021-11-14T15:51:42.318Z</time>
      </trkpt>
      <trkpt lat="47.562480" lon="7.965196">
        <ele>301.797053</ele>
        <time>2021-11-14T15:51:44.421Z</time>
      </trkpt>
      <trkpt lat="47.562503" lon="7.964356">
        <ele>300.566893</ele>
        <time>2021-11-14T15:51:50.833Z</time>
      </trkpt>
      <trkpt lat="47.562391" lon="7.963720">
        <ele>299.880900</ele>
        <time>2021-11-14T15:51:56.125Z</time>
      </trkpt>
      <trkpt lat="47.562227" lon="7.963303">
        <ele>299.764717</ele>
        <time>2021-11-14T15:52:00.250Z</time>
      </trkpt>
      <trkpt lat="47.562147" lon="7.963102">
        <ele>299.708544</ele>
        <time>2021-11-14T15:52:01.945Z</time>
      </trkpt>
      <trkpt lat="47.562133" lon="7.963068">
        <ele>299.698956</ele>
        <time>2021-11-14T15:52:02.481Z</time>
      </trkpt>
      <trkpt lat="47.562352" lon="7.962222">
        <ele>299.480840</ele>
        <time>2021-11-14T15:52:11.069Z</time>
      </trkpt>
      <trkpt lat="47.562367" lon="7.961982">
        <ele>299.422821</ele>
        <time>2021-11-14T15:52:13.681Z</time>
      </trkpt>
      <trkpt lat="47.562360" lon="7.961782">
        <ele>299.374613</ele>
        <time>2021-11-14T15:52:16.064Z</time>
      </trkpt>
      <trkpt lat="47.562068" lon="7.959202">
        <ele>299.974582</ele>
        <time>2021-11-14T15:52:47.205Z</time>
      </trkpt>
      <trkpt lat="47.562021" lon="7.958985">
        <ele>300.042671</ele>
        <time>2021-11-14T15:52:49.870Z</time>
      </trkpt>
      <trkpt lat="47.561781" lon="7.958606">
        <ele>299.982479</ele>
        <time>2021-11-14T15:52:54.487Z</time>
      </trkpt>
      <trkpt lat="47.561771" lon="7.958573">
        <ele>299.971729</ele>
        <time>2021-11-14T15:52:54.798Z</time>
      </trkpt>
      <trkpt lat="47.561648" lon="7.958495">
        <ele>299.912810</ele>
        <time>2021-11-14T15:52:56.305Z</time>
      </trkpt>
      <trkpt lat="47.561096" lon="7.957806">
        <ele>299.594979</ele>
        <time>2021-11-14T15:53:05.851Z</time>
      </trkpt>
      <trkpt lat="47.560776" lon="7.957505">
        <ele>299.428064</ele>
        <time>2021-11-14T15:53:10.844Z</time>
      </trkpt>
      <trkpt lat="47.560694" lon="7.957342">
        <ele>299.367645</ele>
        <time>2021-11-14T15:53:12.849Z</time>
      </trkpt>
      <trkpt lat="47.560645" lon="7.957182">
        <ele>299.315430</ele>
        <time>2021-11-14T15:53:14.256Z</time>
      </trkpt>
      <trkpt lat="47.560626" lon="7.957141">
        <ele>299.300649</ele>
        <time>2021-11-14T15:53:14.655Z</time>
      </trkpt>
      <trkpt lat="47.560517" lon="7.956748">
        <ele>299.179755</ele>
        <time>2021-11-14T15:53:18.786Z</time>
      </trkpt>
      <trkpt lat="47.560185" lon="7.955562">
        <ele>298.814795</ele>
        <time>2021-11-14T15:53:30.405Z</time>
      </trkpt>
      <trkpt lat="47.559948" lon="7.955045">
        <ele>298.637144</ele>
        <time>2021-11-14T15:53:36.076Z</time>
      </trkpt>
      <trkpt lat="47.559436" lon="7.954411">
        <ele>298.478351</ele>
        <time>2021-11-14T15:53:45.243Z</time>
      </trkpt>
      <trkpt lat="47.559288" lon="7.954223">
        <ele>298.450758</ele>
        <time>2021-11-14T15:53:47.753Z</time>
      </trkpt>
      <trkpt lat="47.559288" lon="7.954223">
        <ele>298.450758</ele>
        <time>2021-11-14T15:53:47.760Z</time>
      </trkpt>
      <trkpt lat="47.559288" lon="7.954223">
        <ele>298.450758</ele>
        <time>2021-11-14T15:53:47.856Z</time>
      </trkpt>
      <trkpt lat="47.559182" lon="7.953978">
        <ele>298.422958</ele>
        <time>2021-11-14T15:53:50.642Z</time>
      </trkpt>
      <trkpt lat="47.559088" lon="7.953512">
        <ele>298.376498</ele>
        <time>2021-11-14T15:53:55.124Z</time>
      </trkpt>
      <trkpt lat="47.559027" lon="7.952824">
        <ele>298.310212</ele>
        <time>2021-11-14T15:54:01.555Z</time>
      </trkpt>
      <trkpt lat="47.558955" lon="7.951638">
        <ele>299.033104</ele>
        <time>2021-11-14T15:54:15.966Z</time>
      </trkpt>
      <trkpt lat="47.558918" lon="7.950913">
        <ele>299.615343</ele>
        <time>2021-11-14T15:54:25.887Z</time>
      </trkpt>
      <trkpt lat="47.558831" lon="7.949603">
        <ele>300.749030</ele>
        <time>2021-11-14T15:54:44.586Z</time>
      </trkpt>
      <trkpt lat="47.558796" lon="7.948885">
        <ele>301.509390</ele>
        <time>2021-11-14T15:54:55.642Z</time>
      </trkpt>
      <trkpt lat="47.558788" lon="7.948689">
        <ele>301.716793</ele>
        <time>2021-11-14T15:54:59.224Z</time>
      </trkpt>
      <trkpt lat="47.558776" lon="7.948054">
        <ele>302.387773</ele>
        <time>2021-11-14T15:55:09.740Z</time>
      </trkpt>
      <trkpt lat="47.558762" lon="7.947305">
        <ele>303.179205</ele>
        <time>2021-11-14T15:55:18.837Z</time>
      </trkpt>
      <trkpt lat="47.558797" lon="7.947195">
        <ele>303.203465</ele>
        <time>2021-11-14T15:55:20.385Z</time>
      </trkpt>
      <trkpt lat="47.559054" lon="7.947099">
        <ele>303.021368</ele>
        <time>2021-11-14T15:55:24.145Z</time>
      </trkpt>
      <trkpt lat="47.559070" lon="7.947092">
        <ele>303.009907</ele>
        <time>2021-11-14T15:55:24.303Z</time>
      </trkpt>
      <trkpt lat="47.559257" lon="7.947000">
        <ele>302.874532</ele>
        <time>2021-11-14T15:55:27.202Z</time>
      </trkpt>
      <trkpt lat="47.559253" lon="7.946858">
        <ele>302.808638</ele>
        <time>2021-11-14T15:55:28.725Z</time>
      </trkpt>
      <trkpt lat="47.559277" lon="7.946727">
        <ele>302.745702</ele>
        <time>2021-11-14T15:55:29.893Z</time>
      </trkpt>
      <trkpt lat="47.559335" lon="7.946657">
        <ele>302.694309</ele>
        <time>2021-11-14T15:55:30.976Z</time>
      </trkpt>
      <trkpt lat="47.559262" lon="7.946497">
        <ele>302.604762</ele>
        <time>2021-11-14T15:55:32.549Z</time>
      </trkpt>
      <trkpt lat="47.559192" lon="7.946365">
        <ele>302.526926</ele>
        <time>2021-11-14T15:55:34.134Z</time>
      </trkpt>
      <trkpt lat="47.559181" lon="7.946345">
        <ele>302.514963</ele>
        <time>2021-11-14T15:55:34.290Z</time>
      </trkpt>
      <trkpt lat="47.559069" lon="7.946204">
        <ele>302.413993</ele>
        <time>2021-11-14T15:55:36.123Z</time>
      </trkpt>
      <trkpt lat="47.558869" lon="7.945954">
        <ele>302.234224</ele>
        <time>2021-11-14T15:55:39.534Z</time>
      </trkpt>
      <trkpt lat="47.558804" lon="7.945896">
        <ele>302.182094</ele>
        <time>2021-11-14T15:55:40.336Z</time>
      </trkpt>
      <trkpt lat="47.558745" lon="7.945856">
        <ele>302.137517</ele>
        <time>2021-11-14T15:55:41.096Z</time>
      </trkpt>
      <trkpt lat="47.558700" lon="7.945825">
        <ele>302.103422</ele>
        <time>2021-11-14T15:55:41.753Z</time>
      </trkpt>
      <trkpt lat="47.558608" lon="7.945765">
        <ele>302.034362</ele>
        <time>2021-11-14T15:55:43.001Z</time>
      </trkpt>
      <trkpt lat="47.558540" lon="7.945722">
        <ele>301.962553</ele>
        <time>2021-11-14T15:55:43.828Z</time>
      </trkpt>
      <trkpt lat="47.558415" lon="7.945666">
        <ele>301.754416</ele>
        <time>2021-11-14T15:55:45.176Z</time>
      </trkpt>
      <trkpt lat="47.558161" lon="7.945614">
        <ele>301.345732</ele>
        <time>2021-11-14T15:55:47.925Z</time>
      </trkpt>
      <trkpt lat="47.558102" lon="7.945615">
        <ele>301.251688</ele>
        <time>2021-11-14T15:55:48.493Z</time>
      </trkpt>
      <trkpt lat="47.558009" lon="7.945617">
        <ele>301.103444</ele>
        <time>2021-11-14T15:55:49.503Z</time>
      </trkpt>
      <trkpt lat="47.557910" lon="7.945625">
        <ele>300.945419</ele>
        <time>2021-11-14T15:55:50.638Z</time>
      </trkpt>
      <trkpt lat="47.557744" lon="7.945674">
        <ele>300.675641</ele>
        <time>2021-11-14T15:55:52.303Z</time>
      </trkpt>
      <trkpt lat="47.557613" lon="7.945697">
        <ele>300.465386</ele>
        <time>2021-11-14T15:55:53.901Z</time>
      </trkpt>
      <trkpt lat="47.557529" lon="7.945747">
        <ele>300.321104</ele>
        <time>2021-11-14T15:55:55.057Z</time>
      </trkpt>
      <trkpt lat="47.557394" lon="7.945716">
        <ele>300.103366</ele>
        <time>2021-11-14T15:55:56.506Z</time>
      </trkpt>
      <trkpt lat="47.557268" lon="7.945688">
        <ele>299.900295</ele>
        <time>2021-11-14T15:55:58.121Z</time>
      </trkpt>
      <trkpt lat="47.557196" lon="7.945663">
        <ele>299.782429</ele>
        <time>2021-11-14T15:55:59.126Z</time>
      </trkpt>
      <trkpt lat="47.557110" lon="7.945492">
        <ele>299.553040</ele>
        <time>2021-11-14T15:56:00.970Z</time>
      </trkpt>
      <trkpt lat="47.556999" lon="7.945268">
        <ele>299.254123</ele>
        <time>2021-11-14T15:56:03.387Z</time>
      </trkpt>
      <trkpt lat="47.556970" lon="7.945211">
        <ele>299.177342</ele>
        <time>2021-11-14T15:56:04.032Z</time>
      </trkpt>
      <trkpt lat="47.556919" lon="7.945110">
        <ele>299.114579</ele>
        <time>2021-11-14T15:56:05.158Z</time>
      </trkpt>
      <trkpt lat="47.556830" lon="7.944931">
        <ele>299.066944</ele>
        <time>2021-11-14T15:56:06.985Z</time>
      </trkpt>
      <trkpt lat="47.556650" lon="7.944566">
        <ele>298.970091</ele>
        <time>2021-11-14T15:56:10.918Z</time>
      </trkpt>
      <trkpt lat="47.556439" lon="7.944137">
        <ele>298.856359</ele>
        <time>2021-11-14T15:56:15.727Z</time>
      </trkpt>
      <trkpt lat="47.556345" lon="7.943946">
        <ele>298.805713</ele>
        <time>2021-11-14T15:56:17.895Z</time>
      </trkpt>
      <trkpt lat="47.556302" lon="7.943858">
        <ele>298.782436</ele>
        <time>2021-11-14T15:56:18.942Z</time>
      </trkpt>
      <trkpt lat="47.556288" lon="7.943830">
        <ele>298.774970</ele>
        <time>2021-11-14T15:56:19.297Z</time>
      </trkpt>
      <trkpt lat="47.556069" lon="7.943386">
        <ele>298.657145</ele>
        <time>2021-11-14T15:56:24.858Z</time>
      </trkpt>
      <trkpt lat="47.555911" lon="7.943042">
        <ele>298.567994</ele>
        <time>2021-11-14T15:56:29.261Z</time>
      </trkpt>
      <trkpt lat="47.555828" lon="7.942869">
        <ele>298.522039</ele>
        <time>2021-11-14T15:56:31.585Z</time>
      </trkpt>
      <trkpt lat="47.555765" lon="7.942732">
        <ele>298.486087</ele>
        <time>2021-11-14T15:56:33.297Z</time>
      </trkpt>
      <trkpt lat="47.555711" lon="7.942617">
        <ele>298.455705</ele>
        <time>2021-11-14T15:56:34.687Z</time>
      </trkpt>
      <trkpt lat="47.555633" lon="7.942436">
        <ele>298.409133</ele>
        <time>2021-11-14T15:56:36.809Z</time>
      </trkpt>
      <trkpt lat="47.555530" lon="7.942195">
        <ele>298.347270</ele>
        <time>2021-11-14T15:56:39.373Z</time>
      </trkpt>
      <trkpt lat="47.555494" lon="7.942104">
        <ele>298.324395</ele>
        <time>2021-11-14T15:56:40.319Z</time>
      </trkpt>
      <trkpt lat="47.555456" lon="7.942017">
        <ele>298.301921</ele>
        <time>2021-11-14T15:56:41.250Z</time>
      </trkpt>
      <trkpt lat="47.555313" lon="7.941663">
        <ele>298.212450</ele>
        <time>2021-11-14T15:56:44.753Z</time>
      </trkpt>
      <trkpt lat="47.555223" lon="7.941452">
        <ele>298.158318</ele>
        <time>2021-11-14T15:56:46.996Z</time>
      </trkpt>
      <trkpt lat="47.554981" lon="7.940858">
        <ele>298.007848</ele>
        <time>2021-11-14T15:56:53.289Z</time>
      </trkpt>
      <trkpt lat="47.554831" lon="7.940510">
        <ele>297.855908</ele>
        <time>2021-11-14T15:56:57.164Z</time>
      </trkpt>
      <trkpt lat="47.554786" lon="7.940407">
        <ele>297.803926</ele>
        <time>2021-11-14T15:56:58.240Z</time>
      </trkpt>
      <trkpt lat="47.554653" lon="7.940102">
        <ele>297.650085</ele>
        <time>2021-11-14T15:57:01.524Z</time>
      </trkpt>
      <trkpt lat="47.554446" lon="7.939644">
        <ele>297.416558</ele>
        <time>2021-11-14T15:57:06.333Z</time>
      </trkpt>
      <trkpt lat="47.554246" lon="7.939196">
        <ele>297.188992</ele>
        <time>2021-11-14T15:57:10.888Z</time>
      </trkpt>
      <trkpt lat="47.554109" lon="7.938885">
        <ele>297.031651</ele>
        <time>2021-11-14T15:57:14.031Z</time>
      </trkpt>
      <trkpt lat="47.553978" lon="7.938519">
        <ele>296.856134</ele>
        <time>2021-11-14T15:57:17.540Z</time>
      </trkpt>
      <trkpt lat="47.553909" lon="7.938319">
        <ele>296.806382</ele>
        <time>2021-11-14T15:57:19.473Z</time>
      </trkpt>
      <trkpt lat="47.553848" lon="7.938105">
        <ele>296.755673</ele>
        <time>2021-11-14T15:57:21.586Z</time>
      </trkpt>
      <trkpt lat="47.553805" lon="7.937948">
        <ele>296.718688</ele>
        <time>2021-11-14T15:57:23.123Z</time>
      </trkpt>
      <trkpt lat="47.553775" lon="7.937797">
        <ele>296.684329</ele>
        <time>2021-11-14T15:57:24.513Z</time>
      </trkpt>
      <trkpt lat="47.553769" lon="7.937764">
        <ele>296.676868</ele>
        <time>2021-11-14T15:57:24.828Z</time>
      </trkpt>
      <trkpt lat="47.553744" lon="7.937573">
        <ele>296.634399</ele>
        <time>2021-11-14T15:57:26.682Z</time>
      </trkpt>
      <trkpt lat="47.553727" lon="7.937367">
        <ele>296.589097</ele>
        <time>2021-11-14T15:57:28.587Z</time>
      </trkpt>
      <trkpt lat="47.553724" lon="7.937134">
        <ele>296.538227</ele>
        <time>2021-11-14T15:57:30.759Z</time>
      </trkpt>
      <trkpt lat="47.553732" lon="7.936945">
        <ele>296.496890</ele>
        <time>2021-11-14T15:57:32.549Z</time>
      </trkpt>
      <trkpt lat="47.553754" lon="7.936703">
        <ele>296.443588</ele>
        <time>2021-11-14T15:57:34.789Z</time>
      </trkpt>
      <trkpt lat="47.553763" lon="7.936585">
        <ele>296.417667</ele>
        <time>2021-11-14T15:57:35.919Z</time>
      </trkpt>
      <trkpt lat="47.553712" lon="7.936520">
        <ele>296.395909</ele>
        <time>2021-11-14T15:57:36.876Z</time>
      </trkpt>
      <trkpt lat="47.553680" lon="7.936493">
        <ele>296.383998</ele>
        <time>2021-11-14T15:57:37.397Z</time>
      </trkpt>
      <trkpt lat="47.553579" lon="7.936483">
        <ele>296.351259</ele>
        <time>2021-11-14T15:57:38.799Z</time>
      </trkpt>
      <trkpt lat="47.553468" lon="7.936486">
        <ele>296.315351</ele>
        <time>2021-11-14T15:57:40.389Z</time>
      </trkpt>
      <trkpt lat="47.553364" lon="7.936511">
        <ele>296.281274</ele>
        <time>2021-11-14T15:57:41.946Z</time>
      </trkpt>
      <trkpt lat="47.553238" lon="7.936486">
        <ele>296.232166</ele>
        <time>2021-11-14T15:57:43.897Z</time>
      </trkpt>
      <trkpt lat="47.553216" lon="7.936481">
        <ele>296.223211</ele>
        <time>2021-11-14T15:57:44.254Z</time>
      </trkpt>
      <trkpt lat="47.553130" lon="7.936464">
        <ele>296.188300</ele>
        <time>2021-11-14T15:57:45.630Z</time>
      </trkpt>
      <trkpt lat="47.553015" lon="7.936441">
        <ele>296.141608</ele>
        <time>2021-11-14T15:57:47.537Z</time>
      </trkpt>
      <trkpt lat="47.552921" lon="7.936425">
        <ele>296.103536</ele>
        <time>2021-11-14T15:57:49.162Z</time>
      </trkpt>
      <trkpt lat="47.552791" lon="7.936403">
        <ele>296.050888</ele>
        <time>2021-11-14T15:57:51.004Z</time>
      </trkpt>
      <trkpt lat="47.552493" lon="7.936374">
        <ele>295.930723</ele>
        <time>2021-11-14T15:57:55.479Z</time>
      </trkpt>
      <trkpt lat="47.552311" lon="7.936357">
        <ele>295.857346</ele>
        <time>2021-11-14T15:57:58.001Z</time>
      </trkpt>
      <trkpt lat="47.551926" lon="7.936360">
        <ele>295.702430</ele>
        <time>2021-11-14T15:58:03.354Z</time>
      </trkpt>
      <trkpt lat="47.551730" lon="7.936373">
        <ele>295.623487</ele>
        <time>2021-11-14T15:58:05.963Z</time>
      </trkpt>
      <trkpt lat="47.551599" lon="7.936386">
        <ele>295.570658</ele>
        <time>2021-11-14T15:58:07.646Z</time>
      </trkpt>
      <trkpt lat="47.551477" lon="7.936401">
        <ele>295.375920</ele>
        <time>2021-11-14T15:58:09.005Z</time>
      </trkpt>
      <trkpt lat="47.551303" lon="7.936435">
        <ele>294.935464</ele>
        <time>2021-11-14T15:58:10.937Z</time>
      </trkpt>
      <trkpt lat="47.550607" lon="7.936694">
        <ele>293.134518</ele>
        <time>2021-11-14T15:58:18.567Z</time>
      </trkpt>
      <trkpt lat="47.550221" lon="7.936962">
        <ele>292.064716</ele>
        <time>2021-11-14T15:58:22.982Z</time>
      </trkpt>
      <trkpt lat="47.550098" lon="7.937070">
        <ele>291.705897</ele>
        <time>2021-11-14T15:58:24.370Z</time>
      </trkpt>
      <trkpt lat="47.549970" lon="7.937189">
        <ele>291.326661</ele>
        <time>2021-11-14T15:58:25.896Z</time>
      </trkpt>
      <trkpt lat="47.549714" lon="7.937478">
        <ele>290.483181</ele>
        <time>2021-11-14T15:58:29.129Z</time>
      </trkpt>
      <trkpt lat="47.549404" lon="7.937916">
        <ele>289.333671</ele>
        <time>2021-11-14T15:58:33.495Z</time>
      </trkpt>
      <trkpt lat="47.549168" lon="7.938309">
        <ele>288.380911</ele>
        <time>2021-11-14T15:58:37.093Z</time>
      </trkpt>
      <trkpt lat="47.549055" lon="7.938483">
        <ele>287.943563</ele>
        <time>2021-11-14T15:58:38.710Z</time>
      </trkpt>
      <trkpt lat="47.548911" lon="7.938838">
        <ele>287.193390</ele>
        <time>2021-11-14T15:58:41.691Z</time>
      </trkpt>
      <trkpt lat="47.548679" lon="7.939412">
        <ele>286.177841</ele>
        <time>2021-11-14T15:58:46.830Z</time>
      </trkpt>
      <trkpt lat="47.548592" lon="7.939666">
        <ele>286.107870</ele>
        <time>2021-11-14T15:58:49.208Z</time>
      </trkpt>
      <trkpt lat="47.548585" lon="7.939688">
        <ele>286.101895</ele>
        <time>2021-11-14T15:58:49.413Z</time>
      </trkpt>
      <trkpt lat="47.548563" lon="7.939753">
        <ele>286.084032</ele>
        <time>2021-11-14T15:58:50.012Z</time>
      </trkpt>
      <trkpt lat="47.548509" lon="7.939765">
        <ele>286.064158</ele>
        <time>2021-11-14T15:58:50.641Z</time>
      </trkpt>
      <trkpt lat="47.548479" lon="7.939789">
        <ele>286.051749</ele>
        <time>2021-11-14T15:58:51.040Z</time>
      </trkpt>
      <trkpt lat="47.548455" lon="7.939823">
        <ele>286.039664</ele>
        <time>2021-11-14T15:58:51.451Z</time>
      </trkpt>
      <trkpt lat="47.548437" lon="7.939866">
        <ele>286.027234</ele>
        <time>2021-11-14T15:58:51.870Z</time>
      </trkpt>
      <trkpt lat="47.548426" lon="7.939924">
        <ele>286.012434</ele>
        <time>2021-11-14T15:58:52.386Z</time>
      </trkpt>
      <trkpt lat="47.548427" lon="7.939957">
        <ele>286.004319</ele>
        <time>2021-11-14T15:58:52.698Z</time>
      </trkpt>
      <trkpt lat="47.548446" lon="7.940038">
        <ele>285.983253</ele>
        <time>2021-11-14T15:58:53.443Z</time>
      </trkpt>
      <trkpt lat="47.548468" lon="7.940081">
        <ele>285.969998</ele>
        <time>2021-11-14T15:58:53.951Z</time>
      </trkpt>
      <trkpt lat="47.548420" lon="7.940256">
        <ele>285.923594</ele>
        <time>2021-11-14T15:58:55.603Z</time>
      </trkpt>
      <trkpt lat="47.548303" lon="7.940599">
        <ele>285.829184</ele>
        <time>2021-11-14T15:58:59.526Z</time>
      </trkpt>
      <trkpt lat="47.548195" lon="7.940950">
        <ele>285.734420</ele>
        <time>2021-11-14T15:59:03.526Z</time>
      </trkpt>
      <trkpt lat="47.547852" lon="7.942144">
        <ele>285.739138</ele>
        <time>2021-11-14T15:59:17.986Z</time>
      </trkpt>
      <trkpt lat="47.547772" lon="7.942416">
        <ele>285.836660</ele>
        <time>2021-11-14T15:59:21.603Z</time>
      </trkpt>
      <trkpt lat="47.547436" lon="7.943731">
        <ele>286.298822</ele>
        <time>2021-11-14T15:59:37.834Z</time>
      </trkpt>
      <trkpt lat="47.547297" lon="7.944159">
        <ele>286.452543</ele>
        <time>2021-11-14T15:59:43.147Z</time>
      </trkpt>
      <trkpt lat="47.547246" lon="7.944330">
        <ele>286.508114</ele>
        <time>2021-11-14T15:59:45.330Z</time>
      </trkpt>
      <trkpt lat="47.547178" lon="7.944456">
        <ele>286.556068</ele>
        <time>2021-11-14T15:59:47.111Z</time>
      </trkpt>
      <trkpt lat="47.547134" lon="7.944545">
        <ele>286.588861</ele>
        <time>2021-11-14T15:59:48.180Z</time>
      </trkpt>
      <trkpt lat="47.546764" lon="7.945239">
        <ele>286.851746</ele>
        <time>2021-11-14T15:59:57.040Z</time>
      </trkpt>
      <trkpt lat="47.546516" lon="7.946289">
        <ele>287.182424</ele>
        <time>2021-11-14T16:00:09.013Z</time>
      </trkpt>
      <trkpt lat="47.546519" lon="7.946567">
        <ele>287.514375</ele>
        <time>2021-11-14T16:00:12.543Z</time>
      </trkpt>
      <trkpt lat="47.546565" lon="7.946721">
        <ele>287.854092</ele>
        <time>2021-11-14T16:00:15.055Z</time>
      </trkpt>
      <trkpt lat="47.546592" lon="7.946809">
        <ele>288.049089</ele>
        <time>2021-11-14T16:00:16.432Z</time>
      </trkpt>
      <trkpt lat="47.546633" lon="7.946946">
        <ele>288.351399</ele>
        <time>2021-11-14T16:00:18.684Z</time>
      </trkpt>
      <trkpt lat="47.546648" lon="7.947009">
        <ele>288.486161</ele>
        <time>2021-11-14T16:00:19.651Z</time>
      </trkpt>
      <trkpt lat="47.546651" lon="7.947115">
        <ele>288.700178</ele>
        <time>2021-11-14T16:00:21.439Z</time>
      </trkpt>
      <trkpt lat="47.546572" lon="7.947545">
        <ele>289.599155</ele>
        <time>2021-11-14T16:00:28.853Z</time>
      </trkpt>
      <trkpt lat="47.546159" lon="7.949303">
        <ele>293.402200</ele>
        <time>2021-11-14T16:01:07.620Z</time>
      </trkpt>
      <trkpt lat="47.545949" lon="7.950185">
        <ele>295.408646</ele>
        <time>2021-11-14T16:01:27.892Z</time>
      </trkpt>
      <trkpt lat="47.545884" lon="7.950363">
        <ele>295.842816</ele>
        <time>2021-11-14T16:01:31.825Z</time>
      </trkpt>
      <trkpt lat="47.545822" lon="7.950627">
        <ele>296.442486</ele>
        <time>2021-11-14T16:01:37.127Z</time>
      </trkpt>
      <trkpt lat="47.545810" lon="7.950694">
        <ele>296.591197</ele>
        <time>2021-11-14T16:01:38.358Z</time>
      </trkpt>
      <trkpt lat="47.545763" lon="7.950733">
        <ele>296.762412</ele>
        <time>2021-11-14T16:01:39.866Z</time>
      </trkpt>
      <trkpt lat="47.545659" lon="7.950771">
        <ele>297.102858</ele>
        <time>2021-11-14T16:01:42.287Z</time>
      </trkpt>
      <trkpt lat="47.545625" lon="7.950771">
        <ele>297.210920</ele>
        <time>2021-11-14T16:01:43.185Z</time>
      </trkpt>
      <trkpt lat="47.545567" lon="7.950765">
        <ele>297.395709</ele>
        <time>2021-11-14T16:01:44.598Z</time>
      </trkpt>
      <trkpt lat="47.545494" lon="7.950684">
        <ele>297.685584</ele>
        <time>2021-11-14T16:01:46.735Z</time>
      </trkpt>
      <trkpt lat="47.545434" lon="7.950668">
        <ele>297.879346</ele>
        <time>2021-11-14T16:01:48.215Z</time>
      </trkpt>
      <trkpt lat="47.545166" lon="7.950366">
        <ele>298.385023</ele>
        <time>2021-11-14T16:01:54.986Z</time>
      </trkpt>
      <trkpt lat="47.544901" lon="7.950044">
        <ele>298.506834</ele>
        <time>2021-11-14T16:02:00.621Z</time>
      </trkpt>
      <trkpt lat="47.544521" lon="7.949558">
        <ele>298.685254</ele>
        <time>2021-11-14T16:02:07.318Z</time>
      </trkpt>
      <trkpt lat="47.544239" lon="7.949202">
        <ele>298.816933</ele>
        <time>2021-11-14T16:02:12.281Z</time>
      </trkpt>
      <trkpt lat="47.543864" lon="7.948694">
        <ele>299.176270</ele>
        <time>2021-11-14T16:02:20.244Z</time>
      </trkpt>
      <trkpt lat="47.543760" lon="7.948548">
        <ele>299.432503</ele>
        <time>2021-11-14T16:02:22.486Z</time>
      </trkpt>
      <trkpt lat="47.543579" lon="7.948287">
        <ele>299.884220</ele>
        <time>2021-11-14T16:02:28.204Z</time>
      </trkpt>
      <trkpt lat="47.543532" lon="7.948214">
        <ele>300.006002</ele>
        <time>2021-11-14T16:02:29.330Z</time>
      </trkpt>
      <trkpt lat="47.543435" lon="7.948000">
        <ele>300.317178</ele>
        <time>2021-11-14T16:02:32.392Z</time>
      </trkpt>
      <trkpt lat="47.543407" lon="7.947938">
        <ele>300.407230</ele>
        <time>2021-11-14T16:02:34.249Z</time>
      </trkpt>
      <trkpt lat="47.543280" lon="7.947656">
        <ele>300.816467</ele>
        <time>2021-11-14T16:02:38.736Z</time>
      </trkpt>
      <trkpt lat="47.543142" lon="7.947250">
        <ele>301.365217</ele>
        <time>2021-11-14T16:02:46.200Z</time>
      </trkpt>
      <trkpt lat="47.543086" lon="7.947052">
        <ele>301.624374</ele>
        <time>2021-11-14T16:02:49.629Z</time>
      </trkpt>
      <trkpt lat="47.543056" lon="7.946935">
        <ele>301.775463</ele>
        <time>2021-11-14T16:02:52.471Z</time>
      </trkpt>
      <trkpt lat="47.543045" lon="7.946881">
        <ele>301.843555</ele>
        <time>2021-11-14T16:02:53.628Z</time>
      </trkpt>
      <trkpt lat="47.542982" lon="7.946547">
        <ele>302.291768</ele>
        <time>2021-11-14T16:02:59.027Z</time>
      </trkpt>
      <trkpt lat="47.542974" lon="7.946495">
        <ele>302.376752</ele>
        <time>2021-11-14T16:03:00.668Z</time>
      </trkpt>
      <trkpt lat="47.542960" lon="7.946400">
        <ele>302.531693</ele>
        <time>2021-11-14T16:03:02.734Z</time>
      </trkpt>
      <trkpt lat="47.542916" lon="7.945730">
        <ele>303.604335</ele>
        <time>2021-11-14T16:03:15.399Z</time>
      </trkpt>
      <trkpt lat="47.542913" lon="7.945267">
        <ele>304.342130</ele>
        <time>2021-11-14T16:03:23.894Z</time>
      </trkpt>
      <trkpt lat="47.543007" lon="7.943867">
        <ele>306.419415</ele>
        <time>2021-11-14T16:03:45.061Z</time>
      </trkpt>
      <trkpt lat="47.543161" lon="7.942213">
        <ele>306.480887</ele>
        <time>2021-11-14T16:04:03.468Z</time>
      </trkpt>
      <trkpt lat="47.543435" lon="7.940670">
        <ele>305.771887</ele>
        <time>2021-11-14T16:04:16.416Z</time>
      </trkpt>
      <trkpt lat="47.543826" lon="7.939433">
        <ele>304.337537</ele>
        <time>2021-11-14T16:04:26.817Z</time>
      </trkpt>
      <trkpt lat="47.544472" lon="7.937932">
        <ele>302.281907</ele>
        <time>2021-11-14T16:04:40.141Z</time>
      </trkpt>
      <trkpt lat="47.544705" lon="7.937395">
        <ele>301.511431</ele>
        <time>2021-11-14T16:04:44.980Z</time>
      </trkpt>
      <trkpt lat="47.544903" lon="7.936917">
        <ele>300.834549</ele>
        <time>2021-11-14T16:04:49.241Z</time>
      </trkpt>
      <trkpt lat="47.545074" lon="7.936484">
        <ele>300.306654</ele>
        <time>2021-11-14T16:04:53.072Z</time>
      </trkpt>
      <trkpt lat="47.545457" lon="7.935110">
        <ele>299.027130</ele>
        <time>2021-11-14T16:05:04.440Z</time>
      </trkpt>
      <trkpt lat="47.545674" lon="7.933625">
        <ele>298.466088</ele>
        <time>2021-11-14T16:05:17.520Z</time>
      </trkpt>
      <trkpt lat="47.545702" lon="7.933290">
        <ele>298.621370</ele>
        <time>2021-11-14T16:05:21.100Z</time>
      </trkpt>
      <trkpt lat="47.545724" lon="7.932758">
        <ele>298.866556</ele>
        <time>2021-11-14T16:05:27.367Z</time>
      </trkpt>
      <trkpt lat="47.545721" lon="7.931992">
        <ele>299.218932</ele>
        <time>2021-11-14T16:05:37.407Z</time>
      </trkpt>
      <trkpt lat="47.545696" lon="7.931497">
        <ele>299.473784</ele>
        <time>2021-11-14T16:05:44.612Z</time>
      </trkpt>
      <trkpt lat="47.545661" lon="7.930955">
        <ele>300.152451</ele>
        <time>2021-11-14T16:05:53.307Z</time>
      </trkpt>
      <trkpt lat="47.545563" lon="7.929641">
        <ele>301.800272</ele>
        <time>2021-11-14T16:06:15.647Z</time>
      </trkpt>
      <trkpt lat="47.545475" lon="7.928419">
        <ele>302.327075</ele>
        <time>2021-11-14T16:06:31.949Z</time>
      </trkpt>
      <trkpt lat="47.545421" lon="7.927686">
        <ele>301.650668</ele>
        <time>2021-11-14T16:06:38.053Z</time>
      </trkpt>
      <trkpt lat="47.545406" lon="7.927306">
        <ele>301.301481</ele>
        <time>2021-11-14T16:06:40.957Z</time>
      </trkpt>
      <trkpt lat="47.545407" lon="7.927001">
        <ele>301.021687</ele>
        <time>2021-11-14T16:06:43.243Z</time>
      </trkpt>
      <trkpt lat="47.545409" lon="7.926773">
        <ele>300.812514</ele>
        <time>2021-11-14T16:06:44.873Z</time>
      </trkpt>
      <trkpt lat="47.545417" lon="7.925848">
        <ele>299.342187</ele>
        <time>2021-11-14T16:06:51.208Z</time>
      </trkpt>
      <trkpt lat="47.545446" lon="7.925350">
        <ele>298.057010</ele>
        <time>2021-11-14T16:06:54.500Z</time>
      </trkpt>
      <trkpt lat="47.545466" lon="7.924880">
        <ele>296.846182</ele>
        <time>2021-11-14T16:06:57.553Z</time>
      </trkpt>
      <trkpt lat="47.545481" lon="7.924396">
        <ele>295.600446</ele>
        <time>2021-11-14T16:07:00.636Z</time>
      </trkpt>
      <trkpt lat="47.545521" lon="7.923709">
        <ele>293.827525</ele>
        <time>2021-11-14T16:07:05.162Z</time>
      </trkpt>
      <trkpt lat="47.545536" lon="7.923407">
        <ele>293.269923</ele>
        <time>2021-11-14T16:07:07.310Z</time>
      </trkpt>
      <trkpt lat="47.545553" lon="7.923142">
        <ele>292.955560</ele>
        <time>2021-11-14T16:07:09.141Z</time>
      </trkpt>
      <trkpt lat="47.545587" lon="7.922895">
        <ele>292.657860</ele>
        <time>2021-11-14T16:07:11.074Z</time>
      </trkpt>
      <trkpt lat="47.545641" lon="7.922610">
        <ele>292.308280</ele>
        <time>2021-11-14T16:07:13.220Z</time>
      </trkpt>
      <trkpt lat="47.545690" lon="7.922369">
        <ele>292.011040</ele>
        <time>2021-11-14T16:07:15.226Z</time>
      </trkpt>
      <trkpt lat="47.545699" lon="7.922325">
        <ele>291.956744</ele>
        <time>2021-11-14T16:07:15.520Z</time>
      </trkpt>
      <trkpt lat="47.545714" lon="7.922249">
        <ele>291.863234</ele>
        <time>2021-11-14T16:07:16.110Z</time>
      </trkpt>
      <trkpt lat="47.545778" lon="7.921947">
        <ele>291.489423</ele>
        <time>2021-11-14T16:07:18.813Z</time>
      </trkpt>
      <trkpt lat="47.545810" lon="7.921755">
        <ele>291.255871</ele>
        <time>2021-11-14T16:07:20.294Z</time>
      </trkpt>
      <trkpt lat="47.545881" lon="7.921096">
        <ele>290.467775</ele>
        <time>2021-11-14T16:07:25.756Z</time>
      </trkpt>
      <trkpt lat="47.545913" lon="7.920765">
        <ele>290.269149</ele>
        <time>2021-11-14T16:07:28.648Z</time>
      </trkpt>
      <trkpt lat="47.545973" lon="7.920313">
        <ele>290.173868</ele>
        <time>2021-11-14T16:07:33.119Z</time>
      </trkpt>
      <trkpt lat="47.546128" lon="7.919617">
        <ele>290.022277</ele>
        <time>2021-11-14T16:07:40.359Z</time>
      </trkpt>
      <trkpt lat="47.546262" lon="7.919081">
        <ele>289.904053</ele>
        <time>2021-11-14T16:07:46.408Z</time>
      </trkpt>
      <trkpt lat="47.546821" lon="7.916867">
        <ele>289.117431</ele>
        <time>2021-11-14T16:08:07.076Z</time>
      </trkpt>
      <trkpt lat="47.547032" lon="7.916218">
        <ele>288.839696</ele>
        <time>2021-11-14T16:08:13.383Z</time>
      </trkpt>
      <trkpt lat="47.547091" lon="7.916039">
        <ele>288.762894</ele>
        <time>2021-11-14T16:08:15.157Z</time>
      </trkpt>
      <trkpt lat="47.547113" lon="7.915971">
        <ele>288.733820</ele>
        <time>2021-11-14T16:08:15.747Z</time>
      </trkpt>
      <trkpt lat="47.547423" lon="7.915080">
        <ele>288.770443</ele>
        <time>2021-11-14T16:08:25.234Z</time>
      </trkpt>
      <trkpt lat="47.547994" lon="7.913433">
        <ele>288.953300</ele>
        <time>2021-11-14T16:08:44.939Z</time>
      </trkpt>
      <trkpt lat="47.548027" lon="7.913334">
        <ele>289.024338</ele>
        <time>2021-11-14T16:08:46.298Z</time>
      </trkpt>
      <trkpt lat="47.548412" lon="7.912168">
        <ele>289.859459</ele>
        <time>2021-11-14T16:09:02.701Z</time>
      </trkpt>
      <trkpt lat="47.549012" lon="7.910340">
        <ele>291.357179</ele>
        <time>2021-11-14T16:09:29.644Z</time>
      </trkpt>
      <trkpt lat="47.549102" lon="7.910058">
        <ele>291.619489</ele>
        <time>2021-11-14T16:09:33.741Z</time>
      </trkpt>
      <trkpt lat="47.549195" lon="7.909756">
        <ele>291.898627</ele>
        <time>2021-11-14T16:09:38.063Z</time>
      </trkpt>
      <trkpt lat="47.549301" lon="7.909403">
        <ele>292.223519</ele>
        <time>2021-11-14T16:09:43.042Z</time>
      </trkpt>
      <trkpt lat="47.549378" lon="7.909148">
        <ele>292.458430</ele>
        <time>2021-11-14T16:09:46.682Z</time>
      </trkpt>
      <trkpt lat="47.549520" lon="7.908678">
        <ele>292.963881</ele>
        <time>2021-11-14T16:09:53.335Z</time>
      </trkpt>
      <trkpt lat="47.549539" lon="7.908625">
        <ele>293.050179</ele>
        <time>2021-11-14T16:09:54.073Z</time>
      </trkpt>
      <trkpt lat="47.550497" lon="7.905558">
        <ele>298.658669</ele>
        <time>2021-11-14T16:10:48.998Z</time>
      </trkpt>
      <trkpt lat="47.550283" lon="7.905413">
        <ele>299.451379</ele>
        <time>2021-11-14T16:10:57.164Z</time>
      </trkpt>
      <trkpt lat="47.550067" lon="7.905245">
        <ele>300.273185</ele>
        <time>2021-11-14T16:11:05.850Z</time>
      </trkpt>
      <trkpt lat="47.549867" lon="7.905155">
        <ele>300.977315</ele>
        <time>2021-11-14T16:11:13.479Z</time>
      </trkpt>
      <trkpt lat="47.549868" lon="7.905010">
        <ele>301.307018</ele>
        <time>2021-11-14T16:11:16.884Z</time>
      </trkpt>
      <trkpt lat="47.550025" lon="7.904774">
        <ele>302.060443</ele>
        <time>2021-11-14T16:11:25.036Z</time>
      </trkpt>
      <trkpt lat="47.550302" lon="7.904164">
        <ele>303.838083</ele>
        <time>2021-11-14T16:11:43.335Z</time>
      </trkpt>
      <trkpt lat="47.550498" lon="7.903445">
        <ele>305.778907</ele>
        <time>2021-11-14T16:12:02.906Z</time>
      </trkpt>
      <trkpt lat="47.550688" lon="7.902451">
        <ele>308.364629</ele>
        <time>2021-11-14T16:12:25.455Z</time>
      </trkpt>
      <trkpt lat="47.550757" lon="7.901591">
        <ele>310.676001</ele>
        <time>2021-11-14T16:12:45.251Z</time>
      </trkpt>
      <trkpt lat="47.550769" lon="7.901362">
        <ele>311.320811</ele>
        <time>2021-11-14T16:12:51.159Z</time>
      </trkpt>
      <trkpt lat="47.550801" lon="7.900244">
        <ele>314.462210</ele>
        <time>2021-11-14T16:13:15.556Z</time>
      </trkpt>
      <trkpt lat="47.550819" lon="7.898109">
        <ele>319.739107</ele>
        <time>2021-11-14T16:14:02.597Z</time>
      </trkpt>
      <trkpt lat="47.550648" lon="7.896481">
        <ele>323.064772</ele>
        <time>2021-11-14T16:14:30.252Z</time>
      </trkpt>
      <trkpt lat="47.550639" lon="7.896345">
        <ele>323.180606</ele>
        <time>2021-11-14T16:14:32.627Z</time>
      </trkpt>
      <trkpt lat="47.550660" lon="7.896255">
        <ele>323.261325</ele>
        <time>2021-11-14T16:14:33.427Z</time>
      </trkpt>
      <trkpt lat="47.550838" lon="7.895509">
        <ele>323.932023</ele>
        <time>2021-11-14T16:14:43.595Z</time>
      </trkpt>
      <trkpt lat="47.550878" lon="7.895158">
        <ele>324.233759</ele>
        <time>2021-11-14T16:14:47.658Z</time>
      </trkpt>
      <trkpt lat="47.550908" lon="7.894308">
        <ele>324.955243</ele>
        <time>2021-11-14T16:14:58.130Z</time>
      </trkpt>
      <trkpt lat="47.550892" lon="7.893176">
        <ele>327.156202</ele>
        <time>2021-11-14T16:15:12.847Z</time>
      </trkpt>
      <trkpt lat="47.550904" lon="7.891725">
        <ele>330.240435</ele>
        <time>2021-11-14T16:15:42.609Z</time>
      </trkpt>
      <trkpt lat="47.550915" lon="7.890600">
        <ele>334.373840</ele>
        <time>2021-11-14T16:16:11.450Z</time>
      </trkpt>
      <trkpt lat="47.550833" lon="7.889069">
        <ele>340.669124</ele>
        <time>2021-11-14T16:16:54.083Z</time>
      </trkpt>
      <trkpt lat="47.550831" lon="7.888611">
        <ele>342.524376</ele>
        <time>2021-11-14T16:17:06.653Z</time>
      </trkpt>
      <trkpt lat="47.550789" lon="7.887816">
        <ele>345.709657</ele>
        <time>2021-11-14T16:17:27.265Z</time>
      </trkpt>
      <trkpt lat="47.550758" lon="7.887295">
        <ele>347.798825</ele>
        <time>2021-11-14T16:17:41.087Z</time>
      </trkpt>
      <trkpt lat="47.550677" lon="7.886476">
        <ele>351.105200</ele>
        <time>2021-11-14T16:18:02.575Z</time>
      </trkpt>
      <trkpt lat="47.550548" lon="7.885799">
        <ele>353.595598</ele>
        <time>2021-11-14T16:18:19.779Z</time>
      </trkpt>
      <trkpt lat="47.550391" lon="7.885109">
        <ele>355.920089</ele>
        <time>2021-11-14T16:18:37.416Z</time>
      </trkpt>
      <trkpt lat="47.550332" lon="7.884727">
        <ele>357.171074</ele>
        <time>2021-11-14T16:18:46.106Z</time>
      </trkpt>
      <trkpt lat="47.550234" lon="7.883221">
        <ele>361.697913</ele>
        <time>2021-11-14T16:19:18.938Z</time>
      </trkpt>
      <trkpt lat="47.549927" lon="7.881490">
        <ele>365.931272</ele>
        <time>2021-11-14T16:19:51.201Z</time>
      </trkpt>
      <trkpt lat="47.549726" lon="7.880786">
        <ele>367.867668</ele>
        <time>2021-11-14T16:20:07.178Z</time>
      </trkpt>
      <trkpt lat="47.549327" lon="7.879547">
        <ele>371.803703</ele>
        <time>2021-11-14T16:20:36.962Z</time>
      </trkpt>
      <trkpt lat="47.549318" lon="7.879398">
        <ele>372.232618</ele>
        <time>2021-11-14T16:20:40.150Z</time>
      </trkpt>
      <trkpt lat="47.549140" lon="7.879391">
        <ele>372.989017</ele>
        <time>2021-11-14T16:20:47.021Z</time>
      </trkpt>
      <trkpt lat="47.548718" lon="7.879258">
        <ele>374.798152</ele>
        <time>2021-11-14T16:21:00.692Z</time>
      </trkpt>
      <trkpt lat="47.548422" lon="7.878959">
        <ele>375.553937</ele>
        <time>2021-11-14T16:21:11.338Z</time>
      </trkpt>
      <trkpt lat="47.548234" lon="7.878638">
        <ele>376.159104</ele>
        <time>2021-11-14T16:21:19.770Z</time>
      </trkpt>
      <trkpt lat="47.547992" lon="7.877974">
        <ele>377.233634</ele>
        <time>2021-11-14T16:21:32.868Z</time>
      </trkpt>
      <trkpt lat="47.547574" lon="7.876801">
        <ele>377.870240</ele>
        <time>2021-11-14T16:21:46.631Z</time>
      </trkpt>
      <trkpt lat="47.547126" lon="7.875801">
        <ele>375.709861</ele>
        <time>2021-11-14T16:21:55.414Z</time>
      </trkpt>
      <trkpt lat="47.546309" lon="7.874154">
        <ele>369.829412</ele>
        <time>2021-11-14T16:22:08.602Z</time>
      </trkpt>
      <trkpt lat="47.546135" lon="7.873859">
        <ele>368.233161</ele>
        <time>2021-11-14T16:22:10.984Z</time>
      </trkpt>
      <trkpt lat="47.546077" lon="7.873763">
        <ele>367.708198</ele>
        <time>2021-11-14T16:22:11.795Z</time>
      </trkpt>
      <trkpt lat="47.545934" lon="7.873549">
        <ele>366.481229</ele>
        <time>2021-11-14T16:22:13.600Z</time>
      </trkpt>
      <trkpt lat="47.545746" lon="7.873302">
        <ele>364.964396</ele>
        <time>2021-11-14T16:22:15.888Z</time>
      </trkpt>
      <trkpt lat="47.545515" lon="7.873015">
        <ele>363.144523</ele>
        <time>2021-11-14T16:22:18.587Z</time>
      </trkpt>
      <trkpt lat="47.545478" lon="7.872968">
        <ele>362.842536</ele>
        <time>2021-11-14T16:22:19.028Z</time>
      </trkpt>
      <trkpt lat="47.545375" lon="7.872836">
        <ele>361.922289</ele>
        <time>2021-11-14T16:22:20.222Z</time>
      </trkpt>
      <trkpt lat="47.545131" lon="7.872664">
        <ele>360.096443</ele>
        <time>2021-11-14T16:22:22.681Z</time>
      </trkpt>
      <trkpt lat="47.544883" lon="7.872555">
        <ele>358.348504</ele>
        <time>2021-11-14T16:22:25.003Z</time>
      </trkpt>
      <trkpt lat="47.544390" lon="7.872423">
        <ele>354.963312</ele>
        <time>2021-11-14T16:22:29.468Z</time>
      </trkpt>
      <trkpt lat="47.543332" lon="7.872237">
        <ele>350.761952</ele>
        <time>2021-11-14T16:22:39.235Z</time>
      </trkpt>
      <trkpt lat="47.543251" lon="7.872152">
        <ele>350.761952</ele>
        <time>2021-11-14T16:22:40.176Z</time>
      </trkpt>
      <trkpt lat="47.543233" lon="7.872082">
        <ele>350.761952</ele>
        <time>2021-11-14T16:22:40.597Z</time>
      </trkpt>
      <trkpt lat="47.543013" lon="7.872182">
        <ele>350.761952</ele>
        <time>2021-11-14T16:22:42.837Z</time>
      </trkpt>
      <trkpt lat="47.542919" lon="7.872226">
        <ele>350.761952</ele>
        <time>2021-11-14T16:22:43.758Z</time>
      </trkpt>
      <trkpt lat="47.542814" lon="7.872280">
        <ele>350.761952</ele>
        <time>2021-11-14T16:22:44.810Z</time>
      </trkpt>
      <trkpt lat="47.542714" lon="7.872334">
        <ele>350.761952</ele>
        <time>2021-11-14T16:22:45.893Z</time>
      </trkpt>
      <trkpt lat="47.542537" lon="7.872430">
        <ele>350.761952</ele>
        <time>2021-11-14T16:22:47.619Z</time>
      </trkpt>
      <trkpt lat="47.542436" lon="7.872494">
        <ele>350.761952</ele>
        <time>2021-11-14T16:22:48.945Z</time>
      </trkpt>
      <trkpt lat="47.542394" lon="7.872341">
        <ele>350.761952</ele>
        <time>2021-11-14T16:22:50.025Z</time>
      </trkpt>
      <trkpt lat="47.542218" lon="7.871866">
        <ele>350.761952</ele>
        <time>2021-11-14T16:22:53.671Z</time>
      </trkpt>
      <trkpt lat="47.542091" lon="7.871721">
        <ele>350.761952</ele>
        <time>2021-11-14T16:22:55.182Z</time>
      </trkpt>
      <trkpt lat="47.542067" lon="7.871664">
        <ele>350.761952</ele>
        <time>2021-11-14T16:22:55.901Z</time>
      </trkpt>
      <trkpt lat="47.542039" lon="7.871556">
        <ele>350.761952</ele>
        <time>2021-11-14T16:22:56.794Z</time>
      </trkpt>
      <trkpt lat="47.541953" lon="7.871286">
        <ele>350.761952</ele>
        <time>2021-11-14T16:22:58.949Z</time>
      </trkpt>
      <trkpt lat="47.541846" lon="7.871120">
        <ele>350.761952</ele>
        <time>2021-11-14T16:23:00.810Z</time>
      </trkpt>
    </trkseg>
  </trk>
</gpx>